<?xml version="1.0" encoding="UTF-8" standalone="no" ?>
<gpx xmlns="http://www.topografix.com/GPX/1/1" xmlns:xsi="http://www.w3.org/2001/XMLSchema-instance" xsi:schemaLocation="http://www.topografix.com/GPX/1/1 http://www.topografix.com/GPX/1/1/gpx.xsd" version="1.1" creator="VisuGPX - https://www.visugpx.com">
  <metadata>
    <name>83-CD-2013-8-12-Bargemon - Bois de Favas et de la Coste</name>
    <desc><![CDATA[Bargemon - Bois de Favas et de la Coste]]></desc>
  </metadata>
  <trk>
    <name><![CDATA[2013-12-08 Bargemon A Modif]]></name>
    <trkseg>
      <trkpt lat="43.61382" lon="6.53939">
        <ele>490.1</ele>
        <time>2013-12-08T08:53:58Z</time>
      </trkpt>
      <trkpt lat="43.61384" lon="6.53959">
        <ele>490.1</ele>
        <time>2013-12-08T08:54:07Z</time>
      </trkpt>
      <trkpt lat="43.61383" lon="6.53968">
        <ele>490.1</ele>
        <time>2013-12-08T08:54:10Z</time>
      </trkpt>
      <trkpt lat="43.61384" lon="6.53982">
        <ele>489.9</ele>
        <time>2013-12-08T08:54:17Z</time>
      </trkpt>
      <trkpt lat="43.61388" lon="6.54">
        <ele>490.1</ele>
        <time>2013-12-08T08:54:25Z</time>
      </trkpt>
      <trkpt lat="43.61394" lon="6.54015">
        <ele>490.2</ele>
        <time>2013-12-08T08:54:33Z</time>
      </trkpt>
      <trkpt lat="43.61394" lon="6.54019">
        <ele>490.2</ele>
        <time>2013-12-08T08:54:35Z</time>
      </trkpt>
      <trkpt lat="43.61406" lon="6.5405">
        <ele>489.7</ele>
        <time>2013-12-08T08:54:52Z</time>
      </trkpt>
      <trkpt lat="43.61415" lon="6.54073">
        <ele>489.9</ele>
        <time>2013-12-08T08:55:05Z</time>
      </trkpt>
      <trkpt lat="43.61416" lon="6.54078">
        <ele>490.2</ele>
        <time>2013-12-08T08:55:07Z</time>
      </trkpt>
      <trkpt lat="43.61415" lon="6.54093">
        <ele>490.1</ele>
        <time>2013-12-08T08:55:15Z</time>
      </trkpt>
      <trkpt lat="43.61407" lon="6.54083">
        <ele>491.7</ele>
        <time>2013-12-08T08:55:27Z</time>
      </trkpt>
      <trkpt lat="43.61402" lon="6.54073">
        <ele>494</ele>
        <time>2013-12-08T08:55:37Z</time>
      </trkpt>
      <trkpt lat="43.61396" lon="6.54064">
        <ele>497.7</ele>
        <time>2013-12-08T08:55:54Z</time>
      </trkpt>
      <trkpt lat="43.61391" lon="6.54062">
        <ele>499.3</ele>
        <time>2013-12-08T08:56:00Z</time>
      </trkpt>
      <trkpt lat="43.61389" lon="6.54074">
        <ele>500.1</ele>
        <time>2013-12-08T08:56:09Z</time>
      </trkpt>
      <trkpt lat="43.61376" lon="6.54064">
        <ele>502.7</ele>
        <time>2013-12-08T08:56:29Z</time>
      </trkpt>
      <trkpt lat="43.61372" lon="6.54059">
        <ele>503.5</ele>
        <time>2013-12-08T08:56:33Z</time>
      </trkpt>
      <trkpt lat="43.61366" lon="6.54053">
        <ele>505</ele>
        <time>2013-12-08T08:56:45Z</time>
      </trkpt>
      <trkpt lat="43.61359" lon="6.54056">
        <ele>506</ele>
        <time>2013-12-08T08:56:52Z</time>
      </trkpt>
      <trkpt lat="43.61356" lon="6.5406">
        <ele>506.9</ele>
        <time>2013-12-08T08:56:58Z</time>
      </trkpt>
      <trkpt lat="43.61355" lon="6.54065">
        <ele>507.9</ele>
        <time>2013-12-08T08:57:07Z</time>
      </trkpt>
      <trkpt lat="43.61356" lon="6.54073">
        <ele>508.9</ele>
        <time>2013-12-08T08:57:12Z</time>
      </trkpt>
      <trkpt lat="43.61356" lon="6.54089">
        <ele>511.6</ele>
        <time>2013-12-08T08:57:30Z</time>
      </trkpt>
      <trkpt lat="43.61349" lon="6.54083">
        <ele>512.8</ele>
        <time>2013-12-08T08:57:40Z</time>
      </trkpt>
      <trkpt lat="43.61344" lon="6.54084">
        <ele>513.3</ele>
        <time>2013-12-08T08:57:44Z</time>
      </trkpt>
      <trkpt lat="43.61339" lon="6.54079">
        <ele>514.8</ele>
        <time>2013-12-08T08:57:53Z</time>
      </trkpt>
      <trkpt lat="43.61338" lon="6.54058">
        <ele>516.9</ele>
        <time>2013-12-08T08:58:11Z</time>
      </trkpt>
      <trkpt lat="43.61341" lon="6.54051">
        <ele>517.8</ele>
        <time>2013-12-08T08:58:19Z</time>
      </trkpt>
      <trkpt lat="43.61337" lon="6.54044">
        <ele>519.2</ele>
        <time>2013-12-08T08:58:29Z</time>
      </trkpt>
      <trkpt lat="43.61329" lon="6.5405">
        <ele>520.7</ele>
        <time>2013-12-08T08:58:39Z</time>
      </trkpt>
      <trkpt lat="43.61325" lon="6.54059">
        <ele>524</ele>
        <time>2013-12-08T08:58:59Z</time>
      </trkpt>
      <trkpt lat="43.61319" lon="6.54064">
        <ele>525.2</ele>
        <time>2013-12-08T08:59:05Z</time>
      </trkpt>
      <trkpt lat="43.61314" lon="6.54077">
        <ele>528</ele>
        <time>2013-12-08T08:59:25Z</time>
      </trkpt>
      <trkpt lat="43.61312" lon="6.54082">
        <ele>528.7</ele>
        <time>2013-12-08T08:59:31Z</time>
      </trkpt>
      <trkpt lat="43.61304" lon="6.54085">
        <ele>530.1</ele>
        <time>2013-12-08T08:59:41Z</time>
      </trkpt>
      <trkpt lat="43.61297" lon="6.54095">
        <ele>531.5</ele>
        <time>2013-12-08T08:59:50Z</time>
      </trkpt>
      <trkpt lat="43.61293" lon="6.54104">
        <ele>532.5</ele>
        <time>2013-12-08T08:59:56Z</time>
      </trkpt>
      <trkpt lat="43.61291" lon="6.54114">
        <ele>533.7</ele>
        <time>2013-12-08T09:00:10Z</time>
      </trkpt>
      <trkpt lat="43.61296" lon="6.54119">
        <ele>534.1</ele>
        <time>2013-12-08T09:00:31Z</time>
      </trkpt>
      <trkpt lat="43.6129" lon="6.54118">
        <ele>534.2</ele>
        <time>2013-12-08T09:00:35Z</time>
      </trkpt>
      <trkpt lat="43.61291" lon="6.54121">
        <ele>534</ele>
        <time>2013-12-08T09:00:49Z</time>
      </trkpt>
      <trkpt lat="43.61296" lon="6.5412">
        <ele>534.2</ele>
        <time>2013-12-08T09:00:59Z</time>
      </trkpt>
      <trkpt lat="43.61288" lon="6.54124">
        <ele>533.9</ele>
        <time>2013-12-08T09:01:05Z</time>
      </trkpt>
      <trkpt lat="43.61285" lon="6.5413">
        <ele>536.5</ele>
        <time>2013-12-08T09:03:22Z</time>
      </trkpt>
      <trkpt lat="43.61276" lon="6.54132">
        <ele>536.5</ele>
        <time>2013-12-08T09:03:26Z</time>
      </trkpt>
      <trkpt lat="43.61271" lon="6.54139">
        <ele>536.4</ele>
        <time>2013-12-08T09:03:31Z</time>
      </trkpt>
      <trkpt lat="43.6127" lon="6.54151">
        <ele>536</ele>
        <time>2013-12-08T09:03:38Z</time>
      </trkpt>
      <trkpt lat="43.61273" lon="6.54153">
        <ele>536.4</ele>
        <time>2013-12-08T09:03:47Z</time>
      </trkpt>
      <trkpt lat="43.61267" lon="6.54151">
        <ele>536.4</ele>
        <time>2013-12-08T09:03:51Z</time>
      </trkpt>
      <trkpt lat="43.61262" lon="6.54156">
        <ele>536.2</ele>
        <time>2013-12-08T09:03:59Z</time>
      </trkpt>
      <trkpt lat="43.61258" lon="6.54168">
        <ele>535.9</ele>
        <time>2013-12-08T09:04:09Z</time>
      </trkpt>
      <trkpt lat="43.61261" lon="6.54171">
        <ele>535.9</ele>
        <time>2013-12-08T09:04:12Z</time>
      </trkpt>
      <trkpt lat="43.61255" lon="6.54174">
        <ele>535.5</ele>
        <time>2013-12-08T09:04:21Z</time>
      </trkpt>
      <trkpt lat="43.61251" lon="6.54186">
        <ele>536</ele>
        <time>2013-12-08T09:04:35Z</time>
      </trkpt>
      <trkpt lat="43.61245" lon="6.54193">
        <ele>536.6</ele>
        <time>2013-12-08T09:04:44Z</time>
      </trkpt>
      <trkpt lat="43.61237" lon="6.54199">
        <ele>536.5</ele>
        <time>2013-12-08T09:04:53Z</time>
      </trkpt>
      <trkpt lat="43.61229" lon="6.54207">
        <ele>535.7</ele>
        <time>2013-12-08T09:05:03Z</time>
      </trkpt>
      <trkpt lat="43.6123" lon="6.54214">
        <ele>535.2</ele>
        <time>2013-12-08T09:05:10Z</time>
      </trkpt>
      <trkpt lat="43.61238" lon="6.54227">
        <ele>534.8</ele>
        <time>2013-12-08T09:05:17Z</time>
      </trkpt>
      <trkpt lat="43.61239" lon="6.5423">
        <ele>534.8</ele>
        <time>2013-12-08T09:05:18Z</time>
      </trkpt>
      <trkpt lat="43.61258" lon="6.5425">
        <ele>535.3</ele>
        <time>2013-12-08T09:05:27Z</time>
      </trkpt>
      <trkpt lat="43.61259" lon="6.54264">
        <ele>534.9</ele>
        <time>2013-12-08T09:05:36Z</time>
      </trkpt>
      <trkpt lat="43.61262" lon="6.54274">
        <ele>535.3</ele>
        <time>2013-12-08T09:05:47Z</time>
      </trkpt>
      <trkpt lat="43.61256" lon="6.5428">
        <ele>535.8</ele>
        <time>2013-12-08T09:05:54Z</time>
      </trkpt>
      <trkpt lat="43.61247" lon="6.54305">
        <ele>536.9</ele>
        <time>2013-12-08T09:06:15Z</time>
      </trkpt>
      <trkpt lat="43.61245" lon="6.54319">
        <ele>538.6</ele>
        <time>2013-12-08T09:06:30Z</time>
      </trkpt>
      <trkpt lat="43.61247" lon="6.54332">
        <ele>539.2</ele>
        <time>2013-12-08T09:06:45Z</time>
      </trkpt>
      <trkpt lat="43.6125" lon="6.54341">
        <ele>538.8</ele>
        <time>2013-12-08T09:06:52Z</time>
      </trkpt>
      <trkpt lat="43.61252" lon="6.54353">
        <ele>538.3</ele>
        <time>2013-12-08T09:07:02Z</time>
      </trkpt>
      <trkpt lat="43.61248" lon="6.54373">
        <ele>538.6</ele>
        <time>2013-12-08T09:07:19Z</time>
      </trkpt>
      <trkpt lat="43.61247" lon="6.54386">
        <ele>538.9</ele>
        <time>2013-12-08T09:07:28Z</time>
      </trkpt>
      <trkpt lat="43.61239" lon="6.54405">
        <ele>540.8</ele>
        <time>2013-12-08T09:07:45Z</time>
      </trkpt>
      <trkpt lat="43.61237" lon="6.54414">
        <ele>541.7</ele>
        <time>2013-12-08T09:07:54Z</time>
      </trkpt>
      <trkpt lat="43.61229" lon="6.54428">
        <ele>543.3</ele>
        <time>2013-12-08T09:08:06Z</time>
      </trkpt>
      <trkpt lat="43.61227" lon="6.5443">
        <ele>543.7</ele>
        <time>2013-12-08T09:08:10Z</time>
      </trkpt>
      <trkpt lat="43.6122" lon="6.54439">
        <ele>544.2</ele>
        <time>2013-12-08T09:08:20Z</time>
      </trkpt>
      <trkpt lat="43.61222" lon="6.54447">
        <ele>545.4</ele>
        <time>2013-12-08T09:08:27Z</time>
      </trkpt>
      <trkpt lat="43.6122" lon="6.54453">
        <ele>546.3</ele>
        <time>2013-12-08T09:08:32Z</time>
      </trkpt>
      <trkpt lat="43.61213" lon="6.54451">
        <ele>547.5</ele>
        <time>2013-12-08T09:08:43Z</time>
      </trkpt>
      <trkpt lat="43.61218" lon="6.54456">
        <ele>547.6</ele>
        <time>2013-12-08T09:08:47Z</time>
      </trkpt>
      <trkpt lat="43.61213" lon="6.54462">
        <ele>548.9</ele>
        <time>2013-12-08T09:08:57Z</time>
      </trkpt>
      <trkpt lat="43.6121" lon="6.54466">
        <ele>549.8</ele>
        <time>2013-12-08T09:09:05Z</time>
      </trkpt>
      <trkpt lat="43.61201" lon="6.5447">
        <ele>550.3</ele>
        <time>2013-12-08T09:09:10Z</time>
      </trkpt>
      <trkpt lat="43.61193" lon="6.54481">
        <ele>551.5</ele>
        <time>2013-12-08T09:09:25Z</time>
      </trkpt>
      <trkpt lat="43.61186" lon="6.54486">
        <ele>552</ele>
        <time>2013-12-08T09:09:30Z</time>
      </trkpt>
      <trkpt lat="43.61174" lon="6.54497">
        <ele>553.5</ele>
        <time>2013-12-08T09:09:40Z</time>
      </trkpt>
      <trkpt lat="43.61172" lon="6.54506">
        <ele>555.4</ele>
        <time>2013-12-08T09:09:54Z</time>
      </trkpt>
      <trkpt lat="43.61168" lon="6.54508">
        <ele>556</ele>
        <time>2013-12-08T09:09:58Z</time>
      </trkpt>
      <trkpt lat="43.61162" lon="6.54516">
        <ele>557.8</ele>
        <time>2013-12-08T09:10:09Z</time>
      </trkpt>
      <trkpt lat="43.61171" lon="6.5452">
        <ele>559.1</ele>
        <time>2013-12-08T09:10:18Z</time>
      </trkpt>
      <trkpt lat="43.61177" lon="6.54525">
        <ele>560.3</ele>
        <time>2013-12-08T09:10:27Z</time>
      </trkpt>
      <trkpt lat="43.61173" lon="6.54528">
        <ele>561.2</ele>
        <time>2013-12-08T09:10:32Z</time>
      </trkpt>
      <trkpt lat="43.61152" lon="6.54535">
        <ele>562.5</ele>
        <time>2013-12-08T09:10:43Z</time>
      </trkpt>
      <trkpt lat="43.61152" lon="6.54539">
        <ele>563.5</ele>
        <time>2013-12-08T09:10:50Z</time>
      </trkpt>
      <trkpt lat="43.61133" lon="6.54547">
        <ele>568.2</ele>
        <time>2013-12-08T09:11:25Z</time>
      </trkpt>
      <trkpt lat="43.61129" lon="6.54549">
        <ele>571.2</ele>
        <time>2013-12-08T09:11:43Z</time>
      </trkpt>
      <trkpt lat="43.61125" lon="6.54548">
        <ele>573.5</ele>
        <time>2013-12-08T09:11:57Z</time>
      </trkpt>
      <trkpt lat="43.61125" lon="6.54543">
        <ele>574</ele>
        <time>2013-12-08T09:12:00Z</time>
      </trkpt>
      <trkpt lat="43.61101" lon="6.54549">
        <ele>576.5</ele>
        <time>2013-12-08T09:12:18Z</time>
      </trkpt>
      <trkpt lat="43.61089" lon="6.54558">
        <ele>579.2</ele>
        <time>2013-12-08T09:12:37Z</time>
      </trkpt>
      <trkpt lat="43.61085" lon="6.54567">
        <ele>580.9</ele>
        <time>2013-12-08T09:12:48Z</time>
      </trkpt>
      <trkpt lat="43.61086" lon="6.54564">
        <ele>582.8</ele>
        <time>2013-12-08T09:13:02Z</time>
      </trkpt>
      <trkpt lat="43.61084" lon="6.54556">
        <ele>584.5</ele>
        <time>2013-12-08T09:13:14Z</time>
      </trkpt>
      <trkpt lat="43.61077" lon="6.5455">
        <ele>585.9</ele>
        <time>2013-12-08T09:13:27Z</time>
      </trkpt>
      <trkpt lat="43.6109" lon="6.54548">
        <ele>586.8</ele>
        <time>2013-12-08T09:13:32Z</time>
      </trkpt>
      <trkpt lat="43.61094" lon="6.54545">
        <ele>588.3</ele>
        <time>2013-12-08T09:13:41Z</time>
      </trkpt>
      <trkpt lat="43.6109" lon="6.54541">
        <ele>589</ele>
        <time>2013-12-08T09:13:47Z</time>
      </trkpt>
      <trkpt lat="43.61076" lon="6.54536">
        <ele>590.9</ele>
        <time>2013-12-08T09:14:05Z</time>
      </trkpt>
      <trkpt lat="43.61079" lon="6.54537">
        <ele>590.8</ele>
        <time>2013-12-08T09:14:15Z</time>
      </trkpt>
      <trkpt lat="43.61076" lon="6.54535">
        <ele>591.1</ele>
        <time>2013-12-08T09:14:37Z</time>
      </trkpt>
      <trkpt lat="43.61075" lon="6.54541">
        <ele>590.8</ele>
        <time>2013-12-08T09:15:03Z</time>
      </trkpt>
      <trkpt lat="43.61075" lon="6.5454">
        <ele>590.9</ele>
        <time>2013-12-08T09:15:32Z</time>
      </trkpt>
      <trkpt lat="43.61069" lon="6.54551">
        <ele>591.6</ele>
        <time>2013-12-08T09:15:41Z</time>
      </trkpt>
      <trkpt lat="43.61075" lon="6.54556">
        <ele>592.4</ele>
        <time>2013-12-08T09:15:49Z</time>
      </trkpt>
      <trkpt lat="43.61066" lon="6.54563">
        <ele>594.3</ele>
        <time>2013-12-08T09:16:04Z</time>
      </trkpt>
      <trkpt lat="43.61061" lon="6.54572">
        <ele>596.5</ele>
        <time>2013-12-08T09:16:21Z</time>
      </trkpt>
      <trkpt lat="43.61059" lon="6.54592">
        <ele>600.6</ele>
        <time>2013-12-08T09:16:48Z</time>
      </trkpt>
      <trkpt lat="43.61058" lon="6.54605">
        <ele>603.9</ele>
        <time>2013-12-08T09:17:09Z</time>
      </trkpt>
      <trkpt lat="43.61056" lon="6.54608">
        <ele>606.1</ele>
        <time>2013-12-08T09:17:23Z</time>
      </trkpt>
      <trkpt lat="43.61052" lon="6.54616">
        <ele>608.5</ele>
        <time>2013-12-08T09:17:39Z</time>
      </trkpt>
      <trkpt lat="43.6105" lon="6.54628">
        <ele>609.8</ele>
        <time>2013-12-08T09:17:51Z</time>
      </trkpt>
      <trkpt lat="43.61043" lon="6.54635">
        <ele>610.8</ele>
        <time>2013-12-08T09:18:03Z</time>
      </trkpt>
      <trkpt lat="43.61038" lon="6.54636">
        <ele>612.7</ele>
        <time>2013-12-08T09:18:16Z</time>
      </trkpt>
      <trkpt lat="43.61033" lon="6.54639">
        <ele>613.6</ele>
        <time>2013-12-08T09:18:42Z</time>
      </trkpt>
      <trkpt lat="43.61029" lon="6.54639">
        <ele>614.5</ele>
        <time>2013-12-08T09:18:47Z</time>
      </trkpt>
      <trkpt lat="43.61022" lon="6.54645">
        <ele>618</ele>
        <time>2013-12-08T09:19:11Z</time>
      </trkpt>
      <trkpt lat="43.61007" lon="6.54654">
        <ele>620.9</ele>
        <time>2013-12-08T09:19:39Z</time>
      </trkpt>
      <trkpt lat="43.61007" lon="6.54657">
        <ele>620.9</ele>
        <time>2013-12-08T09:20:00Z</time>
      </trkpt>
      <trkpt lat="43.61012" lon="6.54658">
        <ele>621.1</ele>
        <time>2013-12-08T09:20:04Z</time>
      </trkpt>
      <trkpt lat="43.61019" lon="6.54665">
        <ele>620.9</ele>
        <time>2013-12-08T09:20:13Z</time>
      </trkpt>
      <trkpt lat="43.6102" lon="6.54671">
        <ele>621.1</ele>
        <time>2013-12-08T09:20:19Z</time>
      </trkpt>
      <trkpt lat="43.61017" lon="6.54678">
        <ele>621</ele>
        <time>2013-12-08T09:20:28Z</time>
      </trkpt>
      <trkpt lat="43.61009" lon="6.5467">
        <ele>621.8</ele>
        <time>2013-12-08T09:20:40Z</time>
      </trkpt>
      <trkpt lat="43.61007" lon="6.54666">
        <ele>623.3</ele>
        <time>2013-12-08T09:20:48Z</time>
      </trkpt>
      <trkpt lat="43.61003" lon="6.54668">
        <ele>624.8</ele>
        <time>2013-12-08T09:20:57Z</time>
      </trkpt>
      <trkpt lat="43.61002" lon="6.54671">
        <ele>626.1</ele>
        <time>2013-12-08T09:21:07Z</time>
      </trkpt>
      <trkpt lat="43.60997" lon="6.54677">
        <ele>626.6</ele>
        <time>2013-12-08T09:21:14Z</time>
      </trkpt>
      <trkpt lat="43.60986" lon="6.54677">
        <ele>628.7</ele>
        <time>2013-12-08T09:21:27Z</time>
      </trkpt>
      <trkpt lat="43.6098" lon="6.54682">
        <ele>630.9</ele>
        <time>2013-12-08T09:21:40Z</time>
      </trkpt>
      <trkpt lat="43.60977" lon="6.54684">
        <ele>631.2</ele>
        <time>2013-12-08T09:21:43Z</time>
      </trkpt>
      <trkpt lat="43.60966" lon="6.54684">
        <ele>632.2</ele>
        <time>2013-12-08T09:21:49Z</time>
      </trkpt>
      <trkpt lat="43.60963" lon="6.54685">
        <ele>633.7</ele>
        <time>2013-12-08T09:22:02Z</time>
      </trkpt>
      <trkpt lat="43.60957" lon="6.5469">
        <ele>636.3</ele>
        <time>2013-12-08T09:22:20Z</time>
      </trkpt>
      <trkpt lat="43.6095" lon="6.54686">
        <ele>638.7</ele>
        <time>2013-12-08T09:22:35Z</time>
      </trkpt>
      <trkpt lat="43.60948" lon="6.54682">
        <ele>639.3</ele>
        <time>2013-12-08T09:22:44Z</time>
      </trkpt>
      <trkpt lat="43.6095" lon="6.5468">
        <ele>639.3</ele>
        <time>2013-12-08T09:22:59Z</time>
      </trkpt>
      <trkpt lat="43.6095" lon="6.54676">
        <ele>640.8</ele>
        <time>2013-12-08T09:23:10Z</time>
      </trkpt>
      <trkpt lat="43.60947" lon="6.54666">
        <ele>643.1</ele>
        <time>2013-12-08T09:23:23Z</time>
      </trkpt>
      <trkpt lat="43.60947" lon="6.54658">
        <ele>645.2</ele>
        <time>2013-12-08T09:23:38Z</time>
      </trkpt>
      <trkpt lat="43.60948" lon="6.54649">
        <ele>646.4</ele>
        <time>2013-12-08T09:23:47Z</time>
      </trkpt>
      <trkpt lat="43.60943" lon="6.5464">
        <ele>648.9</ele>
        <time>2013-12-08T09:24:11Z</time>
      </trkpt>
      <trkpt lat="43.60941" lon="6.54632">
        <ele>650.6</ele>
        <time>2013-12-08T09:24:29Z</time>
      </trkpt>
      <trkpt lat="43.60947" lon="6.54618">
        <ele>652.8</ele>
        <time>2013-12-08T09:24:46Z</time>
      </trkpt>
      <trkpt lat="43.60948" lon="6.54606">
        <ele>655.1</ele>
        <time>2013-12-08T09:25:03Z</time>
      </trkpt>
      <trkpt lat="43.60952" lon="6.54599">
        <ele>656.4</ele>
        <time>2013-12-08T09:25:14Z</time>
      </trkpt>
      <trkpt lat="43.6095" lon="6.54582">
        <ele>657.9</ele>
        <time>2013-12-08T09:25:32Z</time>
      </trkpt>
      <trkpt lat="43.60953" lon="6.54575">
        <ele>660.2</ele>
        <time>2013-12-08T09:25:50Z</time>
      </trkpt>
      <trkpt lat="43.60954" lon="6.5455">
        <ele>662</ele>
        <time>2013-12-08T09:26:08Z</time>
      </trkpt>
      <trkpt lat="43.60952" lon="6.54539">
        <ele>663.2</ele>
        <time>2013-12-08T09:26:17Z</time>
      </trkpt>
      <trkpt lat="43.60947" lon="6.54533">
        <ele>664.5</ele>
        <time>2013-12-08T09:26:30Z</time>
      </trkpt>
      <trkpt lat="43.60935" lon="6.54533">
        <ele>665.4</ele>
        <time>2013-12-08T09:26:39Z</time>
      </trkpt>
      <trkpt lat="43.60922" lon="6.54538">
        <ele>668.4</ele>
        <time>2013-12-08T09:27:08Z</time>
      </trkpt>
      <trkpt lat="43.60913" lon="6.54532">
        <ele>670.1</ele>
        <time>2013-12-08T09:27:19Z</time>
      </trkpt>
      <trkpt lat="43.60913" lon="6.54524">
        <ele>671.5</ele>
        <time>2013-12-08T09:27:28Z</time>
      </trkpt>
      <trkpt lat="43.60907" lon="6.54529">
        <ele>673</ele>
        <time>2013-12-08T09:27:37Z</time>
      </trkpt>
      <trkpt lat="43.60899" lon="6.54524">
        <ele>675.5</ele>
        <time>2013-12-08T09:27:53Z</time>
      </trkpt>
      <trkpt lat="43.60893" lon="6.54524">
        <ele>676.7</ele>
        <time>2013-12-08T09:28:04Z</time>
      </trkpt>
      <trkpt lat="43.60876" lon="6.54536">
        <ele>681.1</ele>
        <time>2013-12-08T09:28:41Z</time>
      </trkpt>
      <trkpt lat="43.60871" lon="6.54552">
        <ele>682.1</ele>
        <time>2013-12-08T09:28:54Z</time>
      </trkpt>
      <trkpt lat="43.60868" lon="6.54554">
        <ele>682.4</ele>
        <time>2013-12-08T09:28:59Z</time>
      </trkpt>
      <trkpt lat="43.60869" lon="6.5455">
        <ele>682.9</ele>
        <time>2013-12-08T09:29:16Z</time>
      </trkpt>
      <trkpt lat="43.60872" lon="6.5455">
        <ele>683</ele>
        <time>2013-12-08T09:29:24Z</time>
      </trkpt>
      <trkpt lat="43.60869" lon="6.54553">
        <ele>683.2</ele>
        <time>2013-12-08T09:29:49Z</time>
      </trkpt>
      <trkpt lat="43.6087" lon="6.54552">
        <ele>683</ele>
        <time>2013-12-08T09:30:13Z</time>
      </trkpt>
      <trkpt lat="43.60869" lon="6.54558">
        <ele>682.8</ele>
        <time>2013-12-08T09:30:38Z</time>
      </trkpt>
      <trkpt lat="43.60863" lon="6.54552">
        <ele>682.8</ele>
        <time>2013-12-08T09:31:51Z</time>
      </trkpt>
      <trkpt lat="43.60863" lon="6.54554">
        <ele>682.9</ele>
        <time>2013-12-08T09:32:31Z</time>
      </trkpt>
      <trkpt lat="43.60863" lon="6.54553">
        <ele>682.5</ele>
        <time>2013-12-08T09:32:46Z</time>
      </trkpt>
      <trkpt lat="43.60864" lon="6.54555">
        <ele>682.5</ele>
        <time>2013-12-08T09:32:49Z</time>
      </trkpt>
      <trkpt lat="43.60865" lon="6.54556">
        <ele>682.5</ele>
        <time>2013-12-08T09:33:07Z</time>
      </trkpt>
      <trkpt lat="43.60866" lon="6.54554">
        <ele>682.3</ele>
        <time>2013-12-08T09:33:25Z</time>
      </trkpt>
      <trkpt lat="43.60866" lon="6.54557">
        <ele>682.1</ele>
        <time>2013-12-08T09:33:38Z</time>
      </trkpt>
      <trkpt lat="43.60867" lon="6.54556">
        <ele>682.2</ele>
        <time>2013-12-08T09:33:54Z</time>
      </trkpt>
      <trkpt lat="43.60864" lon="6.5455">
        <ele>682.4</ele>
        <time>2013-12-08T09:34:40Z</time>
      </trkpt>
      <trkpt lat="43.60867" lon="6.5455">
        <ele>682.3</ele>
        <time>2013-12-08T09:34:53Z</time>
      </trkpt>
      <trkpt lat="43.60866" lon="6.5455">
        <ele>682.3</ele>
        <time>2013-12-08T09:35:40Z</time>
      </trkpt>
      <trkpt lat="43.60864" lon="6.54549">
        <ele>682.2</ele>
        <time>2013-12-08T09:36:00Z</time>
      </trkpt>
      <trkpt lat="43.60866" lon="6.54547">
        <ele>682.1</ele>
        <time>2013-12-08T09:36:23Z</time>
      </trkpt>
      <trkpt lat="43.60864" lon="6.54533">
        <ele>682.6</ele>
        <time>2013-12-08T09:36:44Z</time>
      </trkpt>
      <trkpt lat="43.60864" lon="6.54521">
        <ele>683.5</ele>
        <time>2013-12-08T09:36:57Z</time>
      </trkpt>
      <trkpt lat="43.60865" lon="6.54514">
        <ele>683.8</ele>
        <time>2013-12-08T09:37:03Z</time>
      </trkpt>
      <trkpt lat="43.60864" lon="6.54505">
        <ele>684.6</ele>
        <time>2013-12-08T09:37:11Z</time>
      </trkpt>
      <trkpt lat="43.60863" lon="6.54493">
        <ele>685.5</ele>
        <time>2013-12-08T09:37:23Z</time>
      </trkpt>
      <trkpt lat="43.60857" lon="6.5447">
        <ele>686</ele>
        <time>2013-12-08T09:37:45Z</time>
      </trkpt>
      <trkpt lat="43.60855" lon="6.54468">
        <ele>686</ele>
        <time>2013-12-08T09:37:48Z</time>
      </trkpt>
      <trkpt lat="43.60853" lon="6.54455">
        <ele>686.6</ele>
        <time>2013-12-08T09:37:58Z</time>
      </trkpt>
      <trkpt lat="43.60853" lon="6.54448">
        <ele>686.9</ele>
        <time>2013-12-08T09:38:03Z</time>
      </trkpt>
      <trkpt lat="43.60868" lon="6.54422">
        <ele>687</ele>
        <time>2013-12-08T09:38:28Z</time>
      </trkpt>
      <trkpt lat="43.60873" lon="6.54404">
        <ele>687.4</ele>
        <time>2013-12-08T09:38:44Z</time>
      </trkpt>
      <trkpt lat="43.60878" lon="6.54387">
        <ele>687.1</ele>
        <time>2013-12-08T09:39:00Z</time>
      </trkpt>
      <trkpt lat="43.60881" lon="6.54382">
        <ele>687.2</ele>
        <time>2013-12-08T09:39:04Z</time>
      </trkpt>
      <trkpt lat="43.60885" lon="6.54369">
        <ele>686.8</ele>
        <time>2013-12-08T09:39:15Z</time>
      </trkpt>
      <trkpt lat="43.60889" lon="6.54363">
        <ele>686.9</ele>
        <time>2013-12-08T09:39:22Z</time>
      </trkpt>
      <trkpt lat="43.60895" lon="6.54346">
        <ele>686.9</ele>
        <time>2013-12-08T09:39:37Z</time>
      </trkpt>
      <trkpt lat="43.60898" lon="6.54341">
        <ele>687</ele>
        <time>2013-12-08T09:39:41Z</time>
      </trkpt>
      <trkpt lat="43.60904" lon="6.54325">
        <ele>687.2</ele>
        <time>2013-12-08T09:39:55Z</time>
      </trkpt>
      <trkpt lat="43.60913" lon="6.54309">
        <ele>687.3</ele>
        <time>2013-12-08T09:40:10Z</time>
      </trkpt>
      <trkpt lat="43.60919" lon="6.54295">
        <ele>687.8</ele>
        <time>2013-12-08T09:40:21Z</time>
      </trkpt>
      <trkpt lat="43.60921" lon="6.54285">
        <ele>688</ele>
        <time>2013-12-08T09:40:29Z</time>
      </trkpt>
      <trkpt lat="43.60922" lon="6.54257">
        <ele>688.7</ele>
        <time>2013-12-08T09:40:49Z</time>
      </trkpt>
      <trkpt lat="43.6092" lon="6.54245">
        <ele>688.7</ele>
        <time>2013-12-08T09:40:57Z</time>
      </trkpt>
      <trkpt lat="43.60921" lon="6.54231">
        <ele>689.2</ele>
        <time>2013-12-08T09:41:07Z</time>
      </trkpt>
      <trkpt lat="43.6092" lon="6.54227">
        <ele>689.2</ele>
        <time>2013-12-08T09:41:11Z</time>
      </trkpt>
      <trkpt lat="43.60919" lon="6.54212">
        <ele>689.4</ele>
        <time>2013-12-08T09:41:21Z</time>
      </trkpt>
      <trkpt lat="43.60914" lon="6.54182">
        <ele>690</ele>
        <time>2013-12-08T09:41:43Z</time>
      </trkpt>
      <trkpt lat="43.60911" lon="6.54176">
        <ele>690.3</ele>
        <time>2013-12-08T09:41:47Z</time>
      </trkpt>
      <trkpt lat="43.60908" lon="6.54164">
        <ele>690.5</ele>
        <time>2013-12-08T09:41:57Z</time>
      </trkpt>
      <trkpt lat="43.609" lon="6.5415">
        <ele>690.8</ele>
        <time>2013-12-08T09:42:09Z</time>
      </trkpt>
      <trkpt lat="43.60886" lon="6.54126">
        <ele>691.3</ele>
        <time>2013-12-08T09:42:30Z</time>
      </trkpt>
      <trkpt lat="43.60882" lon="6.54116">
        <ele>691.3</ele>
        <time>2013-12-08T09:42:37Z</time>
      </trkpt>
      <trkpt lat="43.60877" lon="6.54104">
        <ele>692</ele>
        <time>2013-12-08T09:42:47Z</time>
      </trkpt>
      <trkpt lat="43.60873" lon="6.54093">
        <ele>692</ele>
        <time>2013-12-08T09:42:55Z</time>
      </trkpt>
      <trkpt lat="43.60872" lon="6.54087">
        <ele>691.8</ele>
        <time>2013-12-08T09:43:00Z</time>
      </trkpt>
      <trkpt lat="43.60864" lon="6.5407">
        <ele>692.3</ele>
        <time>2013-12-08T09:43:13Z</time>
      </trkpt>
      <trkpt lat="43.60859" lon="6.54062">
        <ele>692.4</ele>
        <time>2013-12-08T09:43:23Z</time>
      </trkpt>
      <trkpt lat="43.60855" lon="6.54058">
        <ele>692.5</ele>
        <time>2013-12-08T09:43:26Z</time>
      </trkpt>
      <trkpt lat="43.60842" lon="6.54029">
        <ele>693</ele>
        <time>2013-12-08T09:43:50Z</time>
      </trkpt>
      <trkpt lat="43.60837" lon="6.54019">
        <ele>693.1</ele>
        <time>2013-12-08T09:43:59Z</time>
      </trkpt>
      <trkpt lat="43.60822" lon="6.54004">
        <ele>694</ele>
        <time>2013-12-08T09:44:17Z</time>
      </trkpt>
      <trkpt lat="43.60804" lon="6.53993">
        <ele>694.2</ele>
        <time>2013-12-08T09:44:36Z</time>
      </trkpt>
      <trkpt lat="43.60801" lon="6.53989">
        <ele>694.3</ele>
        <time>2013-12-08T09:44:40Z</time>
      </trkpt>
      <trkpt lat="43.6079" lon="6.53984">
        <ele>694.8</ele>
        <time>2013-12-08T09:44:50Z</time>
      </trkpt>
      <trkpt lat="43.60784" lon="6.53978">
        <ele>694.9</ele>
        <time>2013-12-08T09:44:57Z</time>
      </trkpt>
      <trkpt lat="43.60782" lon="6.53967">
        <ele>694.7</ele>
        <time>2013-12-08T09:45:10Z</time>
      </trkpt>
      <trkpt lat="43.60769" lon="6.5396">
        <ele>695.7</ele>
        <time>2013-12-08T09:45:35Z</time>
      </trkpt>
      <trkpt lat="43.60758" lon="6.53956">
        <ele>696.1</ele>
        <time>2013-12-08T09:45:47Z</time>
      </trkpt>
      <trkpt lat="43.60753" lon="6.5395">
        <ele>695.9</ele>
        <time>2013-12-08T09:45:55Z</time>
      </trkpt>
      <trkpt lat="43.60744" lon="6.53935">
        <ele>696.1</ele>
        <time>2013-12-08T09:46:08Z</time>
      </trkpt>
      <trkpt lat="43.60738" lon="6.5393">
        <ele>695.5</ele>
        <time>2013-12-08T09:46:15Z</time>
      </trkpt>
      <trkpt lat="43.60722" lon="6.53928">
        <ele>696.6</ele>
        <time>2013-12-08T09:46:33Z</time>
      </trkpt>
      <trkpt lat="43.607" lon="6.53909">
        <ele>696.8</ele>
        <time>2013-12-08T09:46:56Z</time>
      </trkpt>
      <trkpt lat="43.60692" lon="6.53904">
        <ele>696</ele>
        <time>2013-12-08T09:47:05Z</time>
      </trkpt>
      <trkpt lat="43.60688" lon="6.53901">
        <ele>695.4</ele>
        <time>2013-12-08T09:47:12Z</time>
      </trkpt>
      <trkpt lat="43.6069" lon="6.53897">
        <ele>695.4</ele>
        <time>2013-12-08T09:47:33Z</time>
      </trkpt>
      <trkpt lat="43.60695" lon="6.53893">
        <ele>695.9</ele>
        <time>2013-12-08T09:47:41Z</time>
      </trkpt>
      <trkpt lat="43.6071" lon="6.53877">
        <ele>698.9</ele>
        <time>2013-12-08T09:48:06Z</time>
      </trkpt>
      <trkpt lat="43.60712" lon="6.53866">
        <ele>700.5</ele>
        <time>2013-12-08T09:48:18Z</time>
      </trkpt>
      <trkpt lat="43.60713" lon="6.53855">
        <ele>702.1</ele>
        <time>2013-12-08T09:48:27Z</time>
      </trkpt>
      <trkpt lat="43.60718" lon="6.53833">
        <ele>703.6</ele>
        <time>2013-12-08T09:48:49Z</time>
      </trkpt>
      <trkpt lat="43.60717" lon="6.53825">
        <ele>704.5</ele>
        <time>2013-12-08T09:48:56Z</time>
      </trkpt>
      <trkpt lat="43.60712" lon="6.53815">
        <ele>705.6</ele>
        <time>2013-12-08T09:49:09Z</time>
      </trkpt>
      <trkpt lat="43.60705" lon="6.53808">
        <ele>706.5</ele>
        <time>2013-12-08T09:49:21Z</time>
      </trkpt>
      <trkpt lat="43.60699" lon="6.53806">
        <ele>706.4</ele>
        <time>2013-12-08T09:49:29Z</time>
      </trkpt>
      <trkpt lat="43.60692" lon="6.53803">
        <ele>706.6</ele>
        <time>2013-12-08T09:49:38Z</time>
      </trkpt>
      <trkpt lat="43.60689" lon="6.53798">
        <ele>706.8</ele>
        <time>2013-12-08T09:50:02Z</time>
      </trkpt>
      <trkpt lat="43.60684" lon="6.53795">
        <ele>707.3</ele>
        <time>2013-12-08T09:50:11Z</time>
      </trkpt>
      <trkpt lat="43.60683" lon="6.53784">
        <ele>707.5</ele>
        <time>2013-12-08T09:50:20Z</time>
      </trkpt>
      <trkpt lat="43.6068" lon="6.53777">
        <ele>708</ele>
        <time>2013-12-08T09:50:26Z</time>
      </trkpt>
      <trkpt lat="43.60679" lon="6.53768">
        <ele>708.3</ele>
        <time>2013-12-08T09:50:35Z</time>
      </trkpt>
      <trkpt lat="43.60679" lon="6.53751">
        <ele>709.3</ele>
        <time>2013-12-08T09:50:48Z</time>
      </trkpt>
      <trkpt lat="43.60681" lon="6.53743">
        <ele>709.7</ele>
        <time>2013-12-08T09:50:55Z</time>
      </trkpt>
      <trkpt lat="43.60679" lon="6.53732">
        <ele>710.5</ele>
        <time>2013-12-08T09:51:04Z</time>
      </trkpt>
      <trkpt lat="43.60674" lon="6.53722">
        <ele>711.7</ele>
        <time>2013-12-08T09:51:17Z</time>
      </trkpt>
      <trkpt lat="43.60673" lon="6.537">
        <ele>714</ele>
        <time>2013-12-08T09:51:42Z</time>
      </trkpt>
      <trkpt lat="43.60672" lon="6.5369">
        <ele>714.9</ele>
        <time>2013-12-08T09:51:52Z</time>
      </trkpt>
      <trkpt lat="43.60667" lon="6.5368">
        <ele>715.8</ele>
        <time>2013-12-08T09:52:03Z</time>
      </trkpt>
      <trkpt lat="43.60663" lon="6.53669">
        <ele>715.8</ele>
        <time>2013-12-08T09:52:14Z</time>
      </trkpt>
      <trkpt lat="43.60665" lon="6.53661">
        <ele>716.4</ele>
        <time>2013-12-08T09:52:20Z</time>
      </trkpt>
      <trkpt lat="43.60664" lon="6.53654">
        <ele>716.7</ele>
        <time>2013-12-08T09:52:25Z</time>
      </trkpt>
      <trkpt lat="43.60664" lon="6.53636">
        <ele>718.2</ele>
        <time>2013-12-08T09:52:42Z</time>
      </trkpt>
      <trkpt lat="43.60666" lon="6.53613">
        <ele>720</ele>
        <time>2013-12-08T09:53:04Z</time>
      </trkpt>
      <trkpt lat="43.60666" lon="6.53599">
        <ele>720.2</ele>
        <time>2013-12-08T09:53:14Z</time>
      </trkpt>
      <trkpt lat="43.60669" lon="6.53586">
        <ele>720.9</ele>
        <time>2013-12-08T09:53:24Z</time>
      </trkpt>
      <trkpt lat="43.60675" lon="6.53579">
        <ele>722</ele>
        <time>2013-12-08T09:53:33Z</time>
      </trkpt>
      <trkpt lat="43.60677" lon="6.53574">
        <ele>722.8</ele>
        <time>2013-12-08T09:53:41Z</time>
      </trkpt>
      <trkpt lat="43.60683" lon="6.53564">
        <ele>724.2</ele>
        <time>2013-12-08T09:53:55Z</time>
      </trkpt>
      <trkpt lat="43.60691" lon="6.53556">
        <ele>726.1</ele>
        <time>2013-12-08T09:54:12Z</time>
      </trkpt>
      <trkpt lat="43.60696" lon="6.53549">
        <ele>726.9</ele>
        <time>2013-12-08T09:54:23Z</time>
      </trkpt>
      <trkpt lat="43.60702" lon="6.53535">
        <ele>728.1</ele>
        <time>2013-12-08T09:54:37Z</time>
      </trkpt>
      <trkpt lat="43.60703" lon="6.53526">
        <ele>728.9</ele>
        <time>2013-12-08T09:54:46Z</time>
      </trkpt>
      <trkpt lat="43.60704" lon="6.53499">
        <ele>731</ele>
        <time>2013-12-08T09:55:13Z</time>
      </trkpt>
      <trkpt lat="43.60702" lon="6.5349">
        <ele>731.6</ele>
        <time>2013-12-08T09:55:20Z</time>
      </trkpt>
      <trkpt lat="43.60706" lon="6.53464">
        <ele>733.8</ele>
        <time>2013-12-08T09:55:48Z</time>
      </trkpt>
      <trkpt lat="43.60703" lon="6.53454">
        <ele>734</ele>
        <time>2013-12-08T09:55:55Z</time>
      </trkpt>
      <trkpt lat="43.60705" lon="6.53442">
        <ele>734.6</ele>
        <time>2013-12-08T09:56:05Z</time>
      </trkpt>
      <trkpt lat="43.60704" lon="6.53411">
        <ele>736.6</ele>
        <time>2013-12-08T09:56:33Z</time>
      </trkpt>
      <trkpt lat="43.60699" lon="6.53402">
        <ele>737.8</ele>
        <time>2013-12-08T09:56:43Z</time>
      </trkpt>
      <trkpt lat="43.60696" lon="6.534">
        <ele>737.8</ele>
        <time>2013-12-08T09:56:47Z</time>
      </trkpt>
      <trkpt lat="43.6069" lon="6.5339">
        <ele>738.9</ele>
        <time>2013-12-08T09:56:56Z</time>
      </trkpt>
      <trkpt lat="43.60682" lon="6.53369">
        <ele>740.8</ele>
        <time>2013-12-08T09:57:18Z</time>
      </trkpt>
      <trkpt lat="43.60677" lon="6.53363">
        <ele>741.7</ele>
        <time>2013-12-08T09:57:29Z</time>
      </trkpt>
      <trkpt lat="43.60673" lon="6.53352">
        <ele>742.8</ele>
        <time>2013-12-08T09:57:39Z</time>
      </trkpt>
      <trkpt lat="43.60673" lon="6.53346">
        <ele>742.9</ele>
        <time>2013-12-08T09:57:45Z</time>
      </trkpt>
      <trkpt lat="43.60671" lon="6.53336">
        <ele>743.7</ele>
        <time>2013-12-08T09:57:53Z</time>
      </trkpt>
      <trkpt lat="43.6067" lon="6.53319">
        <ele>744.1</ele>
        <time>2013-12-08T09:58:05Z</time>
      </trkpt>
      <trkpt lat="43.60671" lon="6.53312">
        <ele>744</ele>
        <time>2013-12-08T09:58:11Z</time>
      </trkpt>
      <trkpt lat="43.60673" lon="6.53299">
        <ele>743.6</ele>
        <time>2013-12-08T09:58:21Z</time>
      </trkpt>
      <trkpt lat="43.6067" lon="6.53291">
        <ele>743.8</ele>
        <time>2013-12-08T09:58:27Z</time>
      </trkpt>
      <trkpt lat="43.60673" lon="6.53284">
        <ele>744.1</ele>
        <time>2013-12-08T09:58:35Z</time>
      </trkpt>
      <trkpt lat="43.60675" lon="6.53285">
        <ele>743.6</ele>
        <time>2013-12-08T09:59:01Z</time>
      </trkpt>
      <trkpt lat="43.60673" lon="6.5328">
        <ele>742.2</ele>
        <time>2013-12-08T10:00:15Z</time>
      </trkpt>
      <trkpt lat="43.60674" lon="6.53282">
        <ele>741</ele>
        <time>2013-12-08T10:02:24Z</time>
      </trkpt>
      <trkpt lat="43.6067" lon="6.53278">
        <ele>739.8</ele>
        <time>2013-12-08T10:03:15Z</time>
      </trkpt>
      <trkpt lat="43.60669" lon="6.53278">
        <ele>739.5</ele>
        <time>2013-12-08T10:03:40Z</time>
      </trkpt>
      <trkpt lat="43.6067" lon="6.53274">
        <ele>738.9</ele>
        <time>2013-12-08T10:04:11Z</time>
      </trkpt>
      <trkpt lat="43.60666" lon="6.53283">
        <ele>738.9</ele>
        <time>2013-12-08T10:04:28Z</time>
      </trkpt>
      <trkpt lat="43.60658" lon="6.53274">
        <ele>739</ele>
        <time>2013-12-08T10:04:38Z</time>
      </trkpt>
      <trkpt lat="43.60653" lon="6.53278">
        <ele>738.9</ele>
        <time>2013-12-08T10:04:44Z</time>
      </trkpt>
      <trkpt lat="43.60647" lon="6.53277">
        <ele>739.3</ele>
        <time>2013-12-08T10:04:50Z</time>
      </trkpt>
      <trkpt lat="43.60647" lon="6.53277">
        <ele>739.2</ele>
        <time>2013-12-08T10:05:01Z</time>
      </trkpt>
      <trkpt lat="43.60659" lon="6.53282">
        <ele>738.2</ele>
        <time>2013-12-08T10:05:13Z</time>
      </trkpt>
      <trkpt lat="43.60664" lon="6.53281">
        <ele>738.1</ele>
        <time>2013-12-08T10:05:38Z</time>
      </trkpt>
      <trkpt lat="43.60675" lon="6.53282">
        <ele>737.6</ele>
        <time>2013-12-08T10:05:56Z</time>
      </trkpt>
      <trkpt lat="43.60679" lon="6.53279">
        <ele>737.6</ele>
        <time>2013-12-08T10:06:04Z</time>
      </trkpt>
      <trkpt lat="43.60684" lon="6.5327">
        <ele>737.6</ele>
        <time>2013-12-08T10:06:18Z</time>
      </trkpt>
      <trkpt lat="43.60696" lon="6.53263">
        <ele>737.7</ele>
        <time>2013-12-08T10:06:31Z</time>
      </trkpt>
      <trkpt lat="43.60702" lon="6.53261">
        <ele>737.9</ele>
        <time>2013-12-08T10:06:37Z</time>
      </trkpt>
      <trkpt lat="43.60723" lon="6.53256">
        <ele>737.9</ele>
        <time>2013-12-08T10:06:57Z</time>
      </trkpt>
      <trkpt lat="43.6073" lon="6.53252">
        <ele>738.3</ele>
        <time>2013-12-08T10:07:06Z</time>
      </trkpt>
      <trkpt lat="43.60735" lon="6.53246">
        <ele>738.4</ele>
        <time>2013-12-08T10:07:12Z</time>
      </trkpt>
      <trkpt lat="43.60737" lon="6.53239">
        <ele>738.3</ele>
        <time>2013-12-08T10:07:18Z</time>
      </trkpt>
      <trkpt lat="43.60736" lon="6.53227">
        <ele>738.7</ele>
        <time>2013-12-08T10:07:26Z</time>
      </trkpt>
      <trkpt lat="43.60737" lon="6.5322">
        <ele>738.1</ele>
        <time>2013-12-08T10:07:34Z</time>
      </trkpt>
      <trkpt lat="43.60736" lon="6.53205">
        <ele>737.8</ele>
        <time>2013-12-08T10:07:46Z</time>
      </trkpt>
      <trkpt lat="43.60737" lon="6.53184">
        <ele>738.3</ele>
        <time>2013-12-08T10:08:00Z</time>
      </trkpt>
      <trkpt lat="43.60737" lon="6.53172">
        <ele>737.3</ele>
        <time>2013-12-08T10:08:19Z</time>
      </trkpt>
      <trkpt lat="43.60737" lon="6.53172">
        <ele>736.9</ele>
        <time>2013-12-08T10:08:50Z</time>
      </trkpt>
      <trkpt lat="43.60737" lon="6.53163">
        <ele>738</ele>
        <time>2013-12-08T10:09:05Z</time>
      </trkpt>
      <trkpt lat="43.60739" lon="6.53149">
        <ele>738.5</ele>
        <time>2013-12-08T10:09:16Z</time>
      </trkpt>
      <trkpt lat="43.60739" lon="6.53145">
        <ele>738.7</ele>
        <time>2013-12-08T10:09:19Z</time>
      </trkpt>
      <trkpt lat="43.60743" lon="6.53136">
        <ele>739</ele>
        <time>2013-12-08T10:09:25Z</time>
      </trkpt>
      <trkpt lat="43.60749" lon="6.53111">
        <ele>740.2</ele>
        <time>2013-12-08T10:09:39Z</time>
      </trkpt>
      <trkpt lat="43.60751" lon="6.53108">
        <ele>740.5</ele>
        <time>2013-12-08T10:09:41Z</time>
      </trkpt>
      <trkpt lat="43.60754" lon="6.53091">
        <ele>740.6</ele>
        <time>2013-12-08T10:09:51Z</time>
      </trkpt>
      <trkpt lat="43.60755" lon="6.5308">
        <ele>741.1</ele>
        <time>2013-12-08T10:09:57Z</time>
      </trkpt>
      <trkpt lat="43.60754" lon="6.53063">
        <ele>741.4</ele>
        <time>2013-12-08T10:10:05Z</time>
      </trkpt>
      <trkpt lat="43.60756" lon="6.5305">
        <ele>742</ele>
        <time>2013-12-08T10:10:12Z</time>
      </trkpt>
      <trkpt lat="43.60756" lon="6.53038">
        <ele>742.2</ele>
        <time>2013-12-08T10:10:19Z</time>
      </trkpt>
      <trkpt lat="43.60757" lon="6.53017">
        <ele>742.9</ele>
        <time>2013-12-08T10:10:36Z</time>
      </trkpt>
      <trkpt lat="43.60764" lon="6.52995">
        <ele>743.3</ele>
        <time>2013-12-08T10:10:54Z</time>
      </trkpt>
      <trkpt lat="43.60772" lon="6.52967">
        <ele>744.1</ele>
        <time>2013-12-08T10:11:21Z</time>
      </trkpt>
      <trkpt lat="43.60775" lon="6.52958">
        <ele>744.3</ele>
        <time>2013-12-08T10:11:29Z</time>
      </trkpt>
      <trkpt lat="43.60787" lon="6.52935">
        <ele>745</ele>
        <time>2013-12-08T10:11:48Z</time>
      </trkpt>
      <trkpt lat="43.60793" lon="6.52919">
        <ele>744.6</ele>
        <time>2013-12-08T10:11:59Z</time>
      </trkpt>
      <trkpt lat="43.60796" lon="6.52906">
        <ele>744.6</ele>
        <time>2013-12-08T10:12:11Z</time>
      </trkpt>
      <trkpt lat="43.60802" lon="6.52893">
        <ele>744.5</ele>
        <time>2013-12-08T10:12:21Z</time>
      </trkpt>
      <trkpt lat="43.60802" lon="6.52884">
        <ele>744.4</ele>
        <time>2013-12-08T10:12:27Z</time>
      </trkpt>
      <trkpt lat="43.60806" lon="6.5288">
        <ele>744.5</ele>
        <time>2013-12-08T10:12:33Z</time>
      </trkpt>
      <trkpt lat="43.60817" lon="6.5286">
        <ele>743.3</ele>
        <time>2013-12-08T10:12:53Z</time>
      </trkpt>
      <trkpt lat="43.60822" lon="6.52852">
        <ele>742.8</ele>
        <time>2013-12-08T10:13:12Z</time>
      </trkpt>
      <trkpt lat="43.60823" lon="6.52846">
        <ele>742.6</ele>
        <time>2013-12-08T10:13:16Z</time>
      </trkpt>
      <trkpt lat="43.60833" lon="6.52834">
        <ele>742.2</ele>
        <time>2013-12-08T10:13:28Z</time>
      </trkpt>
      <trkpt lat="43.60836" lon="6.52823">
        <ele>741.9</ele>
        <time>2013-12-08T10:13:36Z</time>
      </trkpt>
      <trkpt lat="43.6084" lon="6.52816">
        <ele>741.4</ele>
        <time>2013-12-08T10:13:42Z</time>
      </trkpt>
      <trkpt lat="43.60841" lon="6.52808">
        <ele>740.8</ele>
        <time>2013-12-08T10:13:49Z</time>
      </trkpt>
      <trkpt lat="43.60846" lon="6.52798">
        <ele>740.1</ele>
        <time>2013-12-08T10:14:01Z</time>
      </trkpt>
      <trkpt lat="43.60846" lon="6.5279">
        <ele>739.9</ele>
        <time>2013-12-08T10:15:22Z</time>
      </trkpt>
      <trkpt lat="43.60849" lon="6.52778">
        <ele>740.1</ele>
        <time>2013-12-08T10:15:38Z</time>
      </trkpt>
      <trkpt lat="43.60852" lon="6.52773">
        <ele>740</ele>
        <time>2013-12-08T10:15:45Z</time>
      </trkpt>
      <trkpt lat="43.60855" lon="6.52757">
        <ele>739.5</ele>
        <time>2013-12-08T10:15:59Z</time>
      </trkpt>
      <trkpt lat="43.60856" lon="6.52741">
        <ele>739.5</ele>
        <time>2013-12-08T10:16:12Z</time>
      </trkpt>
      <trkpt lat="43.60859" lon="6.52712">
        <ele>739.9</ele>
        <time>2013-12-08T10:16:37Z</time>
      </trkpt>
      <trkpt lat="43.60864" lon="6.52704">
        <ele>739.6</ele>
        <time>2013-12-08T10:16:45Z</time>
      </trkpt>
      <trkpt lat="43.60869" lon="6.52685">
        <ele>739</ele>
        <time>2013-12-08T10:17:00Z</time>
      </trkpt>
      <trkpt lat="43.60872" lon="6.52679">
        <ele>738.6</ele>
        <time>2013-12-08T10:17:06Z</time>
      </trkpt>
      <trkpt lat="43.60876" lon="6.52664">
        <ele>737.8</ele>
        <time>2013-12-08T10:17:19Z</time>
      </trkpt>
      <trkpt lat="43.60877" lon="6.52655">
        <ele>737.9</ele>
        <time>2013-12-08T10:17:26Z</time>
      </trkpt>
      <trkpt lat="43.60876" lon="6.52649">
        <ele>737.9</ele>
        <time>2013-12-08T10:17:30Z</time>
      </trkpt>
      <trkpt lat="43.60877" lon="6.52632">
        <ele>737.9</ele>
        <time>2013-12-08T10:17:42Z</time>
      </trkpt>
      <trkpt lat="43.60878" lon="6.52627">
        <ele>737.8</ele>
        <time>2013-12-08T10:17:46Z</time>
      </trkpt>
      <trkpt lat="43.60875" lon="6.52598">
        <ele>738.1</ele>
        <time>2013-12-08T10:18:10Z</time>
      </trkpt>
      <trkpt lat="43.60877" lon="6.52589">
        <ele>737.8</ele>
        <time>2013-12-08T10:18:17Z</time>
      </trkpt>
      <trkpt lat="43.60875" lon="6.52574">
        <ele>738.5</ele>
        <time>2013-12-08T10:18:28Z</time>
      </trkpt>
      <trkpt lat="43.60872" lon="6.52561">
        <ele>738.3</ele>
        <time>2013-12-08T10:18:37Z</time>
      </trkpt>
      <trkpt lat="43.60871" lon="6.52534">
        <ele>739.2</ele>
        <time>2013-12-08T10:18:56Z</time>
      </trkpt>
      <trkpt lat="43.60875" lon="6.52512">
        <ele>739</ele>
        <time>2013-12-08T10:19:16Z</time>
      </trkpt>
      <trkpt lat="43.60874" lon="6.52499">
        <ele>739</ele>
        <time>2013-12-08T10:19:40Z</time>
      </trkpt>
      <trkpt lat="43.60876" lon="6.52491">
        <ele>739.2</ele>
        <time>2013-12-08T10:19:47Z</time>
      </trkpt>
      <trkpt lat="43.60878" lon="6.52482">
        <ele>739.2</ele>
        <time>2013-12-08T10:19:55Z</time>
      </trkpt>
      <trkpt lat="43.6088" lon="6.52468">
        <ele>739.1</ele>
        <time>2013-12-08T10:20:06Z</time>
      </trkpt>
      <trkpt lat="43.60883" lon="6.52443">
        <ele>739.4</ele>
        <time>2013-12-08T10:20:26Z</time>
      </trkpt>
      <trkpt lat="43.60886" lon="6.52436">
        <ele>739.3</ele>
        <time>2013-12-08T10:20:32Z</time>
      </trkpt>
      <trkpt lat="43.60888" lon="6.5242">
        <ele>738.7</ele>
        <time>2013-12-08T10:20:44Z</time>
      </trkpt>
      <trkpt lat="43.60886" lon="6.52413">
        <ele>739.1</ele>
        <time>2013-12-08T10:20:49Z</time>
      </trkpt>
      <trkpt lat="43.60886" lon="6.52404">
        <ele>739.5</ele>
        <time>2013-12-08T10:20:57Z</time>
      </trkpt>
      <trkpt lat="43.60888" lon="6.52386">
        <ele>740.2</ele>
        <time>2013-12-08T10:21:10Z</time>
      </trkpt>
      <trkpt lat="43.60887" lon="6.52374">
        <ele>740.5</ele>
        <time>2013-12-08T10:21:25Z</time>
      </trkpt>
      <trkpt lat="43.60888" lon="6.52365">
        <ele>741.6</ele>
        <time>2013-12-08T10:21:36Z</time>
      </trkpt>
      <trkpt lat="43.60887" lon="6.52352">
        <ele>743.1</ele>
        <time>2013-12-08T10:21:47Z</time>
      </trkpt>
      <trkpt lat="43.60885" lon="6.52348">
        <ele>743.5</ele>
        <time>2013-12-08T10:21:52Z</time>
      </trkpt>
      <trkpt lat="43.60883" lon="6.5233">
        <ele>744.5</ele>
        <time>2013-12-08T10:22:06Z</time>
      </trkpt>
      <trkpt lat="43.60885" lon="6.52314">
        <ele>744.2</ele>
        <time>2013-12-08T10:22:18Z</time>
      </trkpt>
      <trkpt lat="43.60889" lon="6.52286">
        <ele>743.7</ele>
        <time>2013-12-08T10:22:39Z</time>
      </trkpt>
      <trkpt lat="43.60893" lon="6.52275">
        <ele>742.7</ele>
        <time>2013-12-08T10:22:50Z</time>
      </trkpt>
      <trkpt lat="43.60888" lon="6.52261">
        <ele>742.9</ele>
        <time>2013-12-08T10:23:06Z</time>
      </trkpt>
      <trkpt lat="43.60886" lon="6.52245">
        <ele>743.3</ele>
        <time>2013-12-08T10:23:21Z</time>
      </trkpt>
      <trkpt lat="43.60887" lon="6.52231">
        <ele>743</ele>
        <time>2013-12-08T10:23:32Z</time>
      </trkpt>
      <trkpt lat="43.6089" lon="6.52214">
        <ele>743</ele>
        <time>2013-12-08T10:23:45Z</time>
      </trkpt>
      <trkpt lat="43.60893" lon="6.52203">
        <ele>742.8</ele>
        <time>2013-12-08T10:23:54Z</time>
      </trkpt>
      <trkpt lat="43.60893" lon="6.52184">
        <ele>743.6</ele>
        <time>2013-12-08T10:24:10Z</time>
      </trkpt>
      <trkpt lat="43.60891" lon="6.52171">
        <ele>743.7</ele>
        <time>2013-12-08T10:24:25Z</time>
      </trkpt>
      <trkpt lat="43.60893" lon="6.52162">
        <ele>743.7</ele>
        <time>2013-12-08T10:24:33Z</time>
      </trkpt>
      <trkpt lat="43.60892" lon="6.52154">
        <ele>743.9</ele>
        <time>2013-12-08T10:25:03Z</time>
      </trkpt>
      <trkpt lat="43.60893" lon="6.52161">
        <ele>744.1</ele>
        <time>2013-12-08T10:25:20Z</time>
      </trkpt>
      <trkpt lat="43.60899" lon="6.52152">
        <ele>742.7</ele>
        <time>2013-12-08T10:25:35Z</time>
      </trkpt>
      <trkpt lat="43.60903" lon="6.52136">
        <ele>740.2</ele>
        <time>2013-12-08T10:25:54Z</time>
      </trkpt>
      <trkpt lat="43.609" lon="6.5214">
        <ele>740.3</ele>
        <time>2013-12-08T10:26:53Z</time>
      </trkpt>
      <trkpt lat="43.60898" lon="6.5214">
        <ele>740.7</ele>
        <time>2013-12-08T10:27:08Z</time>
      </trkpt>
      <trkpt lat="43.60904" lon="6.52127">
        <ele>740.6</ele>
        <time>2013-12-08T10:27:24Z</time>
      </trkpt>
      <trkpt lat="43.60904" lon="6.52122">
        <ele>741.2</ele>
        <time>2013-12-08T10:27:33Z</time>
      </trkpt>
      <trkpt lat="43.60909" lon="6.52116">
        <ele>741.3</ele>
        <time>2013-12-08T10:27:45Z</time>
      </trkpt>
      <trkpt lat="43.60915" lon="6.52097">
        <ele>741.4</ele>
        <time>2013-12-08T10:28:06Z</time>
      </trkpt>
      <trkpt lat="43.60914" lon="6.52089">
        <ele>741.5</ele>
        <time>2013-12-08T10:28:11Z</time>
      </trkpt>
      <trkpt lat="43.60915" lon="6.52077">
        <ele>740.8</ele>
        <time>2013-12-08T10:28:19Z</time>
      </trkpt>
      <trkpt lat="43.60916" lon="6.52069">
        <ele>740.4</ele>
        <time>2013-12-08T10:28:25Z</time>
      </trkpt>
      <trkpt lat="43.60921" lon="6.52056">
        <ele>740.3</ele>
        <time>2013-12-08T10:28:38Z</time>
      </trkpt>
      <trkpt lat="43.60925" lon="6.52049">
        <ele>739.7</ele>
        <time>2013-12-08T10:28:48Z</time>
      </trkpt>
      <trkpt lat="43.60928" lon="6.5204">
        <ele>738.7</ele>
        <time>2013-12-08T10:29:00Z</time>
      </trkpt>
      <trkpt lat="43.60929" lon="6.52029">
        <ele>738.3</ele>
        <time>2013-12-08T10:29:11Z</time>
      </trkpt>
      <trkpt lat="43.60935" lon="6.52024">
        <ele>737.2</ele>
        <time>2013-12-08T10:29:25Z</time>
      </trkpt>
      <trkpt lat="43.60936" lon="6.52015">
        <ele>736.7</ele>
        <time>2013-12-08T10:29:37Z</time>
      </trkpt>
      <trkpt lat="43.6094" lon="6.5201">
        <ele>735.9</ele>
        <time>2013-12-08T10:29:44Z</time>
      </trkpt>
      <trkpt lat="43.60941" lon="6.5199">
        <ele>736.1</ele>
        <time>2013-12-08T10:30:03Z</time>
      </trkpt>
      <trkpt lat="43.60936" lon="6.51982">
        <ele>736.7</ele>
        <time>2013-12-08T10:30:16Z</time>
      </trkpt>
      <trkpt lat="43.60937" lon="6.5198">
        <ele>737.1</ele>
        <time>2013-12-08T10:30:34Z</time>
      </trkpt>
      <trkpt lat="43.60935" lon="6.51978">
        <ele>736.6</ele>
        <time>2013-12-08T10:30:45Z</time>
      </trkpt>
      <trkpt lat="43.60932" lon="6.5198">
        <ele>738.7</ele>
        <time>2013-12-08T10:31:05Z</time>
      </trkpt>
      <trkpt lat="43.60928" lon="6.51971">
        <ele>741.3</ele>
        <time>2013-12-08T10:31:23Z</time>
      </trkpt>
      <trkpt lat="43.6092" lon="6.51972">
        <ele>742</ele>
        <time>2013-12-08T10:31:30Z</time>
      </trkpt>
      <trkpt lat="43.60914" lon="6.5197">
        <ele>743.6</ele>
        <time>2013-12-08T10:31:43Z</time>
      </trkpt>
      <trkpt lat="43.60909" lon="6.5197">
        <ele>744.9</ele>
        <time>2013-12-08T10:31:52Z</time>
      </trkpt>
      <trkpt lat="43.60903" lon="6.51969">
        <ele>747.3</ele>
        <time>2013-12-08T10:32:17Z</time>
      </trkpt>
      <trkpt lat="43.60895" lon="6.51966">
        <ele>750.4</ele>
        <time>2013-12-08T10:32:39Z</time>
      </trkpt>
      <trkpt lat="43.60889" lon="6.51967">
        <ele>752.5</ele>
        <time>2013-12-08T10:32:54Z</time>
      </trkpt>
      <trkpt lat="43.60875" lon="6.51969">
        <ele>756</ele>
        <time>2013-12-08T10:33:23Z</time>
      </trkpt>
      <trkpt lat="43.6087" lon="6.51965">
        <ele>757.3</ele>
        <time>2013-12-08T10:33:36Z</time>
      </trkpt>
      <trkpt lat="43.60861" lon="6.51964">
        <ele>760.8</ele>
        <time>2013-12-08T10:34:00Z</time>
      </trkpt>
      <trkpt lat="43.60853" lon="6.51956">
        <ele>762.2</ele>
        <time>2013-12-08T10:34:13Z</time>
      </trkpt>
      <trkpt lat="43.60846" lon="6.51956">
        <ele>762.4</ele>
        <time>2013-12-08T10:34:18Z</time>
      </trkpt>
      <trkpt lat="43.60842" lon="6.51951">
        <ele>763.3</ele>
        <time>2013-12-08T10:34:27Z</time>
      </trkpt>
      <trkpt lat="43.60838" lon="6.5194">
        <ele>764.8</ele>
        <time>2013-12-08T10:34:41Z</time>
      </trkpt>
      <trkpt lat="43.6084" lon="6.51934">
        <ele>765.5</ele>
        <time>2013-12-08T10:34:45Z</time>
      </trkpt>
      <trkpt lat="43.60828" lon="6.51916">
        <ele>768</ele>
        <time>2013-12-08T10:35:13Z</time>
      </trkpt>
      <trkpt lat="43.60821" lon="6.51909">
        <ele>769.6</ele>
        <time>2013-12-08T10:35:27Z</time>
      </trkpt>
      <trkpt lat="43.6082" lon="6.519">
        <ele>770.3</ele>
        <time>2013-12-08T10:35:39Z</time>
      </trkpt>
      <trkpt lat="43.60817" lon="6.51894">
        <ele>770.7</ele>
        <time>2013-12-08T10:35:44Z</time>
      </trkpt>
      <trkpt lat="43.60815" lon="6.51881">
        <ele>771.5</ele>
        <time>2013-12-08T10:35:55Z</time>
      </trkpt>
      <trkpt lat="43.60816" lon="6.51872">
        <ele>772.7</ele>
        <time>2013-12-08T10:36:07Z</time>
      </trkpt>
      <trkpt lat="43.60813" lon="6.51863">
        <ele>773.2</ele>
        <time>2013-12-08T10:36:16Z</time>
      </trkpt>
      <trkpt lat="43.60802" lon="6.51845">
        <ele>775.4</ele>
        <time>2013-12-08T10:36:37Z</time>
      </trkpt>
      <trkpt lat="43.60805" lon="6.51835">
        <ele>776.7</ele>
        <time>2013-12-08T10:36:54Z</time>
      </trkpt>
      <trkpt lat="43.60805" lon="6.51825">
        <ele>777.5</ele>
        <time>2013-12-08T10:37:02Z</time>
      </trkpt>
      <trkpt lat="43.608" lon="6.51812">
        <ele>779.3</ele>
        <time>2013-12-08T10:37:16Z</time>
      </trkpt>
      <trkpt lat="43.60799" lon="6.51806">
        <ele>779.2</ele>
        <time>2013-12-08T10:37:20Z</time>
      </trkpt>
      <trkpt lat="43.60795" lon="6.51798">
        <ele>780.1</ele>
        <time>2013-12-08T10:37:28Z</time>
      </trkpt>
      <trkpt lat="43.60795" lon="6.51787">
        <ele>781.3</ele>
        <time>2013-12-08T10:37:42Z</time>
      </trkpt>
      <trkpt lat="43.60794" lon="6.51779">
        <ele>781.9</ele>
        <time>2013-12-08T10:37:49Z</time>
      </trkpt>
      <trkpt lat="43.60795" lon="6.51767">
        <ele>782.4</ele>
        <time>2013-12-08T10:37:59Z</time>
      </trkpt>
      <trkpt lat="43.60805" lon="6.51752">
        <ele>782.9</ele>
        <time>2013-12-08T10:38:49Z</time>
      </trkpt>
      <trkpt lat="43.60806" lon="6.51741">
        <ele>783</ele>
        <time>2013-12-08T10:39:13Z</time>
      </trkpt>
      <trkpt lat="43.6081" lon="6.5174">
        <ele>782.9</ele>
        <time>2013-12-08T10:39:37Z</time>
      </trkpt>
      <trkpt lat="43.60811" lon="6.5175">
        <ele>782.9</ele>
        <time>2013-12-08T10:40:05Z</time>
      </trkpt>
      <trkpt lat="43.60808" lon="6.5175">
        <ele>782.8</ele>
        <time>2013-12-08T10:40:27Z</time>
      </trkpt>
      <trkpt lat="43.60806" lon="6.51747">
        <ele>781.8</ele>
        <time>2013-12-08T10:40:53Z</time>
      </trkpt>
      <trkpt lat="43.60817" lon="6.51752">
        <ele>780</ele>
        <time>2013-12-08T10:41:03Z</time>
      </trkpt>
      <trkpt lat="43.60835" lon="6.51756">
        <ele>774.2</ele>
        <time>2013-12-08T10:41:29Z</time>
      </trkpt>
      <trkpt lat="43.60839" lon="6.51762">
        <ele>773.2</ele>
        <time>2013-12-08T10:41:36Z</time>
      </trkpt>
      <trkpt lat="43.60848" lon="6.51763">
        <ele>770.3</ele>
        <time>2013-12-08T10:42:16Z</time>
      </trkpt>
      <trkpt lat="43.6085" lon="6.51762">
        <ele>769.4</ele>
        <time>2013-12-08T10:42:30Z</time>
      </trkpt>
      <trkpt lat="43.60854" lon="6.51758">
        <ele>769.6</ele>
        <time>2013-12-08T10:42:43Z</time>
      </trkpt>
      <trkpt lat="43.60857" lon="6.51746">
        <ele>768.8</ele>
        <time>2013-12-08T10:43:03Z</time>
      </trkpt>
      <trkpt lat="43.60864" lon="6.51745">
        <ele>768.4</ele>
        <time>2013-12-08T10:43:15Z</time>
      </trkpt>
      <trkpt lat="43.60869" lon="6.51747">
        <ele>767.8</ele>
        <time>2013-12-08T10:43:21Z</time>
      </trkpt>
      <trkpt lat="43.60876" lon="6.51746">
        <ele>765.7</ele>
        <time>2013-12-08T10:43:39Z</time>
      </trkpt>
      <trkpt lat="43.60896" lon="6.51757">
        <ele>759.5</ele>
        <time>2013-12-08T10:44:30Z</time>
      </trkpt>
      <trkpt lat="43.60901" lon="6.51758">
        <ele>758.4</ele>
        <time>2013-12-08T10:44:57Z</time>
      </trkpt>
      <trkpt lat="43.60908" lon="6.51758">
        <ele>756.7</ele>
        <time>2013-12-08T10:45:12Z</time>
      </trkpt>
      <trkpt lat="43.60911" lon="6.51747">
        <ele>756.5</ele>
        <time>2013-12-08T10:45:22Z</time>
      </trkpt>
      <trkpt lat="43.60911" lon="6.51736">
        <ele>756.6</ele>
        <time>2013-12-08T10:45:30Z</time>
      </trkpt>
      <trkpt lat="43.60912" lon="6.51731">
        <ele>756.5</ele>
        <time>2013-12-08T10:45:34Z</time>
      </trkpt>
      <trkpt lat="43.60917" lon="6.51722">
        <ele>755.5</ele>
        <time>2013-12-08T10:45:45Z</time>
      </trkpt>
      <trkpt lat="43.60923" lon="6.51708">
        <ele>754.9</ele>
        <time>2013-12-08T10:46:00Z</time>
      </trkpt>
      <trkpt lat="43.60926" lon="6.51704">
        <ele>754.8</ele>
        <time>2013-12-08T10:46:05Z</time>
      </trkpt>
      <trkpt lat="43.60929" lon="6.51694">
        <ele>754.1</ele>
        <time>2013-12-08T10:46:16Z</time>
      </trkpt>
      <trkpt lat="43.60933" lon="6.5168">
        <ele>753.2</ele>
        <time>2013-12-08T10:46:31Z</time>
      </trkpt>
      <trkpt lat="43.60937" lon="6.51677">
        <ele>752.8</ele>
        <time>2013-12-08T10:46:38Z</time>
      </trkpt>
      <trkpt lat="43.60946" lon="6.51666">
        <ele>753.3</ele>
        <time>2013-12-08T10:46:50Z</time>
      </trkpt>
      <trkpt lat="43.60948" lon="6.51652">
        <ele>754.4</ele>
        <time>2013-12-08T10:47:02Z</time>
      </trkpt>
      <trkpt lat="43.60953" lon="6.51643">
        <ele>754.8</ele>
        <time>2013-12-08T10:47:14Z</time>
      </trkpt>
      <trkpt lat="43.60959" lon="6.51639">
        <ele>755.1</ele>
        <time>2013-12-08T10:47:20Z</time>
      </trkpt>
      <trkpt lat="43.60964" lon="6.51631">
        <ele>755.9</ele>
        <time>2013-12-08T10:47:29Z</time>
      </trkpt>
      <trkpt lat="43.60967" lon="6.5162">
        <ele>756</ele>
        <time>2013-12-08T10:47:38Z</time>
      </trkpt>
      <trkpt lat="43.60973" lon="6.51603">
        <ele>756.4</ele>
        <time>2013-12-08T10:48:00Z</time>
      </trkpt>
      <trkpt lat="43.60978" lon="6.51599">
        <ele>756.7</ele>
        <time>2013-12-08T10:48:07Z</time>
      </trkpt>
      <trkpt lat="43.60985" lon="6.51585">
        <ele>756.4</ele>
        <time>2013-12-08T10:48:25Z</time>
      </trkpt>
      <trkpt lat="43.60993" lon="6.51574">
        <ele>755.7</ele>
        <time>2013-12-08T10:48:40Z</time>
      </trkpt>
      <trkpt lat="43.60996" lon="6.51563">
        <ele>754.9</ele>
        <time>2013-12-08T10:48:53Z</time>
      </trkpt>
      <trkpt lat="43.61003" lon="6.51554">
        <ele>754.8</ele>
        <time>2013-12-08T10:49:05Z</time>
      </trkpt>
      <trkpt lat="43.6101" lon="6.51539">
        <ele>755</ele>
        <time>2013-12-08T10:49:19Z</time>
      </trkpt>
      <trkpt lat="43.6101" lon="6.51528">
        <ele>754.9</ele>
        <time>2013-12-08T10:49:29Z</time>
      </trkpt>
      <trkpt lat="43.61013" lon="6.51516">
        <ele>754.6</ele>
        <time>2013-12-08T10:49:40Z</time>
      </trkpt>
      <trkpt lat="43.61013" lon="6.5151">
        <ele>754.7</ele>
        <time>2013-12-08T10:49:45Z</time>
      </trkpt>
      <trkpt lat="43.61015" lon="6.515">
        <ele>755.1</ele>
        <time>2013-12-08T10:49:52Z</time>
      </trkpt>
      <trkpt lat="43.6102" lon="6.51487">
        <ele>755.2</ele>
        <time>2013-12-08T10:50:03Z</time>
      </trkpt>
      <trkpt lat="43.61024" lon="6.51469">
        <ele>754.4</ele>
        <time>2013-12-08T10:50:20Z</time>
      </trkpt>
      <trkpt lat="43.61024" lon="6.51457">
        <ele>754.5</ele>
        <time>2013-12-08T10:50:30Z</time>
      </trkpt>
      <trkpt lat="43.61027" lon="6.51451">
        <ele>754.2</ele>
        <time>2013-12-08T10:50:41Z</time>
      </trkpt>
      <trkpt lat="43.61028" lon="6.51438">
        <ele>754</ele>
        <time>2013-12-08T10:50:53Z</time>
      </trkpt>
      <trkpt lat="43.61027" lon="6.51431">
        <ele>754.2</ele>
        <time>2013-12-08T10:50:59Z</time>
      </trkpt>
      <trkpt lat="43.61031" lon="6.51423">
        <ele>754.8</ele>
        <time>2013-12-08T10:51:09Z</time>
      </trkpt>
      <trkpt lat="43.61031" lon="6.51416">
        <ele>754.9</ele>
        <time>2013-12-08T10:51:16Z</time>
      </trkpt>
      <trkpt lat="43.61034" lon="6.51404">
        <ele>755.7</ele>
        <time>2013-12-08T10:51:27Z</time>
      </trkpt>
      <trkpt lat="43.61034" lon="6.51396">
        <ele>756</ele>
        <time>2013-12-08T10:51:33Z</time>
      </trkpt>
      <trkpt lat="43.61038" lon="6.51386">
        <ele>755.8</ele>
        <time>2013-12-08T10:51:43Z</time>
      </trkpt>
      <trkpt lat="43.61039" lon="6.51375">
        <ele>756.6</ele>
        <time>2013-12-08T10:51:57Z</time>
      </trkpt>
      <trkpt lat="43.61038" lon="6.51366">
        <ele>757</ele>
        <time>2013-12-08T10:52:06Z</time>
      </trkpt>
      <trkpt lat="43.61041" lon="6.51356">
        <ele>756.9</ele>
        <time>2013-12-08T10:52:12Z</time>
      </trkpt>
      <trkpt lat="43.61042" lon="6.51345">
        <ele>756.8</ele>
        <time>2013-12-08T10:52:19Z</time>
      </trkpt>
      <trkpt lat="43.61046" lon="6.51333">
        <ele>756.9</ele>
        <time>2013-12-08T10:52:33Z</time>
      </trkpt>
      <trkpt lat="43.61044" lon="6.51328">
        <ele>757.2</ele>
        <time>2013-12-08T10:52:40Z</time>
      </trkpt>
      <trkpt lat="43.61047" lon="6.51314">
        <ele>756.8</ele>
        <time>2013-12-08T10:52:49Z</time>
      </trkpt>
      <trkpt lat="43.6105" lon="6.51309">
        <ele>757.1</ele>
        <time>2013-12-08T10:52:54Z</time>
      </trkpt>
      <trkpt lat="43.61054" lon="6.51287">
        <ele>756.2</ele>
        <time>2013-12-08T10:53:14Z</time>
      </trkpt>
      <trkpt lat="43.61054" lon="6.5127">
        <ele>758.7</ele>
        <time>2013-12-08T10:53:33Z</time>
      </trkpt>
      <trkpt lat="43.61048" lon="6.5126">
        <ele>760.8</ele>
        <time>2013-12-08T10:53:47Z</time>
      </trkpt>
      <trkpt lat="43.61046" lon="6.51252">
        <ele>762.3</ele>
        <time>2013-12-08T10:53:58Z</time>
      </trkpt>
      <trkpt lat="43.61044" lon="6.51231">
        <ele>765.4</ele>
        <time>2013-12-08T10:54:20Z</time>
      </trkpt>
      <trkpt lat="43.61044" lon="6.51221">
        <ele>766.5</ele>
        <time>2013-12-08T10:54:29Z</time>
      </trkpt>
      <trkpt lat="43.6104" lon="6.51205">
        <ele>768</ele>
        <time>2013-12-08T10:54:41Z</time>
      </trkpt>
      <trkpt lat="43.6104" lon="6.51185">
        <ele>770.4</ele>
        <time>2013-12-08T10:54:59Z</time>
      </trkpt>
      <trkpt lat="43.61034" lon="6.51159">
        <ele>773.8</ele>
        <time>2013-12-08T10:55:25Z</time>
      </trkpt>
      <trkpt lat="43.61035" lon="6.5115">
        <ele>774.5</ele>
        <time>2013-12-08T10:55:33Z</time>
      </trkpt>
      <trkpt lat="43.61035" lon="6.51137">
        <ele>775.8</ele>
        <time>2013-12-08T10:55:43Z</time>
      </trkpt>
      <trkpt lat="43.61025" lon="6.51112">
        <ele>779.1</ele>
        <time>2013-12-08T10:56:10Z</time>
      </trkpt>
      <trkpt lat="43.61024" lon="6.51104">
        <ele>779.7</ele>
        <time>2013-12-08T10:56:17Z</time>
      </trkpt>
      <trkpt lat="43.61023" lon="6.51095">
        <ele>780.3</ele>
        <time>2013-12-08T10:56:27Z</time>
      </trkpt>
      <trkpt lat="43.61025" lon="6.51088">
        <ele>780.6</ele>
        <time>2013-12-08T10:56:33Z</time>
      </trkpt>
      <trkpt lat="43.61025" lon="6.51075">
        <ele>781.6</ele>
        <time>2013-12-08T10:56:44Z</time>
      </trkpt>
      <trkpt lat="43.61022" lon="6.51067">
        <ele>782.2</ele>
        <time>2013-12-08T10:56:50Z</time>
      </trkpt>
      <trkpt lat="43.61018" lon="6.51043">
        <ele>783.1</ele>
        <time>2013-12-08T10:57:04Z</time>
      </trkpt>
      <trkpt lat="43.61017" lon="6.51022">
        <ele>786.7</ele>
        <time>2013-12-08T10:57:29Z</time>
      </trkpt>
      <trkpt lat="43.61019" lon="6.51005">
        <ele>788.7</ele>
        <time>2013-12-08T10:57:46Z</time>
      </trkpt>
      <trkpt lat="43.61016" lon="6.50998">
        <ele>789.5</ele>
        <time>2013-12-08T10:57:53Z</time>
      </trkpt>
      <trkpt lat="43.61016" lon="6.50982">
        <ele>790.6</ele>
        <time>2013-12-08T10:58:05Z</time>
      </trkpt>
      <trkpt lat="43.61014" lon="6.50973">
        <ele>791.4</ele>
        <time>2013-12-08T10:58:12Z</time>
      </trkpt>
      <trkpt lat="43.6101" lon="6.50969">
        <ele>791.6</ele>
        <time>2013-12-08T10:58:17Z</time>
      </trkpt>
      <trkpt lat="43.61001" lon="6.50958">
        <ele>793.4</ele>
        <time>2013-12-08T10:58:29Z</time>
      </trkpt>
      <trkpt lat="43.60994" lon="6.50945">
        <ele>795.3</ele>
        <time>2013-12-08T10:58:46Z</time>
      </trkpt>
      <trkpt lat="43.6099" lon="6.50935">
        <ele>796.5</ele>
        <time>2013-12-08T10:58:59Z</time>
      </trkpt>
      <trkpt lat="43.60978" lon="6.50917">
        <ele>798.8</ele>
        <time>2013-12-08T10:59:18Z</time>
      </trkpt>
      <trkpt lat="43.60968" lon="6.50919">
        <ele>801.2</ele>
        <time>2013-12-08T10:59:33Z</time>
      </trkpt>
      <trkpt lat="43.6096" lon="6.50917">
        <ele>803</ele>
        <time>2013-12-08T10:59:45Z</time>
      </trkpt>
      <trkpt lat="43.60954" lon="6.50922">
        <ele>803.7</ele>
        <time>2013-12-08T10:59:53Z</time>
      </trkpt>
      <trkpt lat="43.60947" lon="6.50922">
        <ele>805</ele>
        <time>2013-12-08T11:00:02Z</time>
      </trkpt>
      <trkpt lat="43.60935" lon="6.5092">
        <ele>807.1</ele>
        <time>2013-12-08T11:00:17Z</time>
      </trkpt>
      <trkpt lat="43.60927" lon="6.50921">
        <ele>808.1</ele>
        <time>2013-12-08T11:00:25Z</time>
      </trkpt>
      <trkpt lat="43.60915" lon="6.50919">
        <ele>809.5</ele>
        <time>2013-12-08T11:00:40Z</time>
      </trkpt>
      <trkpt lat="43.60911" lon="6.50924">
        <ele>811</ele>
        <time>2013-12-08T11:00:50Z</time>
      </trkpt>
      <trkpt lat="43.60893" lon="6.50926">
        <ele>812.3</ele>
        <time>2013-12-08T11:01:08Z</time>
      </trkpt>
      <trkpt lat="43.60887" lon="6.50922">
        <ele>812.5</ele>
        <time>2013-12-08T11:01:14Z</time>
      </trkpt>
      <trkpt lat="43.60889" lon="6.5091">
        <ele>812.2</ele>
        <time>2013-12-08T11:01:26Z</time>
      </trkpt>
      <trkpt lat="43.60892" lon="6.50902">
        <ele>811.5</ele>
        <time>2013-12-08T11:01:34Z</time>
      </trkpt>
      <trkpt lat="43.60898" lon="6.50897">
        <ele>811.2</ele>
        <time>2013-12-08T11:01:40Z</time>
      </trkpt>
      <trkpt lat="43.609" lon="6.5089">
        <ele>811</ele>
        <time>2013-12-08T11:01:46Z</time>
      </trkpt>
      <trkpt lat="43.60906" lon="6.50879">
        <ele>810.3</ele>
        <time>2013-12-08T11:01:58Z</time>
      </trkpt>
      <trkpt lat="43.60907" lon="6.50869">
        <ele>810</ele>
        <time>2013-12-08T11:02:25Z</time>
      </trkpt>
      <trkpt lat="43.60911" lon="6.50863">
        <ele>809.7</ele>
        <time>2013-12-08T11:02:34Z</time>
      </trkpt>
      <trkpt lat="43.60908" lon="6.50851">
        <ele>809.5</ele>
        <time>2013-12-08T11:02:47Z</time>
      </trkpt>
      <trkpt lat="43.60907" lon="6.50837">
        <ele>819.7</ele>
        <time>2013-12-08T11:55:19Z</time>
      </trkpt>
      <trkpt lat="43.6091" lon="6.50837">
        <ele>819</ele>
        <time>2013-12-08T11:55:32Z</time>
      </trkpt>
      <trkpt lat="43.60903" lon="6.50812">
        <ele>817.6</ele>
        <time>2013-12-08T11:55:52Z</time>
      </trkpt>
      <trkpt lat="43.609" lon="6.50806">
        <ele>817.7</ele>
        <time>2013-12-08T11:55:56Z</time>
      </trkpt>
      <trkpt lat="43.609" lon="6.50789">
        <ele>816.7</ele>
        <time>2013-12-08T11:56:09Z</time>
      </trkpt>
      <trkpt lat="43.60899" lon="6.50785">
        <ele>816.5</ele>
        <time>2013-12-08T11:56:13Z</time>
      </trkpt>
      <trkpt lat="43.609" lon="6.50771">
        <ele>815.9</ele>
        <time>2013-12-08T11:56:26Z</time>
      </trkpt>
      <trkpt lat="43.60899" lon="6.5076">
        <ele>815.1</ele>
        <time>2013-12-08T11:56:34Z</time>
      </trkpt>
      <trkpt lat="43.609" lon="6.50735">
        <ele>813.5</ele>
        <time>2013-12-08T11:56:55Z</time>
      </trkpt>
      <trkpt lat="43.60902" lon="6.50724">
        <ele>812.4</ele>
        <time>2013-12-08T11:57:03Z</time>
      </trkpt>
      <trkpt lat="43.60905" lon="6.50719">
        <ele>812.1</ele>
        <time>2013-12-08T11:57:07Z</time>
      </trkpt>
      <trkpt lat="43.60909" lon="6.50705">
        <ele>811.6</ele>
        <time>2013-12-08T11:57:17Z</time>
      </trkpt>
      <trkpt lat="43.60909" lon="6.50683">
        <ele>809.3</ele>
        <time>2013-12-08T11:57:34Z</time>
      </trkpt>
      <trkpt lat="43.60912" lon="6.50675">
        <ele>808.5</ele>
        <time>2013-12-08T11:57:41Z</time>
      </trkpt>
      <trkpt lat="43.60921" lon="6.50655">
        <ele>807</ele>
        <time>2013-12-08T11:57:56Z</time>
      </trkpt>
      <trkpt lat="43.60924" lon="6.50647">
        <ele>806.6</ele>
        <time>2013-12-08T11:58:02Z</time>
      </trkpt>
      <trkpt lat="43.60929" lon="6.50641">
        <ele>805.9</ele>
        <time>2013-12-08T11:58:08Z</time>
      </trkpt>
      <trkpt lat="43.60935" lon="6.50629">
        <ele>805.1</ele>
        <time>2013-12-08T11:58:16Z</time>
      </trkpt>
      <trkpt lat="43.60935" lon="6.50611">
        <ele>803.3</ele>
        <time>2013-12-08T11:58:29Z</time>
      </trkpt>
      <trkpt lat="43.60932" lon="6.50599">
        <ele>801.9</ele>
        <time>2013-12-08T11:58:39Z</time>
      </trkpt>
      <trkpt lat="43.60931" lon="6.50582">
        <ele>800.3</ele>
        <time>2013-12-08T11:58:54Z</time>
      </trkpt>
      <trkpt lat="43.60928" lon="6.50564">
        <ele>798.2</ele>
        <time>2013-12-08T11:59:08Z</time>
      </trkpt>
      <trkpt lat="43.60928" lon="6.50555">
        <ele>797.7</ele>
        <time>2013-12-08T11:59:14Z</time>
      </trkpt>
      <trkpt lat="43.60932" lon="6.5054">
        <ele>796.2</ele>
        <time>2013-12-08T11:59:24Z</time>
      </trkpt>
      <trkpt lat="43.60933" lon="6.50527">
        <ele>795.2</ele>
        <time>2013-12-08T11:59:33Z</time>
      </trkpt>
      <trkpt lat="43.60935" lon="6.50523">
        <ele>795.1</ele>
        <time>2013-12-08T11:59:36Z</time>
      </trkpt>
      <trkpt lat="43.60939" lon="6.50511">
        <ele>794.3</ele>
        <time>2013-12-08T11:59:45Z</time>
      </trkpt>
      <trkpt lat="43.60946" lon="6.50496">
        <ele>793.7</ele>
        <time>2013-12-08T11:59:56Z</time>
      </trkpt>
      <trkpt lat="43.6095" lon="6.50489">
        <ele>793.5</ele>
        <time>2013-12-08T12:00:02Z</time>
      </trkpt>
      <trkpt lat="43.60956" lon="6.50478">
        <ele>793.5</ele>
        <time>2013-12-08T12:00:12Z</time>
      </trkpt>
      <trkpt lat="43.6096" lon="6.50463">
        <ele>793</ele>
        <time>2013-12-08T12:00:24Z</time>
      </trkpt>
      <trkpt lat="43.60962" lon="6.50459">
        <ele>793</ele>
        <time>2013-12-08T12:00:28Z</time>
      </trkpt>
      <trkpt lat="43.60965" lon="6.50447">
        <ele>792.4</ele>
        <time>2013-12-08T12:00:36Z</time>
      </trkpt>
      <trkpt lat="43.6097" lon="6.50438">
        <ele>792.1</ele>
        <time>2013-12-08T12:00:43Z</time>
      </trkpt>
      <trkpt lat="43.6098" lon="6.5041">
        <ele>790.3</ele>
        <time>2013-12-08T12:01:04Z</time>
      </trkpt>
      <trkpt lat="43.60982" lon="6.50397">
        <ele>789.7</ele>
        <time>2013-12-08T12:01:13Z</time>
      </trkpt>
      <trkpt lat="43.60988" lon="6.50375">
        <ele>788</ele>
        <time>2013-12-08T12:01:32Z</time>
      </trkpt>
      <trkpt lat="43.60987" lon="6.50361">
        <ele>786.9</ele>
        <time>2013-12-08T12:01:42Z</time>
      </trkpt>
      <trkpt lat="43.60992" lon="6.50344">
        <ele>785.8</ele>
        <time>2013-12-08T12:01:54Z</time>
      </trkpt>
      <trkpt lat="43.60995" lon="6.50322">
        <ele>784.6</ele>
        <time>2013-12-08T12:02:10Z</time>
      </trkpt>
      <trkpt lat="43.60999" lon="6.50307">
        <ele>783.2</ele>
        <time>2013-12-08T12:02:21Z</time>
      </trkpt>
      <trkpt lat="43.61" lon="6.50293">
        <ele>782.2</ele>
        <time>2013-12-08T12:02:32Z</time>
      </trkpt>
      <trkpt lat="43.61004" lon="6.50278">
        <ele>781.1</ele>
        <time>2013-12-08T12:02:43Z</time>
      </trkpt>
      <trkpt lat="43.61003" lon="6.5027">
        <ele>779.8</ele>
        <time>2013-12-08T12:02:49Z</time>
      </trkpt>
      <trkpt lat="43.61006" lon="6.50252">
        <ele>778.6</ele>
        <time>2013-12-08T12:03:02Z</time>
      </trkpt>
      <trkpt lat="43.61007" lon="6.50251">
        <ele>778.5</ele>
        <time>2013-12-08T12:03:03Z</time>
      </trkpt>
      <trkpt lat="43.61011" lon="6.50237">
        <ele>777.8</ele>
        <time>2013-12-08T12:03:14Z</time>
      </trkpt>
      <trkpt lat="43.61016" lon="6.50216">
        <ele>777.2</ele>
        <time>2013-12-08T12:03:30Z</time>
      </trkpt>
      <trkpt lat="43.6102" lon="6.502">
        <ele>776.9</ele>
        <time>2013-12-08T12:03:41Z</time>
      </trkpt>
      <trkpt lat="43.61026" lon="6.50188">
        <ele>776.1</ele>
        <time>2013-12-08T12:03:52Z</time>
      </trkpt>
      <trkpt lat="43.61029" lon="6.50182">
        <ele>776</ele>
        <time>2013-12-08T12:03:57Z</time>
      </trkpt>
      <trkpt lat="43.61035" lon="6.50182">
        <ele>775.7</ele>
        <time>2013-12-08T12:04:04Z</time>
      </trkpt>
      <trkpt lat="43.6104" lon="6.50186">
        <ele>775.5</ele>
        <time>2013-12-08T12:04:15Z</time>
      </trkpt>
      <trkpt lat="43.61037" lon="6.50185">
        <ele>775.1</ele>
        <time>2013-12-08T12:04:56Z</time>
      </trkpt>
      <trkpt lat="43.6104" lon="6.50188">
        <ele>774.7</ele>
        <time>2013-12-08T12:05:00Z</time>
      </trkpt>
      <trkpt lat="43.61047" lon="6.50189">
        <ele>774.2</ele>
        <time>2013-12-08T12:05:07Z</time>
      </trkpt>
      <trkpt lat="43.61054" lon="6.50178">
        <ele>773.2</ele>
        <time>2013-12-08T12:05:19Z</time>
      </trkpt>
      <trkpt lat="43.61062" lon="6.50179">
        <ele>772.6</ele>
        <time>2013-12-08T12:05:27Z</time>
      </trkpt>
      <trkpt lat="43.61067" lon="6.50178">
        <ele>771.5</ele>
        <time>2013-12-08T12:05:33Z</time>
      </trkpt>
      <trkpt lat="43.61074" lon="6.50173">
        <ele>770.5</ele>
        <time>2013-12-08T12:05:40Z</time>
      </trkpt>
      <trkpt lat="43.6109" lon="6.5017">
        <ele>768.3</ele>
        <time>2013-12-08T12:05:54Z</time>
      </trkpt>
      <trkpt lat="43.61104" lon="6.5017">
        <ele>766.7</ele>
        <time>2013-12-08T12:06:08Z</time>
      </trkpt>
      <trkpt lat="43.61105" lon="6.50169">
        <ele>766.2</ele>
        <time>2013-12-08T12:06:10Z</time>
      </trkpt>
      <trkpt lat="43.61117" lon="6.50164">
        <ele>764.4</ele>
        <time>2013-12-08T12:06:22Z</time>
      </trkpt>
      <trkpt lat="43.61122" lon="6.50164">
        <ele>764</ele>
        <time>2013-12-08T12:06:27Z</time>
      </trkpt>
      <trkpt lat="43.61139" lon="6.50164">
        <ele>762.6</ele>
        <time>2013-12-08T12:06:42Z</time>
      </trkpt>
      <trkpt lat="43.61148" lon="6.50161">
        <ele>761.4</ele>
        <time>2013-12-08T12:06:50Z</time>
      </trkpt>
      <trkpt lat="43.6115" lon="6.50161">
        <ele>761</ele>
        <time>2013-12-08T12:06:52Z</time>
      </trkpt>
      <trkpt lat="43.61165" lon="6.50156">
        <ele>759.3</ele>
        <time>2013-12-08T12:07:05Z</time>
      </trkpt>
      <trkpt lat="43.61168" lon="6.50157">
        <ele>758.9</ele>
        <time>2013-12-08T12:07:08Z</time>
      </trkpt>
      <trkpt lat="43.61181" lon="6.50154">
        <ele>757</ele>
        <time>2013-12-08T12:07:21Z</time>
      </trkpt>
      <trkpt lat="43.61183" lon="6.50169">
        <ele>755.7</ele>
        <time>2013-12-08T12:07:32Z</time>
      </trkpt>
      <trkpt lat="43.61182" lon="6.50181">
        <ele>755.7</ele>
        <time>2013-12-08T12:07:44Z</time>
      </trkpt>
      <trkpt lat="43.61177" lon="6.50193">
        <ele>755.1</ele>
        <time>2013-12-08T12:07:55Z</time>
      </trkpt>
      <trkpt lat="43.61176" lon="6.50202">
        <ele>754.9</ele>
        <time>2013-12-08T12:08:01Z</time>
      </trkpt>
      <trkpt lat="43.61169" lon="6.50216">
        <ele>754.4</ele>
        <time>2013-12-08T12:08:13Z</time>
      </trkpt>
      <trkpt lat="43.61168" lon="6.50224">
        <ele>754.1</ele>
        <time>2013-12-08T12:08:17Z</time>
      </trkpt>
      <trkpt lat="43.61161" lon="6.50229">
        <ele>754.6</ele>
        <time>2013-12-08T12:08:22Z</time>
      </trkpt>
      <trkpt lat="43.61158" lon="6.5023">
        <ele>754.7</ele>
        <time>2013-12-08T12:08:24Z</time>
      </trkpt>
      <trkpt lat="43.61143" lon="6.50251">
        <ele>755.6</ele>
        <time>2013-12-08T12:08:52Z</time>
      </trkpt>
      <trkpt lat="43.6114" lon="6.50256">
        <ele>755.3</ele>
        <time>2013-12-08T12:08:58Z</time>
      </trkpt>
      <trkpt lat="43.6114" lon="6.50269">
        <ele>753.4</ele>
        <time>2013-12-08T12:09:10Z</time>
      </trkpt>
      <trkpt lat="43.61139" lon="6.50281">
        <ele>753.5</ele>
        <time>2013-12-08T12:09:20Z</time>
      </trkpt>
      <trkpt lat="43.61139" lon="6.50294">
        <ele>754</ele>
        <time>2013-12-08T12:09:28Z</time>
      </trkpt>
      <trkpt lat="43.61139" lon="6.50303">
        <ele>754.4</ele>
        <time>2013-12-08T12:09:36Z</time>
      </trkpt>
      <trkpt lat="43.61141" lon="6.50325">
        <ele>755.3</ele>
        <time>2013-12-08T12:09:58Z</time>
      </trkpt>
      <trkpt lat="43.61144" lon="6.50333">
        <ele>755.3</ele>
        <time>2013-12-08T12:10:08Z</time>
      </trkpt>
      <trkpt lat="43.6115" lon="6.50342">
        <ele>754.4</ele>
        <time>2013-12-08T12:10:19Z</time>
      </trkpt>
      <trkpt lat="43.61153" lon="6.5035">
        <ele>754.9</ele>
        <time>2013-12-08T12:10:26Z</time>
      </trkpt>
      <trkpt lat="43.61146" lon="6.50372">
        <ele>756.5</ele>
        <time>2013-12-08T12:10:47Z</time>
      </trkpt>
      <trkpt lat="43.61146" lon="6.50378">
        <ele>756.8</ele>
        <time>2013-12-08T12:10:52Z</time>
      </trkpt>
      <trkpt lat="43.61143" lon="6.5039">
        <ele>757.3</ele>
        <time>2013-12-08T12:11:06Z</time>
      </trkpt>
      <trkpt lat="43.61149" lon="6.50414">
        <ele>758.7</ele>
        <time>2013-12-08T12:11:24Z</time>
      </trkpt>
      <trkpt lat="43.61149" lon="6.50424">
        <ele>759</ele>
        <time>2013-12-08T12:11:32Z</time>
      </trkpt>
      <trkpt lat="43.61157" lon="6.50443">
        <ele>760.6</ele>
        <time>2013-12-08T12:11:53Z</time>
      </trkpt>
      <trkpt lat="43.61157" lon="6.50453">
        <ele>760.6</ele>
        <time>2013-12-08T12:12:01Z</time>
      </trkpt>
      <trkpt lat="43.61158" lon="6.50461">
        <ele>761.3</ele>
        <time>2013-12-08T12:12:10Z</time>
      </trkpt>
      <trkpt lat="43.61166" lon="6.50487">
        <ele>762.8</ele>
        <time>2013-12-08T12:12:35Z</time>
      </trkpt>
      <trkpt lat="43.61166" lon="6.5049">
        <ele>763.1</ele>
        <time>2013-12-08T12:12:38Z</time>
      </trkpt>
      <trkpt lat="43.6116" lon="6.50519">
        <ele>765.1</ele>
        <time>2013-12-08T12:13:02Z</time>
      </trkpt>
      <trkpt lat="43.61163" lon="6.50534">
        <ele>765.6</ele>
        <time>2013-12-08T12:13:14Z</time>
      </trkpt>
      <trkpt lat="43.61162" lon="6.50547">
        <ele>766.6</ele>
        <time>2013-12-08T12:13:25Z</time>
      </trkpt>
      <trkpt lat="43.61162" lon="6.50553">
        <ele>766.9</ele>
        <time>2013-12-08T12:13:31Z</time>
      </trkpt>
      <trkpt lat="43.6116" lon="6.50573">
        <ele>767</ele>
        <time>2013-12-08T12:13:45Z</time>
      </trkpt>
      <trkpt lat="43.61159" lon="6.50593">
        <ele>767.3</ele>
        <time>2013-12-08T12:13:59Z</time>
      </trkpt>
      <trkpt lat="43.61158" lon="6.50606">
        <ele>768.5</ele>
        <time>2013-12-08T12:14:12Z</time>
      </trkpt>
      <trkpt lat="43.61156" lon="6.50612">
        <ele>768.4</ele>
        <time>2013-12-08T12:14:16Z</time>
      </trkpt>
      <trkpt lat="43.61153" lon="6.50631">
        <ele>769.6</ele>
        <time>2013-12-08T12:14:30Z</time>
      </trkpt>
      <trkpt lat="43.61148" lon="6.50643">
        <ele>770.5</ele>
        <time>2013-12-08T12:14:41Z</time>
      </trkpt>
      <trkpt lat="43.61147" lon="6.50653">
        <ele>771.7</ele>
        <time>2013-12-08T12:14:50Z</time>
      </trkpt>
      <trkpt lat="43.61141" lon="6.50676">
        <ele>772.5</ele>
        <time>2013-12-08T12:15:11Z</time>
      </trkpt>
      <trkpt lat="43.61141" lon="6.507">
        <ele>772.9</ele>
        <time>2013-12-08T12:15:29Z</time>
      </trkpt>
      <trkpt lat="43.61143" lon="6.50715">
        <ele>773.1</ele>
        <time>2013-12-08T12:15:40Z</time>
      </trkpt>
      <trkpt lat="43.61141" lon="6.50728">
        <ele>773.2</ele>
        <time>2013-12-08T12:15:49Z</time>
      </trkpt>
      <trkpt lat="43.61144" lon="6.5075">
        <ele>773.1</ele>
        <time>2013-12-08T12:16:05Z</time>
      </trkpt>
      <trkpt lat="43.61143" lon="6.50759">
        <ele>773.3</ele>
        <time>2013-12-08T12:16:11Z</time>
      </trkpt>
      <trkpt lat="43.61144" lon="6.5077">
        <ele>773.1</ele>
        <time>2013-12-08T12:16:19Z</time>
      </trkpt>
      <trkpt lat="43.61143" lon="6.50774">
        <ele>773.5</ele>
        <time>2013-12-08T12:16:23Z</time>
      </trkpt>
      <trkpt lat="43.61141" lon="6.50789">
        <ele>773.5</ele>
        <time>2013-12-08T12:16:33Z</time>
      </trkpt>
      <trkpt lat="43.61142" lon="6.50804">
        <ele>773.7</ele>
        <time>2013-12-08T12:16:42Z</time>
      </trkpt>
      <trkpt lat="43.6114" lon="6.50829">
        <ele>775</ele>
        <time>2013-12-08T12:17:00Z</time>
      </trkpt>
      <trkpt lat="43.61141" lon="6.50838">
        <ele>774.9</ele>
        <time>2013-12-08T12:17:05Z</time>
      </trkpt>
      <trkpt lat="43.61136" lon="6.50851">
        <ele>775.8</ele>
        <time>2013-12-08T12:17:15Z</time>
      </trkpt>
      <trkpt lat="43.61131" lon="6.50883">
        <ele>776.3</ele>
        <time>2013-12-08T12:17:37Z</time>
      </trkpt>
      <trkpt lat="43.61129" lon="6.50902">
        <ele>775.7</ele>
        <time>2013-12-08T12:17:50Z</time>
      </trkpt>
      <trkpt lat="43.61127" lon="6.50909">
        <ele>774.8</ele>
        <time>2013-12-08T12:17:56Z</time>
      </trkpt>
      <trkpt lat="43.61124" lon="6.50931">
        <ele>774.3</ele>
        <time>2013-12-08T12:18:15Z</time>
      </trkpt>
      <trkpt lat="43.61126" lon="6.50944">
        <ele>774.9</ele>
        <time>2013-12-08T12:18:23Z</time>
      </trkpt>
      <trkpt lat="43.61126" lon="6.50954">
        <ele>775.2</ele>
        <time>2013-12-08T12:18:31Z</time>
      </trkpt>
      <trkpt lat="43.61128" lon="6.50978">
        <ele>775.2</ele>
        <time>2013-12-08T12:18:47Z</time>
      </trkpt>
      <trkpt lat="43.61126" lon="6.50992">
        <ele>775.2</ele>
        <time>2013-12-08T12:18:57Z</time>
      </trkpt>
      <trkpt lat="43.61124" lon="6.51">
        <ele>775.2</ele>
        <time>2013-12-08T12:19:03Z</time>
      </trkpt>
      <trkpt lat="43.61126" lon="6.51015">
        <ele>774.7</ele>
        <time>2013-12-08T12:19:14Z</time>
      </trkpt>
      <trkpt lat="43.61126" lon="6.51038">
        <ele>773.4</ele>
        <time>2013-12-08T12:19:31Z</time>
      </trkpt>
      <trkpt lat="43.61129" lon="6.5105">
        <ele>771.9</ele>
        <time>2013-12-08T12:19:43Z</time>
      </trkpt>
      <trkpt lat="43.61129" lon="6.5106">
        <ele>771.4</ele>
        <time>2013-12-08T12:19:50Z</time>
      </trkpt>
      <trkpt lat="43.61128" lon="6.5107">
        <ele>771.4</ele>
        <time>2013-12-08T12:19:57Z</time>
      </trkpt>
      <trkpt lat="43.61126" lon="6.51074">
        <ele>771.5</ele>
        <time>2013-12-08T12:20:02Z</time>
      </trkpt>
      <trkpt lat="43.61122" lon="6.51092">
        <ele>772.1</ele>
        <time>2013-12-08T12:20:19Z</time>
      </trkpt>
      <trkpt lat="43.61119" lon="6.51101">
        <ele>772</ele>
        <time>2013-12-08T12:20:26Z</time>
      </trkpt>
      <trkpt lat="43.61114" lon="6.51127">
        <ele>772</ele>
        <time>2013-12-08T12:20:49Z</time>
      </trkpt>
      <trkpt lat="43.61113" lon="6.5114">
        <ele>771.9</ele>
        <time>2013-12-08T12:20:58Z</time>
      </trkpt>
      <trkpt lat="43.6111" lon="6.51149">
        <ele>772.3</ele>
        <time>2013-12-08T12:21:05Z</time>
      </trkpt>
      <trkpt lat="43.61103" lon="6.5118">
        <ele>772.5</ele>
        <time>2013-12-08T12:21:27Z</time>
      </trkpt>
      <trkpt lat="43.61101" lon="6.51185">
        <ele>772.5</ele>
        <time>2013-12-08T12:21:31Z</time>
      </trkpt>
      <trkpt lat="43.61097" lon="6.51211">
        <ele>772.8</ele>
        <time>2013-12-08T12:21:47Z</time>
      </trkpt>
      <trkpt lat="43.61096" lon="6.51216">
        <ele>772.8</ele>
        <time>2013-12-08T12:21:51Z</time>
      </trkpt>
      <trkpt lat="43.61085" lon="6.51237">
        <ele>773.2</ele>
        <time>2013-12-08T12:22:07Z</time>
      </trkpt>
      <trkpt lat="43.61083" lon="6.51246">
        <ele>773.3</ele>
        <time>2013-12-08T12:22:13Z</time>
      </trkpt>
      <trkpt lat="43.61077" lon="6.51256">
        <ele>773.8</ele>
        <time>2013-12-08T12:22:24Z</time>
      </trkpt>
      <trkpt lat="43.61075" lon="6.51263">
        <ele>774</ele>
        <time>2013-12-08T12:22:31Z</time>
      </trkpt>
      <trkpt lat="43.6107" lon="6.51275">
        <ele>775.4</ele>
        <time>2013-12-08T12:22:44Z</time>
      </trkpt>
      <trkpt lat="43.61064" lon="6.51292">
        <ele>776.4</ele>
        <time>2013-12-08T12:23:01Z</time>
      </trkpt>
      <trkpt lat="43.61064" lon="6.51302">
        <ele>775.2</ele>
        <time>2013-12-08T12:23:31Z</time>
      </trkpt>
      <trkpt lat="43.61066" lon="6.51314">
        <ele>773.6</ele>
        <time>2013-12-08T12:23:44Z</time>
      </trkpt>
      <trkpt lat="43.61075" lon="6.51339">
        <ele>769.7</ele>
        <time>2013-12-08T12:24:10Z</time>
      </trkpt>
      <trkpt lat="43.61077" lon="6.51343">
        <ele>769.1</ele>
        <time>2013-12-08T12:24:13Z</time>
      </trkpt>
      <trkpt lat="43.61078" lon="6.51355">
        <ele>767.9</ele>
        <time>2013-12-08T12:24:21Z</time>
      </trkpt>
      <trkpt lat="43.61088" lon="6.51378">
        <ele>764.8</ele>
        <time>2013-12-08T12:24:38Z</time>
      </trkpt>
      <trkpt lat="43.61087" lon="6.51396">
        <ele>763.4</ele>
        <time>2013-12-08T12:24:51Z</time>
      </trkpt>
      <trkpt lat="43.61093" lon="6.51424">
        <ele>759.6</ele>
        <time>2013-12-08T12:25:15Z</time>
      </trkpt>
      <trkpt lat="43.61098" lon="6.51436">
        <ele>757.9</ele>
        <time>2013-12-08T12:25:25Z</time>
      </trkpt>
      <trkpt lat="43.61099" lon="6.51444">
        <ele>756.8</ele>
        <time>2013-12-08T12:25:32Z</time>
      </trkpt>
      <trkpt lat="43.61098" lon="6.51459">
        <ele>755.1</ele>
        <time>2013-12-08T12:25:46Z</time>
      </trkpt>
      <trkpt lat="43.61106" lon="6.51488">
        <ele>751.8</ele>
        <time>2013-12-08T12:26:15Z</time>
      </trkpt>
      <trkpt lat="43.61108" lon="6.51492">
        <ele>751</ele>
        <time>2013-12-08T12:26:21Z</time>
      </trkpt>
      <trkpt lat="43.61113" lon="6.51505">
        <ele>748.4</ele>
        <time>2013-12-08T12:26:37Z</time>
      </trkpt>
      <trkpt lat="43.6112" lon="6.51517">
        <ele>745.6</ele>
        <time>2013-12-08T12:26:51Z</time>
      </trkpt>
      <trkpt lat="43.61122" lon="6.51529">
        <ele>744.8</ele>
        <time>2013-12-08T12:27:00Z</time>
      </trkpt>
      <trkpt lat="43.61125" lon="6.51537">
        <ele>744</ele>
        <time>2013-12-08T12:27:08Z</time>
      </trkpt>
      <trkpt lat="43.61118" lon="6.51562">
        <ele>742.7</ele>
        <time>2013-12-08T12:27:26Z</time>
      </trkpt>
      <trkpt lat="43.61114" lon="6.51568">
        <ele>742.8</ele>
        <time>2013-12-08T12:27:30Z</time>
      </trkpt>
      <trkpt lat="43.6111" lon="6.51581">
        <ele>742.7</ele>
        <time>2013-12-08T12:27:40Z</time>
      </trkpt>
      <trkpt lat="43.61109" lon="6.51601">
        <ele>741.2</ele>
        <time>2013-12-08T12:27:55Z</time>
      </trkpt>
      <trkpt lat="43.61113" lon="6.51614">
        <ele>739.3</ele>
        <time>2013-12-08T12:28:05Z</time>
      </trkpt>
      <trkpt lat="43.61113" lon="6.51627">
        <ele>737.5</ele>
        <time>2013-12-08T12:28:18Z</time>
      </trkpt>
      <trkpt lat="43.61115" lon="6.51642">
        <ele>736</ele>
        <time>2013-12-08T12:28:30Z</time>
      </trkpt>
      <trkpt lat="43.61114" lon="6.5165">
        <ele>734.9</ele>
        <time>2013-12-08T12:28:38Z</time>
      </trkpt>
      <trkpt lat="43.61115" lon="6.51663">
        <ele>733.5</ele>
        <time>2013-12-08T12:28:48Z</time>
      </trkpt>
      <trkpt lat="43.61123" lon="6.51691">
        <ele>730.8</ele>
        <time>2013-12-08T12:29:08Z</time>
      </trkpt>
      <trkpt lat="43.61124" lon="6.51699">
        <ele>728.9</ele>
        <time>2013-12-08T12:29:18Z</time>
      </trkpt>
      <trkpt lat="43.61128" lon="6.51706">
        <ele>728.1</ele>
        <time>2013-12-08T12:29:37Z</time>
      </trkpt>
      <trkpt lat="43.61131" lon="6.51709">
        <ele>726.3</ele>
        <time>2013-12-08T12:29:46Z</time>
      </trkpt>
      <trkpt lat="43.61137" lon="6.51723">
        <ele>723.8</ele>
        <time>2013-12-08T12:29:58Z</time>
      </trkpt>
      <trkpt lat="43.61146" lon="6.51729">
        <ele>720.9</ele>
        <time>2013-12-08T12:30:14Z</time>
      </trkpt>
      <trkpt lat="43.61151" lon="6.51734">
        <ele>719</ele>
        <time>2013-12-08T12:30:25Z</time>
      </trkpt>
      <trkpt lat="43.61158" lon="6.5175">
        <ele>716.2</ele>
        <time>2013-12-08T12:30:42Z</time>
      </trkpt>
      <trkpt lat="43.61171" lon="6.51765">
        <ele>711.7</ele>
        <time>2013-12-08T12:31:08Z</time>
      </trkpt>
      <trkpt lat="43.61178" lon="6.51779">
        <ele>708.9</ele>
        <time>2013-12-08T12:31:27Z</time>
      </trkpt>
      <trkpt lat="43.61187" lon="6.51794">
        <ele>705.8</ele>
        <time>2013-12-08T12:31:46Z</time>
      </trkpt>
      <trkpt lat="43.612" lon="6.51809">
        <ele>703</ele>
        <time>2013-12-08T12:32:08Z</time>
      </trkpt>
      <trkpt lat="43.61206" lon="6.51815">
        <ele>702.5</ele>
        <time>2013-12-08T12:32:15Z</time>
      </trkpt>
      <trkpt lat="43.61213" lon="6.51823">
        <ele>701.9</ele>
        <time>2013-12-08T12:32:21Z</time>
      </trkpt>
      <trkpt lat="43.61218" lon="6.51835">
        <ele>701.3</ele>
        <time>2013-12-08T12:32:33Z</time>
      </trkpt>
      <trkpt lat="43.61221" lon="6.51839">
        <ele>701.2</ele>
        <time>2013-12-08T12:32:37Z</time>
      </trkpt>
      <trkpt lat="43.61225" lon="6.51849">
        <ele>700.9</ele>
        <time>2013-12-08T12:32:43Z</time>
      </trkpt>
      <trkpt lat="43.61228" lon="6.51863">
        <ele>701.2</ele>
        <time>2013-12-08T12:32:53Z</time>
      </trkpt>
      <trkpt lat="43.61229" lon="6.51875">
        <ele>700.9</ele>
        <time>2013-12-08T12:33:04Z</time>
      </trkpt>
      <trkpt lat="43.61234" lon="6.51894">
        <ele>700.4</ele>
        <time>2013-12-08T12:33:16Z</time>
      </trkpt>
      <trkpt lat="43.61234" lon="6.51909">
        <ele>700</ele>
        <time>2013-12-08T12:33:26Z</time>
      </trkpt>
      <trkpt lat="43.61242" lon="6.51928">
        <ele>698.9</ele>
        <time>2013-12-08T12:33:41Z</time>
      </trkpt>
      <trkpt lat="43.61254" lon="6.51949">
        <ele>697.7</ele>
        <time>2013-12-08T12:34:02Z</time>
      </trkpt>
      <trkpt lat="43.61265" lon="6.5198">
        <ele>697.7</ele>
        <time>2013-12-08T12:34:23Z</time>
      </trkpt>
      <trkpt lat="43.61268" lon="6.51991">
        <ele>697.7</ele>
        <time>2013-12-08T12:34:32Z</time>
      </trkpt>
      <trkpt lat="43.61269" lon="6.5202">
        <ele>697.9</ele>
        <time>2013-12-08T12:34:51Z</time>
      </trkpt>
      <trkpt lat="43.61268" lon="6.52034">
        <ele>698.5</ele>
        <time>2013-12-08T12:35:01Z</time>
      </trkpt>
      <trkpt lat="43.6127" lon="6.52053">
        <ele>698.8</ele>
        <time>2013-12-08T12:35:14Z</time>
      </trkpt>
      <trkpt lat="43.6127" lon="6.52058">
        <ele>698.8</ele>
        <time>2013-12-08T12:35:18Z</time>
      </trkpt>
      <trkpt lat="43.61267" lon="6.52068">
        <ele>699</ele>
        <time>2013-12-08T12:35:25Z</time>
      </trkpt>
      <trkpt lat="43.6127" lon="6.52078">
        <ele>699.2</ele>
        <time>2013-12-08T12:35:32Z</time>
      </trkpt>
      <trkpt lat="43.61267" lon="6.52092">
        <ele>699</ele>
        <time>2013-12-08T12:35:42Z</time>
      </trkpt>
      <trkpt lat="43.61269" lon="6.52105">
        <ele>698.6</ele>
        <time>2013-12-08T12:35:51Z</time>
      </trkpt>
      <trkpt lat="43.61272" lon="6.5212">
        <ele>697.9</ele>
        <time>2013-12-08T12:36:03Z</time>
      </trkpt>
      <trkpt lat="43.6128" lon="6.52143">
        <ele>697.3</ele>
        <time>2013-12-08T12:36:20Z</time>
      </trkpt>
      <trkpt lat="43.61286" lon="6.52155">
        <ele>697.3</ele>
        <time>2013-12-08T12:36:30Z</time>
      </trkpt>
      <trkpt lat="43.61292" lon="6.52164">
        <ele>696.8</ele>
        <time>2013-12-08T12:36:38Z</time>
      </trkpt>
      <trkpt lat="43.61296" lon="6.52167">
        <ele>696.4</ele>
        <time>2013-12-08T12:36:42Z</time>
      </trkpt>
      <trkpt lat="43.61304" lon="6.52169">
        <ele>695</ele>
        <time>2013-12-08T12:36:53Z</time>
      </trkpt>
      <trkpt lat="43.61311" lon="6.52173">
        <ele>694.6</ele>
        <time>2013-12-08T12:37:00Z</time>
      </trkpt>
      <trkpt lat="43.61307" lon="6.52181">
        <ele>694.5</ele>
        <time>2013-12-08T12:37:11Z</time>
      </trkpt>
      <trkpt lat="43.61307" lon="6.52178">
        <ele>694.5</ele>
        <time>2013-12-08T12:37:29Z</time>
      </trkpt>
      <trkpt lat="43.61311" lon="6.52185">
        <ele>694.4</ele>
        <time>2013-12-08T12:37:48Z</time>
      </trkpt>
      <trkpt lat="43.61319" lon="6.52177">
        <ele>693.4</ele>
        <time>2013-12-08T12:37:58Z</time>
      </trkpt>
      <trkpt lat="43.61328" lon="6.52163">
        <ele>690.8</ele>
        <time>2013-12-08T12:38:15Z</time>
      </trkpt>
      <trkpt lat="43.61336" lon="6.52155">
        <ele>689</ele>
        <time>2013-12-08T12:38:25Z</time>
      </trkpt>
      <trkpt lat="43.6134" lon="6.52152">
        <ele>687.4</ele>
        <time>2013-12-08T12:38:34Z</time>
      </trkpt>
      <trkpt lat="43.61346" lon="6.52154">
        <ele>686.7</ele>
        <time>2013-12-08T12:38:40Z</time>
      </trkpt>
      <trkpt lat="43.61355" lon="6.52155">
        <ele>685.6</ele>
        <time>2013-12-08T12:38:50Z</time>
      </trkpt>
      <trkpt lat="43.61363" lon="6.52158">
        <ele>684.2</ele>
        <time>2013-12-08T12:39:00Z</time>
      </trkpt>
      <trkpt lat="43.61365" lon="6.52162">
        <ele>683.2</ele>
        <time>2013-12-08T12:39:04Z</time>
      </trkpt>
      <trkpt lat="43.61375" lon="6.5217">
        <ele>682.1</ele>
        <time>2013-12-08T12:39:15Z</time>
      </trkpt>
      <trkpt lat="43.61384" lon="6.52169">
        <ele>681.2</ele>
        <time>2013-12-08T12:39:26Z</time>
      </trkpt>
      <trkpt lat="43.61398" lon="6.52179">
        <ele>679.4</ele>
        <time>2013-12-08T12:39:46Z</time>
      </trkpt>
      <trkpt lat="43.61405" lon="6.52186">
        <ele>678.9</ele>
        <time>2013-12-08T12:39:55Z</time>
      </trkpt>
      <trkpt lat="43.61412" lon="6.52202">
        <ele>678.4</ele>
        <time>2013-12-08T12:40:07Z</time>
      </trkpt>
      <trkpt lat="43.61415" lon="6.52205">
        <ele>678</ele>
        <time>2013-12-08T12:40:13Z</time>
      </trkpt>
      <trkpt lat="43.61421" lon="6.52218">
        <ele>676.8</ele>
        <time>2013-12-08T12:40:24Z</time>
      </trkpt>
      <trkpt lat="43.61432" lon="6.52234">
        <ele>674.9</ele>
        <time>2013-12-08T12:40:38Z</time>
      </trkpt>
      <trkpt lat="43.61436" lon="6.52235">
        <ele>674.6</ele>
        <time>2013-12-08T12:40:44Z</time>
      </trkpt>
      <trkpt lat="43.61442" lon="6.52241">
        <ele>673.1</ele>
        <time>2013-12-08T12:40:56Z</time>
      </trkpt>
      <trkpt lat="43.61447" lon="6.52252">
        <ele>671.8</ele>
        <time>2013-12-08T12:41:09Z</time>
      </trkpt>
      <trkpt lat="43.6145" lon="6.52262">
        <ele>670.8</ele>
        <time>2013-12-08T12:41:16Z</time>
      </trkpt>
      <trkpt lat="43.61449" lon="6.52269">
        <ele>669.7</ele>
        <time>2013-12-08T12:41:23Z</time>
      </trkpt>
      <trkpt lat="43.61455" lon="6.52281">
        <ele>667.3</ele>
        <time>2013-12-08T12:41:37Z</time>
      </trkpt>
      <trkpt lat="43.61461" lon="6.5231">
        <ele>664</ele>
        <time>2013-12-08T12:42:02Z</time>
      </trkpt>
      <trkpt lat="43.61463" lon="6.52312">
        <ele>663.4</ele>
        <time>2013-12-08T12:42:05Z</time>
      </trkpt>
      <trkpt lat="43.61469" lon="6.52322">
        <ele>661.5</ele>
        <time>2013-12-08T12:42:21Z</time>
      </trkpt>
      <trkpt lat="43.61472" lon="6.52323">
        <ele>661.5</ele>
        <time>2013-12-08T12:42:25Z</time>
      </trkpt>
      <trkpt lat="43.61482" lon="6.52333">
        <ele>659.6</ele>
        <time>2013-12-08T12:42:38Z</time>
      </trkpt>
      <trkpt lat="43.61497" lon="6.52352">
        <ele>658.4</ele>
        <time>2013-12-08T12:42:56Z</time>
      </trkpt>
      <trkpt lat="43.615" lon="6.5236">
        <ele>657.4</ele>
        <time>2013-12-08T12:43:07Z</time>
      </trkpt>
      <trkpt lat="43.61507" lon="6.52368">
        <ele>656.4</ele>
        <time>2013-12-08T12:43:19Z</time>
      </trkpt>
      <trkpt lat="43.61508" lon="6.52372">
        <ele>656.3</ele>
        <time>2013-12-08T12:43:22Z</time>
      </trkpt>
      <trkpt lat="43.6151" lon="6.52379">
        <ele>656</ele>
        <time>2013-12-08T12:43:32Z</time>
      </trkpt>
      <trkpt lat="43.61521" lon="6.52391">
        <ele>654.7</ele>
        <time>2013-12-08T12:43:51Z</time>
      </trkpt>
      <trkpt lat="43.61529" lon="6.52386">
        <ele>654.7</ele>
        <time>2013-12-08T12:44:04Z</time>
      </trkpt>
      <trkpt lat="43.61539" lon="6.52369">
        <ele>654.9</ele>
        <time>2013-12-08T12:44:15Z</time>
      </trkpt>
      <trkpt lat="43.61544" lon="6.52364">
        <ele>654.6</ele>
        <time>2013-12-08T12:44:23Z</time>
      </trkpt>
      <trkpt lat="43.61551" lon="6.52352">
        <ele>654.1</ele>
        <time>2013-12-08T12:44:33Z</time>
      </trkpt>
      <trkpt lat="43.61562" lon="6.52338">
        <ele>652.8</ele>
        <time>2013-12-08T12:44:46Z</time>
      </trkpt>
      <trkpt lat="43.61574" lon="6.5233">
        <ele>650.7</ele>
        <time>2013-12-08T12:44:58Z</time>
      </trkpt>
      <trkpt lat="43.61581" lon="6.52329">
        <ele>650</ele>
        <time>2013-12-08T12:45:04Z</time>
      </trkpt>
      <trkpt lat="43.61588" lon="6.52332">
        <ele>648.9</ele>
        <time>2013-12-08T12:45:10Z</time>
      </trkpt>
      <trkpt lat="43.61596" lon="6.52333">
        <ele>646.9</ele>
        <time>2013-12-08T12:45:22Z</time>
      </trkpt>
      <trkpt lat="43.6161" lon="6.52326">
        <ele>645.9</ele>
        <time>2013-12-08T12:45:32Z</time>
      </trkpt>
      <trkpt lat="43.61616" lon="6.52314">
        <ele>644.6</ele>
        <time>2013-12-08T12:45:44Z</time>
      </trkpt>
      <trkpt lat="43.61619" lon="6.52312">
        <ele>643.7</ele>
        <time>2013-12-08T12:45:49Z</time>
      </trkpt>
      <trkpt lat="43.61627" lon="6.52301">
        <ele>642.4</ele>
        <time>2013-12-08T12:46:00Z</time>
      </trkpt>
      <trkpt lat="43.61633" lon="6.52298">
        <ele>641.7</ele>
        <time>2013-12-08T12:46:08Z</time>
      </trkpt>
      <trkpt lat="43.61637" lon="6.52294">
        <ele>641.3</ele>
        <time>2013-12-08T12:46:14Z</time>
      </trkpt>
      <trkpt lat="43.6164" lon="6.52286">
        <ele>641</ele>
        <time>2013-12-08T12:46:18Z</time>
      </trkpt>
      <trkpt lat="43.61642" lon="6.52275">
        <ele>640.4</ele>
        <time>2013-12-08T12:46:25Z</time>
      </trkpt>
      <trkpt lat="43.61647" lon="6.52274">
        <ele>639.6</ele>
        <time>2013-12-08T12:46:32Z</time>
      </trkpt>
      <trkpt lat="43.61652" lon="6.5227">
        <ele>638.5</ele>
        <time>2013-12-08T12:46:39Z</time>
      </trkpt>
      <trkpt lat="43.61652" lon="6.52261">
        <ele>638.2</ele>
        <time>2013-12-08T12:46:43Z</time>
      </trkpt>
      <trkpt lat="43.61654" lon="6.52254">
        <ele>637.8</ele>
        <time>2013-12-08T12:46:47Z</time>
      </trkpt>
      <trkpt lat="43.61671" lon="6.52246">
        <ele>636.1</ele>
        <time>2013-12-08T12:47:02Z</time>
      </trkpt>
      <trkpt lat="43.61693" lon="6.52241">
        <ele>634.6</ele>
        <time>2013-12-08T12:47:22Z</time>
      </trkpt>
      <trkpt lat="43.617" lon="6.52235">
        <ele>634.1</ele>
        <time>2013-12-08T12:47:31Z</time>
      </trkpt>
      <trkpt lat="43.6171" lon="6.52233">
        <ele>634</ele>
        <time>2013-12-08T12:47:45Z</time>
      </trkpt>
      <trkpt lat="43.6172" lon="6.52223">
        <ele>632.4</ele>
        <time>2013-12-08T12:48:02Z</time>
      </trkpt>
      <trkpt lat="43.61722" lon="6.52208">
        <ele>632.3</ele>
        <time>2013-12-08T12:48:15Z</time>
      </trkpt>
      <trkpt lat="43.61727" lon="6.52183">
        <ele>631.1</ele>
        <time>2013-12-08T12:48:36Z</time>
      </trkpt>
      <trkpt lat="43.61723" lon="6.52174">
        <ele>630.9</ele>
        <time>2013-12-08T12:48:45Z</time>
      </trkpt>
      <trkpt lat="43.61724" lon="6.52164">
        <ele>630</ele>
        <time>2013-12-08T12:48:51Z</time>
      </trkpt>
      <trkpt lat="43.61732" lon="6.5214">
        <ele>628.5</ele>
        <time>2013-12-08T12:49:10Z</time>
      </trkpt>
      <trkpt lat="43.61735" lon="6.52123">
        <ele>627.3</ele>
        <time>2013-12-08T12:49:20Z</time>
      </trkpt>
      <trkpt lat="43.61735" lon="6.52112">
        <ele>626.8</ele>
        <time>2013-12-08T12:49:27Z</time>
      </trkpt>
      <trkpt lat="43.61738" lon="6.52104">
        <ele>626.5</ele>
        <time>2013-12-08T12:49:32Z</time>
      </trkpt>
      <trkpt lat="43.61737" lon="6.52088">
        <ele>625.4</ele>
        <time>2013-12-08T12:49:43Z</time>
      </trkpt>
      <trkpt lat="43.61735" lon="6.52073">
        <ele>624.9</ele>
        <time>2013-12-08T12:49:54Z</time>
      </trkpt>
      <trkpt lat="43.61734" lon="6.52046">
        <ele>623.5</ele>
        <time>2013-12-08T12:50:12Z</time>
      </trkpt>
      <trkpt lat="43.61731" lon="6.52036">
        <ele>623.1</ele>
        <time>2013-12-08T12:50:20Z</time>
      </trkpt>
      <trkpt lat="43.61723" lon="6.52027">
        <ele>622.6</ele>
        <time>2013-12-08T12:50:29Z</time>
      </trkpt>
      <trkpt lat="43.61718" lon="6.52011">
        <ele>622.1</ele>
        <time>2013-12-08T12:50:39Z</time>
      </trkpt>
      <trkpt lat="43.61712" lon="6.51996">
        <ele>621.7</ele>
        <time>2013-12-08T12:50:52Z</time>
      </trkpt>
      <trkpt lat="43.61711" lon="6.51971">
        <ele>620.5</ele>
        <time>2013-12-08T12:51:12Z</time>
      </trkpt>
      <trkpt lat="43.61714" lon="6.51966">
        <ele>620.1</ele>
        <time>2013-12-08T12:51:31Z</time>
      </trkpt>
      <trkpt lat="43.61713" lon="6.51961">
        <ele>619.4</ele>
        <time>2013-12-08T12:51:39Z</time>
      </trkpt>
      <trkpt lat="43.61714" lon="6.51957">
        <ele>619.1</ele>
        <time>2013-12-08T12:52:10Z</time>
      </trkpt>
      <trkpt lat="43.61712" lon="6.51947">
        <ele>618.7</ele>
        <time>2013-12-08T12:52:40Z</time>
      </trkpt>
      <trkpt lat="43.61713" lon="6.51933">
        <ele>618.2</ele>
        <time>2013-12-08T12:52:51Z</time>
      </trkpt>
      <trkpt lat="43.61714" lon="6.51921">
        <ele>617.9</ele>
        <time>2013-12-08T12:53:00Z</time>
      </trkpt>
      <trkpt lat="43.61719" lon="6.51906">
        <ele>617.3</ele>
        <time>2013-12-08T12:53:09Z</time>
      </trkpt>
      <trkpt lat="43.61718" lon="6.51902">
        <ele>617.3</ele>
        <time>2013-12-08T12:53:15Z</time>
      </trkpt>
      <trkpt lat="43.61725" lon="6.51886">
        <ele>616.8</ele>
        <time>2013-12-08T12:53:28Z</time>
      </trkpt>
      <trkpt lat="43.61726" lon="6.51881">
        <ele>616.4</ele>
        <time>2013-12-08T12:53:32Z</time>
      </trkpt>
      <trkpt lat="43.61729" lon="6.51866">
        <ele>616.2</ele>
        <time>2013-12-08T12:53:43Z</time>
      </trkpt>
      <trkpt lat="43.61733" lon="6.51859">
        <ele>615.8</ele>
        <time>2013-12-08T12:53:49Z</time>
      </trkpt>
      <trkpt lat="43.61733" lon="6.51851">
        <ele>615.8</ele>
        <time>2013-12-08T12:53:56Z</time>
      </trkpt>
      <trkpt lat="43.61739" lon="6.51832">
        <ele>615.6</ele>
        <time>2013-12-08T12:54:11Z</time>
      </trkpt>
      <trkpt lat="43.61739" lon="6.51826">
        <ele>615.3</ele>
        <time>2013-12-08T12:54:16Z</time>
      </trkpt>
      <trkpt lat="43.61735" lon="6.51818">
        <ele>615.5</ele>
        <time>2013-12-08T12:54:22Z</time>
      </trkpt>
      <trkpt lat="43.61736" lon="6.51808">
        <ele>614.9</ele>
        <time>2013-12-08T12:54:30Z</time>
      </trkpt>
      <trkpt lat="43.61733" lon="6.51798">
        <ele>614.4</ele>
        <time>2013-12-08T12:54:38Z</time>
      </trkpt>
      <trkpt lat="43.61734" lon="6.51787">
        <ele>613.7</ele>
        <time>2013-12-08T12:54:44Z</time>
      </trkpt>
      <trkpt lat="43.61739" lon="6.51781">
        <ele>613</ele>
        <time>2013-12-08T12:54:48Z</time>
      </trkpt>
      <trkpt lat="43.61737" lon="6.51771">
        <ele>612.8</ele>
        <time>2013-12-08T12:54:56Z</time>
      </trkpt>
      <trkpt lat="43.61739" lon="6.51755">
        <ele>612.5</ele>
        <time>2013-12-08T12:55:06Z</time>
      </trkpt>
      <trkpt lat="43.61743" lon="6.51744">
        <ele>612.5</ele>
        <time>2013-12-08T12:55:14Z</time>
      </trkpt>
      <trkpt lat="43.61747" lon="6.51732">
        <ele>610.5</ele>
        <time>2013-12-08T12:55:24Z</time>
      </trkpt>
      <trkpt lat="43.61747" lon="6.51723">
        <ele>610</ele>
        <time>2013-12-08T12:55:34Z</time>
      </trkpt>
      <trkpt lat="43.6175" lon="6.51717">
        <ele>609.7</ele>
        <time>2013-12-08T12:55:38Z</time>
      </trkpt>
      <trkpt lat="43.61757" lon="6.51712">
        <ele>609.3</ele>
        <time>2013-12-08T12:55:45Z</time>
      </trkpt>
      <trkpt lat="43.61766" lon="6.51708">
        <ele>610</ele>
        <time>2013-12-08T12:55:55Z</time>
      </trkpt>
      <trkpt lat="43.61774" lon="6.51701">
        <ele>610.2</ele>
        <time>2013-12-08T12:56:04Z</time>
      </trkpt>
      <trkpt lat="43.61775" lon="6.51696">
        <ele>610.3</ele>
        <time>2013-12-08T12:56:09Z</time>
      </trkpt>
      <trkpt lat="43.61773" lon="6.51683">
        <ele>609.7</ele>
        <time>2013-12-08T12:56:18Z</time>
      </trkpt>
      <trkpt lat="43.61775" lon="6.51672">
        <ele>608.8</ele>
        <time>2013-12-08T12:56:31Z</time>
      </trkpt>
      <trkpt lat="43.61779" lon="6.51679">
        <ele>609.1</ele>
        <time>2013-12-08T12:56:52Z</time>
      </trkpt>
      <trkpt lat="43.61775" lon="6.51671">
        <ele>608.5</ele>
        <time>2013-12-08T12:56:57Z</time>
      </trkpt>
      <trkpt lat="43.61774" lon="6.51662">
        <ele>608.5</ele>
        <time>2013-12-08T12:57:02Z</time>
      </trkpt>
      <trkpt lat="43.6177" lon="6.51652">
        <ele>608.4</ele>
        <time>2013-12-08T12:57:09Z</time>
      </trkpt>
      <trkpt lat="43.61769" lon="6.51641">
        <ele>607.8</ele>
        <time>2013-12-08T12:57:16Z</time>
      </trkpt>
      <trkpt lat="43.61767" lon="6.51634">
        <ele>607.8</ele>
        <time>2013-12-08T12:57:22Z</time>
      </trkpt>
      <trkpt lat="43.61768" lon="6.51618">
        <ele>606.9</ele>
        <time>2013-12-08T12:57:32Z</time>
      </trkpt>
      <trkpt lat="43.61765" lon="6.51604">
        <ele>606.6</ele>
        <time>2013-12-08T12:57:44Z</time>
      </trkpt>
      <trkpt lat="43.6177" lon="6.51578">
        <ele>606.3</ele>
        <time>2013-12-08T12:58:06Z</time>
      </trkpt>
      <trkpt lat="43.61769" lon="6.5157">
        <ele>606</ele>
        <time>2013-12-08T12:58:14Z</time>
      </trkpt>
      <trkpt lat="43.61774" lon="6.5156">
        <ele>605.7</ele>
        <time>2013-12-08T12:58:22Z</time>
      </trkpt>
      <trkpt lat="43.61776" lon="6.51547">
        <ele>605.5</ele>
        <time>2013-12-08T12:58:30Z</time>
      </trkpt>
      <trkpt lat="43.61775" lon="6.51542">
        <ele>605.3</ele>
        <time>2013-12-08T12:58:35Z</time>
      </trkpt>
      <trkpt lat="43.61775" lon="6.51539">
        <ele>604.9</ele>
        <time>2013-12-08T12:58:44Z</time>
      </trkpt>
      <trkpt lat="43.61776" lon="6.5153">
        <ele>604.5</ele>
        <time>2013-12-08T12:58:50Z</time>
      </trkpt>
      <trkpt lat="43.6177" lon="6.51522">
        <ele>603.8</ele>
        <time>2013-12-08T12:58:57Z</time>
      </trkpt>
      <trkpt lat="43.61769" lon="6.51499">
        <ele>603.3</ele>
        <time>2013-12-08T12:59:15Z</time>
      </trkpt>
      <trkpt lat="43.61769" lon="6.51488">
        <ele>603</ele>
        <time>2013-12-08T12:59:22Z</time>
      </trkpt>
      <trkpt lat="43.61763" lon="6.5148">
        <ele>602.4</ele>
        <time>2013-12-08T12:59:34Z</time>
      </trkpt>
      <trkpt lat="43.61759" lon="6.51464">
        <ele>601.9</ele>
        <time>2013-12-08T12:59:42Z</time>
      </trkpt>
      <trkpt lat="43.61761" lon="6.51458">
        <ele>601.4</ele>
        <time>2013-12-08T12:59:52Z</time>
      </trkpt>
      <trkpt lat="43.61752" lon="6.51439">
        <ele>601.5</ele>
        <time>2013-12-08T13:00:06Z</time>
      </trkpt>
      <trkpt lat="43.61751" lon="6.51431">
        <ele>601.3</ele>
        <time>2013-12-08T13:00:12Z</time>
      </trkpt>
      <trkpt lat="43.61745" lon="6.51417">
        <ele>601.3</ele>
        <time>2013-12-08T13:00:22Z</time>
      </trkpt>
      <trkpt lat="43.61746" lon="6.51414">
        <ele>601.3</ele>
        <time>2013-12-08T13:00:24Z</time>
      </trkpt>
      <trkpt lat="43.61743" lon="6.51397">
        <ele>601.8</ele>
        <time>2013-12-08T13:00:36Z</time>
      </trkpt>
      <trkpt lat="43.61739" lon="6.51388">
        <ele>602.2</ele>
        <time>2013-12-08T13:00:42Z</time>
      </trkpt>
      <trkpt lat="43.6174" lon="6.51378">
        <ele>602.9</ele>
        <time>2013-12-08T13:00:49Z</time>
      </trkpt>
      <trkpt lat="43.61738" lon="6.51365">
        <ele>602.4</ele>
        <time>2013-12-08T13:00:59Z</time>
      </trkpt>
      <trkpt lat="43.61735" lon="6.51361">
        <ele>602.5</ele>
        <time>2013-12-08T13:01:01Z</time>
      </trkpt>
      <trkpt lat="43.61734" lon="6.5135">
        <ele>602</ele>
        <time>2013-12-08T13:01:08Z</time>
      </trkpt>
      <trkpt lat="43.61736" lon="6.51347">
        <ele>602</ele>
        <time>2013-12-08T13:01:10Z</time>
      </trkpt>
      <trkpt lat="43.6174" lon="6.51335">
        <ele>601.2</ele>
        <time>2013-12-08T13:01:16Z</time>
      </trkpt>
      <trkpt lat="43.61739" lon="6.51326">
        <ele>601</ele>
        <time>2013-12-08T13:01:21Z</time>
      </trkpt>
      <trkpt lat="43.61744" lon="6.51318">
        <ele>601.4</ele>
        <time>2013-12-08T13:01:30Z</time>
      </trkpt>
      <trkpt lat="43.61742" lon="6.5131">
        <ele>601.4</ele>
        <time>2013-12-08T13:01:33Z</time>
      </trkpt>
      <trkpt lat="43.61742" lon="6.51302">
        <ele>601.4</ele>
        <time>2013-12-08T13:01:41Z</time>
      </trkpt>
      <trkpt lat="43.61749" lon="6.51295">
        <ele>600.7</ele>
        <time>2013-12-08T13:01:49Z</time>
      </trkpt>
      <trkpt lat="43.61756" lon="6.51287">
        <ele>600.2</ele>
        <time>2013-12-08T13:01:58Z</time>
      </trkpt>
      <trkpt lat="43.61755" lon="6.51281">
        <ele>600</ele>
        <time>2013-12-08T13:02:02Z</time>
      </trkpt>
      <trkpt lat="43.6176" lon="6.5127">
        <ele>599.2</ele>
        <time>2013-12-08T13:02:15Z</time>
      </trkpt>
      <trkpt lat="43.61766" lon="6.51263">
        <ele>598.5</ele>
        <time>2013-12-08T13:02:22Z</time>
      </trkpt>
      <trkpt lat="43.61772" lon="6.51262">
        <ele>598.4</ele>
        <time>2013-12-08T13:02:28Z</time>
      </trkpt>
      <trkpt lat="43.61775" lon="6.5125">
        <ele>597.7</ele>
        <time>2013-12-08T13:02:37Z</time>
      </trkpt>
      <trkpt lat="43.61774" lon="6.51237">
        <ele>596.9</ele>
        <time>2013-12-08T13:02:46Z</time>
      </trkpt>
      <trkpt lat="43.61768" lon="6.51217">
        <ele>595</ele>
        <time>2013-12-08T13:02:57Z</time>
      </trkpt>
      <trkpt lat="43.61766" lon="6.51196">
        <ele>592.5</ele>
        <time>2013-12-08T13:03:14Z</time>
      </trkpt>
      <trkpt lat="43.61776" lon="6.51173">
        <ele>591.8</ele>
        <time>2013-12-08T13:03:29Z</time>
      </trkpt>
      <trkpt lat="43.61777" lon="6.51165">
        <ele>591.9</ele>
        <time>2013-12-08T13:03:33Z</time>
      </trkpt>
      <trkpt lat="43.61782" lon="6.51158">
        <ele>591.7</ele>
        <time>2013-12-08T13:03:39Z</time>
      </trkpt>
      <trkpt lat="43.61785" lon="6.51149">
        <ele>591.1</ele>
        <time>2013-12-08T13:03:48Z</time>
      </trkpt>
      <trkpt lat="43.61785" lon="6.51142">
        <ele>590.9</ele>
        <time>2013-12-08T13:03:51Z</time>
      </trkpt>
      <trkpt lat="43.61788" lon="6.51132">
        <ele>591.1</ele>
        <time>2013-12-08T13:03:57Z</time>
      </trkpt>
      <trkpt lat="43.6179" lon="6.51116">
        <ele>591.1</ele>
        <time>2013-12-08T13:04:16Z</time>
      </trkpt>
      <trkpt lat="43.61788" lon="6.51106">
        <ele>591</ele>
        <time>2013-12-08T13:04:22Z</time>
      </trkpt>
      <trkpt lat="43.6179" lon="6.51098">
        <ele>590.7</ele>
        <time>2013-12-08T13:04:28Z</time>
      </trkpt>
      <trkpt lat="43.6179" lon="6.51087">
        <ele>590.3</ele>
        <time>2013-12-08T13:04:36Z</time>
      </trkpt>
      <trkpt lat="43.61793" lon="6.51074">
        <ele>590.3</ele>
        <time>2013-12-08T13:04:46Z</time>
      </trkpt>
      <trkpt lat="43.61794" lon="6.51064">
        <ele>590.9</ele>
        <time>2013-12-08T13:04:52Z</time>
      </trkpt>
      <trkpt lat="43.61801" lon="6.51059">
        <ele>590.5</ele>
        <time>2013-12-08T13:05:02Z</time>
      </trkpt>
      <trkpt lat="43.61804" lon="6.51045">
        <ele>591.2</ele>
        <time>2013-12-08T13:05:13Z</time>
      </trkpt>
      <trkpt lat="43.61813" lon="6.51039">
        <ele>591.8</ele>
        <time>2013-12-08T13:05:33Z</time>
      </trkpt>
      <trkpt lat="43.61807" lon="6.51031">
        <ele>590.9</ele>
        <time>2013-12-08T13:05:47Z</time>
      </trkpt>
      <trkpt lat="43.61801" lon="6.51027">
        <ele>590.2</ele>
        <time>2013-12-08T13:06:01Z</time>
      </trkpt>
      <trkpt lat="43.618" lon="6.51023">
        <ele>589.8</ele>
        <time>2013-12-08T13:06:35Z</time>
      </trkpt>
      <trkpt lat="43.61802" lon="6.51024">
        <ele>589.8</ele>
        <time>2013-12-08T13:07:05Z</time>
      </trkpt>
      <trkpt lat="43.618" lon="6.5102">
        <ele>589.8</ele>
        <time>2013-12-08T13:07:29Z</time>
      </trkpt>
      <trkpt lat="43.618" lon="6.51023">
        <ele>589.9</ele>
        <time>2013-12-08T13:08:00Z</time>
      </trkpt>
      <trkpt lat="43.61802" lon="6.51024">
        <ele>590.3</ele>
        <time>2013-12-08T13:08:26Z</time>
      </trkpt>
      <trkpt lat="43.61803" lon="6.51026">
        <ele>589.9</ele>
        <time>2013-12-08T13:08:51Z</time>
      </trkpt>
      <trkpt lat="43.61802" lon="6.51027">
        <ele>589.9</ele>
        <time>2013-12-08T13:09:12Z</time>
      </trkpt>
      <trkpt lat="43.618" lon="6.5102">
        <ele>589.5</ele>
        <time>2013-12-08T13:09:24Z</time>
      </trkpt>
      <trkpt lat="43.61797" lon="6.51015">
        <ele>589.4</ele>
        <time>2013-12-08T13:09:33Z</time>
      </trkpt>
      <trkpt lat="43.61797" lon="6.50998">
        <ele>589</ele>
        <time>2013-12-08T13:09:46Z</time>
      </trkpt>
      <trkpt lat="43.61795" lon="6.50983">
        <ele>588.9</ele>
        <time>2013-12-08T13:10:00Z</time>
      </trkpt>
      <trkpt lat="43.61791" lon="6.50972">
        <ele>587.4</ele>
        <time>2013-12-08T13:10:19Z</time>
      </trkpt>
      <trkpt lat="43.61784" lon="6.50967">
        <ele>587.1</ele>
        <time>2013-12-08T13:10:30Z</time>
      </trkpt>
      <trkpt lat="43.61781" lon="6.50957">
        <ele>587</ele>
        <time>2013-12-08T13:10:50Z</time>
      </trkpt>
      <trkpt lat="43.61781" lon="6.50959">
        <ele>586.6</ele>
        <time>2013-12-08T13:11:15Z</time>
      </trkpt>
      <trkpt lat="43.61781" lon="6.50954">
        <ele>586.8</ele>
        <time>2013-12-08T13:11:20Z</time>
      </trkpt>
      <trkpt lat="43.61788" lon="6.50965">
        <ele>587.1</ele>
        <time>2013-12-08T13:11:37Z</time>
      </trkpt>
      <trkpt lat="43.61795" lon="6.50969">
        <ele>587.2</ele>
        <time>2013-12-08T13:11:44Z</time>
      </trkpt>
      <trkpt lat="43.61804" lon="6.50977">
        <ele>588.3</ele>
        <time>2013-12-08T13:11:57Z</time>
      </trkpt>
      <trkpt lat="43.61808" lon="6.50976">
        <ele>588.5</ele>
        <time>2013-12-08T13:12:00Z</time>
      </trkpt>
      <trkpt lat="43.61815" lon="6.50983">
        <ele>588.9</ele>
        <time>2013-12-08T13:12:09Z</time>
      </trkpt>
      <trkpt lat="43.61833" lon="6.50992">
        <ele>592.1</ele>
        <time>2013-12-08T13:12:38Z</time>
      </trkpt>
      <trkpt lat="43.61843" lon="6.51">
        <ele>593.4</ele>
        <time>2013-12-08T13:12:49Z</time>
      </trkpt>
      <trkpt lat="43.61848" lon="6.51003">
        <ele>593.6</ele>
        <time>2013-12-08T13:12:54Z</time>
      </trkpt>
      <trkpt lat="43.61854" lon="6.51">
        <ele>593.9</ele>
        <time>2013-12-08T13:13:01Z</time>
      </trkpt>
      <trkpt lat="43.6186" lon="6.5101">
        <ele>594.7</ele>
        <time>2013-12-08T13:13:09Z</time>
      </trkpt>
      <trkpt lat="43.61863" lon="6.5101">
        <ele>595.3</ele>
        <time>2013-12-08T13:13:15Z</time>
      </trkpt>
      <trkpt lat="43.61873" lon="6.51019">
        <ele>598</ele>
        <time>2013-12-08T13:13:32Z</time>
      </trkpt>
      <trkpt lat="43.61882" lon="6.51044">
        <ele>601.9</ele>
        <time>2013-12-08T13:13:57Z</time>
      </trkpt>
      <trkpt lat="43.61884" lon="6.51057">
        <ele>602.4</ele>
        <time>2013-12-08T13:14:07Z</time>
      </trkpt>
      <trkpt lat="43.61884" lon="6.51061">
        <ele>603.4</ele>
        <time>2013-12-08T13:14:13Z</time>
      </trkpt>
      <trkpt lat="43.61888" lon="6.51076">
        <ele>604.6</ele>
        <time>2013-12-08T13:14:27Z</time>
      </trkpt>
      <trkpt lat="43.61888" lon="6.51088">
        <ele>604.8</ele>
        <time>2013-12-08T13:14:36Z</time>
      </trkpt>
      <trkpt lat="43.6189" lon="6.51097">
        <ele>605.1</ele>
        <time>2013-12-08T13:14:43Z</time>
      </trkpt>
      <trkpt lat="43.61892" lon="6.51114">
        <ele>605.4</ele>
        <time>2013-12-08T13:14:55Z</time>
      </trkpt>
      <trkpt lat="43.61896" lon="6.51125">
        <ele>605.7</ele>
        <time>2013-12-08T13:15:03Z</time>
      </trkpt>
      <trkpt lat="43.61897" lon="6.51153">
        <ele>606</ele>
        <time>2013-12-08T13:15:22Z</time>
      </trkpt>
      <trkpt lat="43.61901" lon="6.51168">
        <ele>607.3</ele>
        <time>2013-12-08T13:15:34Z</time>
      </trkpt>
      <trkpt lat="43.61904" lon="6.5117">
        <ele>607.2</ele>
        <time>2013-12-08T13:15:48Z</time>
      </trkpt>
      <trkpt lat="43.61905" lon="6.51178">
        <ele>607.8</ele>
        <time>2013-12-08T13:15:59Z</time>
      </trkpt>
      <trkpt lat="43.61911" lon="6.51194">
        <ele>611.4</ele>
        <time>2013-12-08T13:16:31Z</time>
      </trkpt>
      <trkpt lat="43.61915" lon="6.51198">
        <ele>612.8</ele>
        <time>2013-12-08T13:16:39Z</time>
      </trkpt>
      <trkpt lat="43.6192" lon="6.5121">
        <ele>615</ele>
        <time>2013-12-08T13:16:55Z</time>
      </trkpt>
      <trkpt lat="43.61922" lon="6.5122">
        <ele>616.8</ele>
        <time>2013-12-08T13:17:08Z</time>
      </trkpt>
      <trkpt lat="43.61927" lon="6.51226">
        <ele>617.1</ele>
        <time>2013-12-08T13:17:15Z</time>
      </trkpt>
      <trkpt lat="43.61933" lon="6.51244">
        <ele>618.7</ele>
        <time>2013-12-08T13:17:28Z</time>
      </trkpt>
      <trkpt lat="43.61938" lon="6.51252">
        <ele>619.3</ele>
        <time>2013-12-08T13:17:35Z</time>
      </trkpt>
      <trkpt lat="43.61941" lon="6.51262">
        <ele>620.2</ele>
        <time>2013-12-08T13:17:47Z</time>
      </trkpt>
      <trkpt lat="43.61949" lon="6.51277">
        <ele>620.8</ele>
        <time>2013-12-08T13:18:01Z</time>
      </trkpt>
      <trkpt lat="43.6195" lon="6.51282">
        <ele>621.4</ele>
        <time>2013-12-08T13:18:07Z</time>
      </trkpt>
      <trkpt lat="43.61956" lon="6.51295">
        <ele>622.6</ele>
        <time>2013-12-08T13:18:21Z</time>
      </trkpt>
      <trkpt lat="43.61961" lon="6.51301">
        <ele>623.2</ele>
        <time>2013-12-08T13:18:30Z</time>
      </trkpt>
      <trkpt lat="43.61967" lon="6.51314">
        <ele>624.3</ele>
        <time>2013-12-08T13:18:41Z</time>
      </trkpt>
      <trkpt lat="43.61975" lon="6.51333">
        <ele>626.4</ele>
        <time>2013-12-08T13:19:09Z</time>
      </trkpt>
      <trkpt lat="43.61984" lon="6.51351">
        <ele>628.4</ele>
        <time>2013-12-08T13:19:26Z</time>
      </trkpt>
      <trkpt lat="43.61991" lon="6.51361">
        <ele>628.9</ele>
        <time>2013-12-08T13:19:37Z</time>
      </trkpt>
      <trkpt lat="43.61994" lon="6.5137">
        <ele>629.1</ele>
        <time>2013-12-08T13:19:45Z</time>
      </trkpt>
      <trkpt lat="43.62001" lon="6.51376">
        <ele>630</ele>
        <time>2013-12-08T13:19:55Z</time>
      </trkpt>
      <trkpt lat="43.62009" lon="6.5139">
        <ele>630.4</ele>
        <time>2013-12-08T13:20:12Z</time>
      </trkpt>
      <trkpt lat="43.62014" lon="6.51403">
        <ele>632.4</ele>
        <time>2013-12-08T13:20:35Z</time>
      </trkpt>
      <trkpt lat="43.6202" lon="6.51408">
        <ele>633.3</ele>
        <time>2013-12-08T13:20:42Z</time>
      </trkpt>
      <trkpt lat="43.62022" lon="6.51417">
        <ele>633.9</ele>
        <time>2013-12-08T13:20:53Z</time>
      </trkpt>
      <trkpt lat="43.6203" lon="6.5143">
        <ele>636.3</ele>
        <time>2013-12-08T13:21:08Z</time>
      </trkpt>
      <trkpt lat="43.62039" lon="6.51443">
        <ele>638.8</ele>
        <time>2013-12-08T13:21:32Z</time>
      </trkpt>
      <trkpt lat="43.62044" lon="6.5145">
        <ele>640.6</ele>
        <time>2013-12-08T13:21:44Z</time>
      </trkpt>
      <trkpt lat="43.62049" lon="6.51455">
        <ele>643.4</ele>
        <time>2013-12-08T13:22:03Z</time>
      </trkpt>
      <trkpt lat="43.62054" lon="6.51463">
        <ele>645.7</ele>
        <time>2013-12-08T13:22:21Z</time>
      </trkpt>
      <trkpt lat="43.62059" lon="6.51469">
        <ele>647.1</ele>
        <time>2013-12-08T13:22:34Z</time>
      </trkpt>
      <trkpt lat="43.62061" lon="6.51474">
        <ele>650.1</ele>
        <time>2013-12-08T13:22:51Z</time>
      </trkpt>
      <trkpt lat="43.62067" lon="6.51477">
        <ele>651.2</ele>
        <time>2013-12-08T13:22:58Z</time>
      </trkpt>
      <trkpt lat="43.62071" lon="6.51484">
        <ele>652.9</ele>
        <time>2013-12-08T13:23:11Z</time>
      </trkpt>
      <trkpt lat="43.62087" lon="6.51504">
        <ele>657.9</ele>
        <time>2013-12-08T13:23:47Z</time>
      </trkpt>
      <trkpt lat="43.621" lon="6.51522">
        <ele>660.9</ele>
        <time>2013-12-08T13:24:13Z</time>
      </trkpt>
      <trkpt lat="43.62111" lon="6.51526">
        <ele>661.3</ele>
        <time>2013-12-08T13:25:04Z</time>
      </trkpt>
      <trkpt lat="43.62107" lon="6.51522">
        <ele>661.3</ele>
        <time>2013-12-08T13:25:27Z</time>
      </trkpt>
      <trkpt lat="43.62108" lon="6.51522">
        <ele>661.6</ele>
        <time>2013-12-08T13:26:04Z</time>
      </trkpt>
      <trkpt lat="43.62109" lon="6.5152">
        <ele>661.4</ele>
        <time>2013-12-08T13:26:26Z</time>
      </trkpt>
      <trkpt lat="43.62111" lon="6.51521">
        <ele>661.9</ele>
        <time>2013-12-08T13:26:51Z</time>
      </trkpt>
      <trkpt lat="43.62113" lon="6.51524">
        <ele>662.2</ele>
        <time>2013-12-08T13:26:54Z</time>
      </trkpt>
      <trkpt lat="43.62117" lon="6.51528">
        <ele>663</ele>
        <time>2013-12-08T13:27:05Z</time>
      </trkpt>
      <trkpt lat="43.62122" lon="6.5154">
        <ele>664</ele>
        <time>2013-12-08T13:27:17Z</time>
      </trkpt>
      <trkpt lat="43.62124" lon="6.51552">
        <ele>664.5</ele>
        <time>2013-12-08T13:27:29Z</time>
      </trkpt>
      <trkpt lat="43.62127" lon="6.51559">
        <ele>665.5</ele>
        <time>2013-12-08T13:27:36Z</time>
      </trkpt>
      <trkpt lat="43.62128" lon="6.5157">
        <ele>666</ele>
        <time>2013-12-08T13:27:47Z</time>
      </trkpt>
      <trkpt lat="43.6213" lon="6.51577">
        <ele>665.9</ele>
        <time>2013-12-08T13:27:54Z</time>
      </trkpt>
      <trkpt lat="43.62132" lon="6.51586">
        <ele>665.3</ele>
        <time>2013-12-08T13:28:01Z</time>
      </trkpt>
      <trkpt lat="43.62139" lon="6.51592">
        <ele>664.6</ele>
        <time>2013-12-08T13:28:09Z</time>
      </trkpt>
      <trkpt lat="43.62149" lon="6.51606">
        <ele>664.3</ele>
        <time>2013-12-08T13:28:52Z</time>
      </trkpt>
      <trkpt lat="43.62143" lon="6.51597">
        <ele>663.8</ele>
        <time>2013-12-08T13:29:23Z</time>
      </trkpt>
      <trkpt lat="43.62143" lon="6.51596">
        <ele>664</ele>
        <time>2013-12-08T13:29:48Z</time>
      </trkpt>
      <trkpt lat="43.62144" lon="6.51597">
        <ele>664.2</ele>
        <time>2013-12-08T13:30:08Z</time>
      </trkpt>
      <trkpt lat="43.62147" lon="6.51604">
        <ele>664.1</ele>
        <time>2013-12-08T13:30:17Z</time>
      </trkpt>
      <trkpt lat="43.62147" lon="6.51609">
        <ele>664.1</ele>
        <time>2013-12-08T13:30:54Z</time>
      </trkpt>
      <trkpt lat="43.62151" lon="6.51607">
        <ele>664.5</ele>
        <time>2013-12-08T13:31:05Z</time>
      </trkpt>
      <trkpt lat="43.62155" lon="6.51622">
        <ele>664</ele>
        <time>2013-12-08T13:31:17Z</time>
      </trkpt>
      <trkpt lat="43.62157" lon="6.51627">
        <ele>663.7</ele>
        <time>2013-12-08T13:31:23Z</time>
      </trkpt>
      <trkpt lat="43.62164" lon="6.51635">
        <ele>663.1</ele>
        <time>2013-12-08T13:31:34Z</time>
      </trkpt>
      <trkpt lat="43.6217" lon="6.51649">
        <ele>663.1</ele>
        <time>2013-12-08T13:31:46Z</time>
      </trkpt>
      <trkpt lat="43.62173" lon="6.51654">
        <ele>661.9</ele>
        <time>2013-12-08T13:31:52Z</time>
      </trkpt>
      <trkpt lat="43.62178" lon="6.5167">
        <ele>660.7</ele>
        <time>2013-12-08T13:32:03Z</time>
      </trkpt>
      <trkpt lat="43.62182" lon="6.51678">
        <ele>660.2</ele>
        <time>2013-12-08T13:32:10Z</time>
      </trkpt>
      <trkpt lat="43.62185" lon="6.517">
        <ele>659.4</ele>
        <time>2013-12-08T13:32:26Z</time>
      </trkpt>
      <trkpt lat="43.62188" lon="6.51711">
        <ele>658.8</ele>
        <time>2013-12-08T13:32:38Z</time>
      </trkpt>
      <trkpt lat="43.6219" lon="6.51727">
        <ele>657.9</ele>
        <time>2013-12-08T13:32:47Z</time>
      </trkpt>
      <trkpt lat="43.6219" lon="6.51735">
        <ele>657.1</ele>
        <time>2013-12-08T13:32:54Z</time>
      </trkpt>
      <trkpt lat="43.62194" lon="6.51754">
        <ele>654.7</ele>
        <time>2013-12-08T13:33:09Z</time>
      </trkpt>
      <trkpt lat="43.62195" lon="6.51762">
        <ele>654.1</ele>
        <time>2013-12-08T13:33:14Z</time>
      </trkpt>
      <trkpt lat="43.62193" lon="6.51789">
        <ele>650.5</ele>
        <time>2013-12-08T13:33:36Z</time>
      </trkpt>
      <trkpt lat="43.62196" lon="6.51799">
        <ele>649.5</ele>
        <time>2013-12-08T13:33:44Z</time>
      </trkpt>
      <trkpt lat="43.62205" lon="6.51827">
        <ele>646.7</ele>
        <time>2013-12-08T13:34:00Z</time>
      </trkpt>
      <trkpt lat="43.6221" lon="6.51833">
        <ele>643.6</ele>
        <time>2013-12-08T13:34:19Z</time>
      </trkpt>
      <trkpt lat="43.62217" lon="6.51834">
        <ele>642.7</ele>
        <time>2013-12-08T13:34:26Z</time>
      </trkpt>
      <trkpt lat="43.62227" lon="6.51842">
        <ele>641.3</ele>
        <time>2013-12-08T13:34:40Z</time>
      </trkpt>
      <trkpt lat="43.62233" lon="6.5184">
        <ele>640.5</ele>
        <time>2013-12-08T13:34:46Z</time>
      </trkpt>
      <trkpt lat="43.62242" lon="6.51844">
        <ele>639.8</ele>
        <time>2013-12-08T13:34:53Z</time>
      </trkpt>
      <trkpt lat="43.62256" lon="6.51848">
        <ele>639.9</ele>
        <time>2013-12-08T13:35:06Z</time>
      </trkpt>
      <trkpt lat="43.62268" lon="6.51852">
        <ele>639.1</ele>
        <time>2013-12-08T13:35:18Z</time>
      </trkpt>
      <trkpt lat="43.62267" lon="6.51852">
        <ele>638.2</ele>
        <time>2013-12-08T13:35:29Z</time>
      </trkpt>
      <trkpt lat="43.62274" lon="6.51863">
        <ele>638.1</ele>
        <time>2013-12-08T13:35:43Z</time>
      </trkpt>
      <trkpt lat="43.62276" lon="6.51865">
        <ele>638.3</ele>
        <time>2013-12-08T13:36:08Z</time>
      </trkpt>
      <trkpt lat="43.62279" lon="6.5186">
        <ele>638</ele>
        <time>2013-12-08T13:36:18Z</time>
      </trkpt>
      <trkpt lat="43.62289" lon="6.51856">
        <ele>638</ele>
        <time>2013-12-08T13:36:30Z</time>
      </trkpt>
      <trkpt lat="43.62297" lon="6.51859">
        <ele>637.6</ele>
        <time>2013-12-08T13:36:37Z</time>
      </trkpt>
      <trkpt lat="43.62307" lon="6.51861">
        <ele>637.2</ele>
        <time>2013-12-08T13:36:46Z</time>
      </trkpt>
      <trkpt lat="43.6231" lon="6.51863">
        <ele>637</ele>
        <time>2013-12-08T13:36:49Z</time>
      </trkpt>
      <trkpt lat="43.62325" lon="6.51867">
        <ele>636.9</ele>
        <time>2013-12-08T13:37:04Z</time>
      </trkpt>
      <trkpt lat="43.62347" lon="6.51875">
        <ele>636.3</ele>
        <time>2013-12-08T13:37:32Z</time>
      </trkpt>
      <trkpt lat="43.62363" lon="6.51874">
        <ele>635.4</ele>
        <time>2013-12-08T13:37:46Z</time>
      </trkpt>
      <trkpt lat="43.62364" lon="6.51874">
        <ele>635.2</ele>
        <time>2013-12-08T13:37:47Z</time>
      </trkpt>
      <trkpt lat="43.62377" lon="6.51868">
        <ele>635.2</ele>
        <time>2013-12-08T13:38:00Z</time>
      </trkpt>
      <trkpt lat="43.62387" lon="6.51888">
        <ele>635.3</ele>
        <time>2013-12-08T13:38:19Z</time>
      </trkpt>
      <trkpt lat="43.62386" lon="6.51915">
        <ele>635.7</ele>
        <time>2013-12-08T13:38:39Z</time>
      </trkpt>
      <trkpt lat="43.62384" lon="6.51922">
        <ele>635.7</ele>
        <time>2013-12-08T13:38:44Z</time>
      </trkpt>
      <trkpt lat="43.62383" lon="6.51933">
        <ele>635.3</ele>
        <time>2013-12-08T13:38:52Z</time>
      </trkpt>
      <trkpt lat="43.62381" lon="6.51939">
        <ele>635.5</ele>
        <time>2013-12-08T13:38:57Z</time>
      </trkpt>
      <trkpt lat="43.62382" lon="6.51955">
        <ele>635.7</ele>
        <time>2013-12-08T13:39:21Z</time>
      </trkpt>
      <trkpt lat="43.62374" lon="6.5196">
        <ele>635.8</ele>
        <time>2013-12-08T13:39:35Z</time>
      </trkpt>
      <trkpt lat="43.62377" lon="6.51959">
        <ele>635.5</ele>
        <time>2013-12-08T13:39:55Z</time>
      </trkpt>
      <trkpt lat="43.62387" lon="6.51952">
        <ele>635.8</ele>
        <time>2013-12-08T13:40:05Z</time>
      </trkpt>
      <trkpt lat="43.62392" lon="6.51945">
        <ele>635.8</ele>
        <time>2013-12-08T13:41:10Z</time>
      </trkpt>
      <trkpt lat="43.62391" lon="6.51946">
        <ele>635.3</ele>
        <time>2013-12-08T13:42:05Z</time>
      </trkpt>
      <trkpt lat="43.62387" lon="6.51953">
        <ele>635.1</ele>
        <time>2013-12-08T13:42:34Z</time>
      </trkpt>
      <trkpt lat="43.62383" lon="6.51954">
        <ele>635.1</ele>
        <time>2013-12-08T13:42:38Z</time>
      </trkpt>
      <trkpt lat="43.62369" lon="6.51937">
        <ele>634.5</ele>
        <time>2013-12-08T13:42:54Z</time>
      </trkpt>
      <trkpt lat="43.62363" lon="6.51923">
        <ele>634.5</ele>
        <time>2013-12-08T13:43:07Z</time>
      </trkpt>
      <trkpt lat="43.6235" lon="6.51905">
        <ele>635</ele>
        <time>2013-12-08T13:43:26Z</time>
      </trkpt>
      <trkpt lat="43.62343" lon="6.519">
        <ele>635.5</ele>
        <time>2013-12-08T13:43:32Z</time>
      </trkpt>
      <trkpt lat="43.62326" lon="6.51885">
        <ele>635.7</ele>
        <time>2013-12-08T13:43:57Z</time>
      </trkpt>
      <trkpt lat="43.62323" lon="6.51872">
        <ele>635.9</ele>
        <time>2013-12-08T13:44:07Z</time>
      </trkpt>
      <trkpt lat="43.62319" lon="6.51864">
        <ele>636.4</ele>
        <time>2013-12-08T13:44:24Z</time>
      </trkpt>
      <trkpt lat="43.62302" lon="6.51862">
        <ele>637.2</ele>
        <time>2013-12-08T13:44:49Z</time>
      </trkpt>
      <trkpt lat="43.62293" lon="6.51859">
        <ele>637.4</ele>
        <time>2013-12-08T13:44:59Z</time>
      </trkpt>
      <trkpt lat="43.6229" lon="6.51859">
        <ele>637.6</ele>
        <time>2013-12-08T13:45:03Z</time>
      </trkpt>
      <trkpt lat="43.62279" lon="6.51857">
        <ele>637.9</ele>
        <time>2013-12-08T13:45:14Z</time>
      </trkpt>
      <trkpt lat="43.62273" lon="6.51858">
        <ele>638.4</ele>
        <time>2013-12-08T13:45:22Z</time>
      </trkpt>
      <trkpt lat="43.62263" lon="6.51857">
        <ele>639.3</ele>
        <time>2013-12-08T13:45:38Z</time>
      </trkpt>
      <trkpt lat="43.6226" lon="6.51858">
        <ele>639.1</ele>
        <time>2013-12-08T13:45:40Z</time>
      </trkpt>
      <trkpt lat="43.62249" lon="6.51858">
        <ele>639.9</ele>
        <time>2013-12-08T13:45:52Z</time>
      </trkpt>
      <trkpt lat="43.62245" lon="6.51857">
        <ele>640.2</ele>
        <time>2013-12-08T13:45:56Z</time>
      </trkpt>
      <trkpt lat="43.62237" lon="6.51861">
        <ele>640.4</ele>
        <time>2013-12-08T13:46:03Z</time>
      </trkpt>
      <trkpt lat="43.62213" lon="6.51851">
        <ele>642.6</ele>
        <time>2013-12-08T13:46:23Z</time>
      </trkpt>
      <trkpt lat="43.62207" lon="6.51846">
        <ele>643.5</ele>
        <time>2013-12-08T13:46:29Z</time>
      </trkpt>
      <trkpt lat="43.62199" lon="6.51838">
        <ele>645.2</ele>
        <time>2013-12-08T13:46:43Z</time>
      </trkpt>
      <trkpt lat="43.6219" lon="6.51837">
        <ele>646</ele>
        <time>2013-12-08T13:46:52Z</time>
      </trkpt>
      <trkpt lat="43.62175" lon="6.51851">
        <ele>648.4</ele>
        <time>2013-12-08T13:47:20Z</time>
      </trkpt>
      <trkpt lat="43.62172" lon="6.51851">
        <ele>648.6</ele>
        <time>2013-12-08T13:47:23Z</time>
      </trkpt>
      <trkpt lat="43.6216" lon="6.51857">
        <ele>650.3</ele>
        <time>2013-12-08T13:47:35Z</time>
      </trkpt>
      <trkpt lat="43.62144" lon="6.51857">
        <ele>652.9</ele>
        <time>2013-12-08T13:47:55Z</time>
      </trkpt>
      <trkpt lat="43.6214" lon="6.51858">
        <ele>653.7</ele>
        <time>2013-12-08T13:47:59Z</time>
      </trkpt>
      <trkpt lat="43.62131" lon="6.51863">
        <ele>654.8</ele>
        <time>2013-12-08T13:48:09Z</time>
      </trkpt>
      <trkpt lat="43.62121" lon="6.51866">
        <ele>655.9</ele>
        <time>2013-12-08T13:48:21Z</time>
      </trkpt>
      <trkpt lat="43.62116" lon="6.5187">
        <ele>656.8</ele>
        <time>2013-12-08T13:48:29Z</time>
      </trkpt>
      <trkpt lat="43.62107" lon="6.51879">
        <ele>658</ele>
        <time>2013-12-08T13:48:39Z</time>
      </trkpt>
      <trkpt lat="43.621" lon="6.51883">
        <ele>658.9</ele>
        <time>2013-12-08T13:48:50Z</time>
      </trkpt>
      <trkpt lat="43.62095" lon="6.51892">
        <ele>659.5</ele>
        <time>2013-12-08T13:49:01Z</time>
      </trkpt>
      <trkpt lat="43.62093" lon="6.51898">
        <ele>659.3</ele>
        <time>2013-12-08T13:49:07Z</time>
      </trkpt>
      <trkpt lat="43.62084" lon="6.51906">
        <ele>658.7</ele>
        <time>2013-12-08T13:49:18Z</time>
      </trkpt>
      <trkpt lat="43.62077" lon="6.51925">
        <ele>658</ele>
        <time>2013-12-08T13:49:35Z</time>
      </trkpt>
      <trkpt lat="43.62065" lon="6.51937">
        <ele>656.7</ele>
        <time>2013-12-08T13:49:47Z</time>
      </trkpt>
      <trkpt lat="43.62055" lon="6.51939">
        <ele>654.6</ele>
        <time>2013-12-08T13:50:00Z</time>
      </trkpt>
      <trkpt lat="43.62055" lon="6.5195">
        <ele>653.8</ele>
        <time>2013-12-08T13:50:10Z</time>
      </trkpt>
      <trkpt lat="43.62051" lon="6.51959">
        <ele>653.8</ele>
        <time>2013-12-08T13:50:16Z</time>
      </trkpt>
      <trkpt lat="43.62046" lon="6.51972">
        <ele>653.6</ele>
        <time>2013-12-08T13:50:26Z</time>
      </trkpt>
      <trkpt lat="43.62036" lon="6.51979">
        <ele>653.3</ele>
        <time>2013-12-08T13:50:32Z</time>
      </trkpt>
      <trkpt lat="43.6203" lon="6.51977">
        <ele>653.2</ele>
        <time>2013-12-08T13:50:37Z</time>
      </trkpt>
      <trkpt lat="43.62019" lon="6.51985">
        <ele>653.3</ele>
        <time>2013-12-08T13:50:48Z</time>
      </trkpt>
      <trkpt lat="43.62015" lon="6.51983">
        <ele>653.1</ele>
        <time>2013-12-08T13:51:00Z</time>
      </trkpt>
      <trkpt lat="43.62007" lon="6.51997">
        <ele>653.3</ele>
        <time>2013-12-08T13:51:12Z</time>
      </trkpt>
      <trkpt lat="43.62003" lon="6.51998">
        <ele>653.3</ele>
        <time>2013-12-08T13:51:15Z</time>
      </trkpt>
      <trkpt lat="43.61996" lon="6.51999">
        <ele>652.9</ele>
        <time>2013-12-08T13:51:24Z</time>
      </trkpt>
      <trkpt lat="43.61987" lon="6.51992">
        <ele>652.7</ele>
        <time>2013-12-08T13:51:40Z</time>
      </trkpt>
      <trkpt lat="43.61986" lon="6.51992">
        <ele>652.6</ele>
        <time>2013-12-08T13:52:06Z</time>
      </trkpt>
      <trkpt lat="43.61989" lon="6.51991">
        <ele>652.9</ele>
        <time>2013-12-08T13:52:29Z</time>
      </trkpt>
      <trkpt lat="43.61976" lon="6.51991">
        <ele>652.5</ele>
        <time>2013-12-08T13:52:39Z</time>
      </trkpt>
      <trkpt lat="43.61974" lon="6.51986">
        <ele>652.6</ele>
        <time>2013-12-08T13:52:48Z</time>
      </trkpt>
      <trkpt lat="43.61963" lon="6.51986">
        <ele>653</ele>
        <time>2013-12-08T13:52:59Z</time>
      </trkpt>
      <trkpt lat="43.6195" lon="6.5199">
        <ele>652.3</ele>
        <time>2013-12-08T13:53:10Z</time>
      </trkpt>
      <trkpt lat="43.61945" lon="6.51992">
        <ele>652.8</ele>
        <time>2013-12-08T13:53:19Z</time>
      </trkpt>
      <trkpt lat="43.6192" lon="6.52014">
        <ele>651.8</ele>
        <time>2013-12-08T13:53:45Z</time>
      </trkpt>
      <trkpt lat="43.61911" lon="6.52018">
        <ele>650.8</ele>
        <time>2013-12-08T13:53:55Z</time>
      </trkpt>
      <trkpt lat="43.61902" lon="6.52026">
        <ele>650.9</ele>
        <time>2013-12-08T13:54:05Z</time>
      </trkpt>
      <trkpt lat="43.61897" lon="6.52028">
        <ele>651.2</ele>
        <time>2013-12-08T13:54:10Z</time>
      </trkpt>
      <trkpt lat="43.61889" lon="6.52034">
        <ele>650.8</ele>
        <time>2013-12-08T13:54:19Z</time>
      </trkpt>
      <trkpt lat="43.61886" lon="6.52039">
        <ele>650.4</ele>
        <time>2013-12-08T13:54:24Z</time>
      </trkpt>
      <trkpt lat="43.61879" lon="6.52044">
        <ele>650.1</ele>
        <time>2013-12-08T13:54:30Z</time>
      </trkpt>
      <trkpt lat="43.61868" lon="6.52064">
        <ele>649.6</ele>
        <time>2013-12-08T13:54:48Z</time>
      </trkpt>
      <trkpt lat="43.6186" lon="6.52087">
        <ele>649.8</ele>
        <time>2013-12-08T13:55:07Z</time>
      </trkpt>
      <trkpt lat="43.61857" lon="6.52092">
        <ele>649.5</ele>
        <time>2013-12-08T13:55:12Z</time>
      </trkpt>
      <trkpt lat="43.61848" lon="6.52124">
        <ele>647.4</ele>
        <time>2013-12-08T13:55:34Z</time>
      </trkpt>
      <trkpt lat="43.61838" lon="6.52144">
        <ele>644.8</ele>
        <time>2013-12-08T13:55:53Z</time>
      </trkpt>
      <trkpt lat="43.61835" lon="6.52154">
        <ele>643.7</ele>
        <time>2013-12-08T13:55:59Z</time>
      </trkpt>
      <trkpt lat="43.61832" lon="6.52157">
        <ele>643</ele>
        <time>2013-12-08T13:56:03Z</time>
      </trkpt>
      <trkpt lat="43.61816" lon="6.5218">
        <ele>640.1</ele>
        <time>2013-12-08T13:56:25Z</time>
      </trkpt>
      <trkpt lat="43.61805" lon="6.52192">
        <ele>639.1</ele>
        <time>2013-12-08T13:56:37Z</time>
      </trkpt>
      <trkpt lat="43.61799" lon="6.52202">
        <ele>638.4</ele>
        <time>2013-12-08T13:56:47Z</time>
      </trkpt>
      <trkpt lat="43.61789" lon="6.52213">
        <ele>637</ele>
        <time>2013-12-08T13:56:58Z</time>
      </trkpt>
      <trkpt lat="43.61787" lon="6.52221">
        <ele>636.5</ele>
        <time>2013-12-08T13:57:04Z</time>
      </trkpt>
      <trkpt lat="43.61778" lon="6.5223">
        <ele>635.7</ele>
        <time>2013-12-08T13:57:13Z</time>
      </trkpt>
      <trkpt lat="43.61769" lon="6.52236">
        <ele>634.4</ele>
        <time>2013-12-08T13:57:23Z</time>
      </trkpt>
      <trkpt lat="43.61756" lon="6.52251">
        <ele>632.9</ele>
        <time>2013-12-08T13:57:39Z</time>
      </trkpt>
      <trkpt lat="43.6175" lon="6.52256">
        <ele>632.2</ele>
        <time>2013-12-08T13:57:45Z</time>
      </trkpt>
      <trkpt lat="43.61738" lon="6.52257">
        <ele>631.9</ele>
        <time>2013-12-08T13:57:54Z</time>
      </trkpt>
      <trkpt lat="43.61726" lon="6.52256">
        <ele>632.1</ele>
        <time>2013-12-08T13:58:05Z</time>
      </trkpt>
      <trkpt lat="43.61719" lon="6.52256">
        <ele>631.4</ele>
        <time>2013-12-08T13:58:17Z</time>
      </trkpt>
      <trkpt lat="43.61705" lon="6.52271">
        <ele>630.9</ele>
        <time>2013-12-08T13:58:52Z</time>
      </trkpt>
      <trkpt lat="43.61704" lon="6.52274">
        <ele>630.7</ele>
        <time>2013-12-08T13:58:54Z</time>
      </trkpt>
      <trkpt lat="43.617" lon="6.52281">
        <ele>630.4</ele>
        <time>2013-12-08T13:59:01Z</time>
      </trkpt>
      <trkpt lat="43.61698" lon="6.52289">
        <ele>630</ele>
        <time>2013-12-08T13:59:07Z</time>
      </trkpt>
      <trkpt lat="43.61693" lon="6.52318">
        <ele>628.7</ele>
        <time>2013-12-08T13:59:30Z</time>
      </trkpt>
      <trkpt lat="43.61692" lon="6.52321">
        <ele>628.8</ele>
        <time>2013-12-08T13:59:32Z</time>
      </trkpt>
      <trkpt lat="43.61688" lon="6.52335">
        <ele>627.4</ele>
        <time>2013-12-08T13:59:42Z</time>
      </trkpt>
      <trkpt lat="43.61685" lon="6.52344">
        <ele>626.9</ele>
        <time>2013-12-08T13:59:49Z</time>
      </trkpt>
      <trkpt lat="43.61683" lon="6.5237">
        <ele>625</ele>
        <time>2013-12-08T14:00:07Z</time>
      </trkpt>
      <trkpt lat="43.61681" lon="6.52386">
        <ele>623.9</ele>
        <time>2013-12-08T14:00:19Z</time>
      </trkpt>
      <trkpt lat="43.61681" lon="6.52402">
        <ele>622.3</ele>
        <time>2013-12-08T14:00:29Z</time>
      </trkpt>
      <trkpt lat="43.61678" lon="6.52409">
        <ele>622.3</ele>
        <time>2013-12-08T14:00:34Z</time>
      </trkpt>
      <trkpt lat="43.61677" lon="6.52417">
        <ele>621.7</ele>
        <time>2013-12-08T14:00:38Z</time>
      </trkpt>
      <trkpt lat="43.61672" lon="6.52431">
        <ele>620.6</ele>
        <time>2013-12-08T14:00:48Z</time>
      </trkpt>
      <trkpt lat="43.61669" lon="6.52437">
        <ele>620.3</ele>
        <time>2013-12-08T14:00:53Z</time>
      </trkpt>
      <trkpt lat="43.61665" lon="6.52447">
        <ele>619.7</ele>
        <time>2013-12-08T14:01:01Z</time>
      </trkpt>
      <trkpt lat="43.61664" lon="6.52459">
        <ele>619.3</ele>
        <time>2013-12-08T14:01:08Z</time>
      </trkpt>
      <trkpt lat="43.61655" lon="6.52478">
        <ele>617.7</ele>
        <time>2013-12-08T14:01:23Z</time>
      </trkpt>
      <trkpt lat="43.6165" lon="6.52484">
        <ele>616.5</ele>
        <time>2013-12-08T14:01:29Z</time>
      </trkpt>
      <trkpt lat="43.61647" lon="6.52489">
        <ele>616.1</ele>
        <time>2013-12-08T14:01:34Z</time>
      </trkpt>
      <trkpt lat="43.61637" lon="6.52499">
        <ele>615</ele>
        <time>2013-12-08T14:01:45Z</time>
      </trkpt>
      <trkpt lat="43.61625" lon="6.52505">
        <ele>614.5</ele>
        <time>2013-12-08T14:01:54Z</time>
      </trkpt>
      <trkpt lat="43.61618" lon="6.52511">
        <ele>614.1</ele>
        <time>2013-12-08T14:02:01Z</time>
      </trkpt>
      <trkpt lat="43.61607" lon="6.52517">
        <ele>613.6</ele>
        <time>2013-12-08T14:02:12Z</time>
      </trkpt>
      <trkpt lat="43.61599" lon="6.52525">
        <ele>612.8</ele>
        <time>2013-12-08T14:02:24Z</time>
      </trkpt>
      <trkpt lat="43.61597" lon="6.52533">
        <ele>612.8</ele>
        <time>2013-12-08T14:02:32Z</time>
      </trkpt>
      <trkpt lat="43.616" lon="6.52543">
        <ele>612.1</ele>
        <time>2013-12-08T14:02:39Z</time>
      </trkpt>
      <trkpt lat="43.61596" lon="6.52555">
        <ele>611.8</ele>
        <time>2013-12-08T14:02:49Z</time>
      </trkpt>
      <trkpt lat="43.61595" lon="6.52571">
        <ele>610.7</ele>
        <time>2013-12-08T14:03:00Z</time>
      </trkpt>
      <trkpt lat="43.61593" lon="6.52581">
        <ele>610.4</ele>
        <time>2013-12-08T14:03:07Z</time>
      </trkpt>
      <trkpt lat="43.61592" lon="6.52587">
        <ele>610.4</ele>
        <time>2013-12-08T14:03:11Z</time>
      </trkpt>
      <trkpt lat="43.6159" lon="6.52599">
        <ele>609.9</ele>
        <time>2013-12-08T14:03:18Z</time>
      </trkpt>
      <trkpt lat="43.61584" lon="6.52622">
        <ele>608.8</ele>
        <time>2013-12-08T14:03:33Z</time>
      </trkpt>
      <trkpt lat="43.61581" lon="6.5264">
        <ele>608</ele>
        <time>2013-12-08T14:03:45Z</time>
      </trkpt>
      <trkpt lat="43.61575" lon="6.52665">
        <ele>606.8</ele>
        <time>2013-12-08T14:04:01Z</time>
      </trkpt>
      <trkpt lat="43.61567" lon="6.52688">
        <ele>605</ele>
        <time>2013-12-08T14:04:20Z</time>
      </trkpt>
      <trkpt lat="43.61563" lon="6.52703">
        <ele>603.9</ele>
        <time>2013-12-08T14:04:31Z</time>
      </trkpt>
      <trkpt lat="43.61559" lon="6.52723">
        <ele>602.6</ele>
        <time>2013-12-08T14:04:44Z</time>
      </trkpt>
      <trkpt lat="43.61554" lon="6.52731">
        <ele>601.9</ele>
        <time>2013-12-08T14:04:51Z</time>
      </trkpt>
      <trkpt lat="43.61554" lon="6.52737">
        <ele>601.6</ele>
        <time>2013-12-08T14:04:55Z</time>
      </trkpt>
      <trkpt lat="43.61546" lon="6.52762">
        <ele>600.5</ele>
        <time>2013-12-08T14:05:12Z</time>
      </trkpt>
      <trkpt lat="43.61537" lon="6.52775">
        <ele>600.5</ele>
        <time>2013-12-08T14:05:24Z</time>
      </trkpt>
      <trkpt lat="43.61534" lon="6.52772">
        <ele>600</ele>
        <time>2013-12-08T14:05:36Z</time>
      </trkpt>
      <trkpt lat="43.61539" lon="6.52781">
        <ele>599.5</ele>
        <time>2013-12-08T14:05:45Z</time>
      </trkpt>
      <trkpt lat="43.61541" lon="6.52794">
        <ele>598.1</ele>
        <time>2013-12-08T14:05:56Z</time>
      </trkpt>
      <trkpt lat="43.61538" lon="6.52804">
        <ele>597</ele>
        <time>2013-12-08T14:06:07Z</time>
      </trkpt>
      <trkpt lat="43.61535" lon="6.52805">
        <ele>597</ele>
        <time>2013-12-08T14:06:24Z</time>
      </trkpt>
      <trkpt lat="43.61534" lon="6.52819">
        <ele>596.2</ele>
        <time>2013-12-08T14:06:44Z</time>
      </trkpt>
      <trkpt lat="43.61534" lon="6.52829">
        <ele>595</ele>
        <time>2013-12-08T14:07:10Z</time>
      </trkpt>
      <trkpt lat="43.61536" lon="6.52836">
        <ele>593.7</ele>
        <time>2013-12-08T14:07:24Z</time>
      </trkpt>
      <trkpt lat="43.61542" lon="6.52847">
        <ele>592.3</ele>
        <time>2013-12-08T14:07:34Z</time>
      </trkpt>
      <trkpt lat="43.61544" lon="6.52855">
        <ele>592.1</ele>
        <time>2013-12-08T14:07:40Z</time>
      </trkpt>
      <trkpt lat="43.61542" lon="6.52865">
        <ele>590.6</ele>
        <time>2013-12-08T14:07:49Z</time>
      </trkpt>
      <trkpt lat="43.6154" lon="6.52869">
        <ele>590.4</ele>
        <time>2013-12-08T14:07:53Z</time>
      </trkpt>
      <trkpt lat="43.61528" lon="6.52896">
        <ele>588.3</ele>
        <time>2013-12-08T14:08:23Z</time>
      </trkpt>
      <trkpt lat="43.61526" lon="6.52909">
        <ele>587</ele>
        <time>2013-12-08T14:08:36Z</time>
      </trkpt>
      <trkpt lat="43.61523" lon="6.52914">
        <ele>586.6</ele>
        <time>2013-12-08T14:08:42Z</time>
      </trkpt>
      <trkpt lat="43.61523" lon="6.52927">
        <ele>585.5</ele>
        <time>2013-12-08T14:08:53Z</time>
      </trkpt>
      <trkpt lat="43.61521" lon="6.52953">
        <ele>584.5</ele>
        <time>2013-12-08T14:09:10Z</time>
      </trkpt>
      <trkpt lat="43.61516" lon="6.52959">
        <ele>584.1</ele>
        <time>2013-12-08T14:09:16Z</time>
      </trkpt>
      <trkpt lat="43.61509" lon="6.52985">
        <ele>583.3</ele>
        <time>2013-12-08T14:09:39Z</time>
      </trkpt>
      <trkpt lat="43.615" lon="6.53003">
        <ele>582.1</ele>
        <time>2013-12-08T14:09:56Z</time>
      </trkpt>
      <trkpt lat="43.61496" lon="6.53013">
        <ele>582</ele>
        <time>2013-12-08T14:10:03Z</time>
      </trkpt>
      <trkpt lat="43.61487" lon="6.53025">
        <ele>581.8</ele>
        <time>2013-12-08T14:10:18Z</time>
      </trkpt>
      <trkpt lat="43.61478" lon="6.53045">
        <ele>581.2</ele>
        <time>2013-12-08T14:10:37Z</time>
      </trkpt>
      <trkpt lat="43.61476" lon="6.53055">
        <ele>580.7</ele>
        <time>2013-12-08T14:10:45Z</time>
      </trkpt>
      <trkpt lat="43.61472" lon="6.53063">
        <ele>579.9</ele>
        <time>2013-12-08T14:10:52Z</time>
      </trkpt>
      <trkpt lat="43.6147" lon="6.53069">
        <ele>579.6</ele>
        <time>2013-12-08T14:10:58Z</time>
      </trkpt>
      <trkpt lat="43.61465" lon="6.53075">
        <ele>579.5</ele>
        <time>2013-12-08T14:11:05Z</time>
      </trkpt>
      <trkpt lat="43.61457" lon="6.53097">
        <ele>579.8</ele>
        <time>2013-12-08T14:11:24Z</time>
      </trkpt>
      <trkpt lat="43.61451" lon="6.53105">
        <ele>580.3</ele>
        <time>2013-12-08T14:11:35Z</time>
      </trkpt>
      <trkpt lat="43.61445" lon="6.53111">
        <ele>579.8</ele>
        <time>2013-12-08T14:11:41Z</time>
      </trkpt>
      <trkpt lat="43.61442" lon="6.53119">
        <ele>578.7</ele>
        <time>2013-12-08T14:11:49Z</time>
      </trkpt>
      <trkpt lat="43.61444" lon="6.53131">
        <ele>578.3</ele>
        <time>2013-12-08T14:12:00Z</time>
      </trkpt>
      <trkpt lat="43.61445" lon="6.53143">
        <ele>577.9</ele>
        <time>2013-12-08T14:12:09Z</time>
      </trkpt>
      <trkpt lat="43.61438" lon="6.53149">
        <ele>577.3</ele>
        <time>2013-12-08T14:12:18Z</time>
      </trkpt>
      <trkpt lat="43.61437" lon="6.53159">
        <ele>575.9</ele>
        <time>2013-12-08T14:12:29Z</time>
      </trkpt>
      <trkpt lat="43.61436" lon="6.5317">
        <ele>574.7</ele>
        <time>2013-12-08T14:12:41Z</time>
      </trkpt>
      <trkpt lat="43.61438" lon="6.53178">
        <ele>574.5</ele>
        <time>2013-12-08T14:12:49Z</time>
      </trkpt>
      <trkpt lat="43.61441" lon="6.53184">
        <ele>574.6</ele>
        <time>2013-12-08T14:12:54Z</time>
      </trkpt>
      <trkpt lat="43.61435" lon="6.53208">
        <ele>575.8</ele>
        <time>2013-12-08T14:13:11Z</time>
      </trkpt>
      <trkpt lat="43.61433" lon="6.53215">
        <ele>575.8</ele>
        <time>2013-12-08T14:13:15Z</time>
      </trkpt>
      <trkpt lat="43.61424" lon="6.53228">
        <ele>576.8</ele>
        <time>2013-12-08T14:13:29Z</time>
      </trkpt>
      <trkpt lat="43.61421" lon="6.53237">
        <ele>576.4</ele>
        <time>2013-12-08T14:13:38Z</time>
      </trkpt>
      <trkpt lat="43.61421" lon="6.53251">
        <ele>574.8</ele>
        <time>2013-12-08T14:13:54Z</time>
      </trkpt>
      <trkpt lat="43.61429" lon="6.53258">
        <ele>573.6</ele>
        <time>2013-12-08T14:14:05Z</time>
      </trkpt>
      <trkpt lat="43.61429" lon="6.53275">
        <ele>571</ele>
        <time>2013-12-08T14:14:21Z</time>
      </trkpt>
      <trkpt lat="43.61433" lon="6.53286">
        <ele>569.7</ele>
        <time>2013-12-08T14:14:35Z</time>
      </trkpt>
      <trkpt lat="43.61442" lon="6.53301">
        <ele>567.9</ele>
        <time>2013-12-08T14:14:54Z</time>
      </trkpt>
      <trkpt lat="43.61444" lon="6.53316">
        <ele>566.3</ele>
        <time>2013-12-08T14:15:07Z</time>
      </trkpt>
      <trkpt lat="43.61446" lon="6.53326">
        <ele>565.1</ele>
        <time>2013-12-08T14:15:16Z</time>
      </trkpt>
      <trkpt lat="43.6145" lon="6.53335">
        <ele>563.9</ele>
        <time>2013-12-08T14:15:28Z</time>
      </trkpt>
      <trkpt lat="43.6145" lon="6.53349">
        <ele>563.4</ele>
        <time>2013-12-08T14:15:42Z</time>
      </trkpt>
      <trkpt lat="43.61441" lon="6.53372">
        <ele>560.6</ele>
        <time>2013-12-08T14:16:09Z</time>
      </trkpt>
      <trkpt lat="43.61441" lon="6.53386">
        <ele>558.4</ele>
        <time>2013-12-08T14:16:27Z</time>
      </trkpt>
      <trkpt lat="43.61449" lon="6.53406">
        <ele>556.8</ele>
        <time>2013-12-08T14:16:48Z</time>
      </trkpt>
      <trkpt lat="43.61447" lon="6.53416">
        <ele>556.5</ele>
        <time>2013-12-08T14:16:57Z</time>
      </trkpt>
      <trkpt lat="43.6145" lon="6.53441">
        <ele>555.3</ele>
        <time>2013-12-08T14:17:17Z</time>
      </trkpt>
      <trkpt lat="43.61447" lon="6.53455">
        <ele>554.4</ele>
        <time>2013-12-08T14:17:32Z</time>
      </trkpt>
      <trkpt lat="43.61448" lon="6.53464">
        <ele>553.2</ele>
        <time>2013-12-08T14:17:43Z</time>
      </trkpt>
      <trkpt lat="43.61447" lon="6.53486">
        <ele>551.5</ele>
        <time>2013-12-08T14:18:07Z</time>
      </trkpt>
      <trkpt lat="43.61444" lon="6.53494">
        <ele>551.4</ele>
        <time>2013-12-08T14:18:14Z</time>
      </trkpt>
      <trkpt lat="43.61444" lon="6.53501">
        <ele>551.1</ele>
        <time>2013-12-08T14:18:18Z</time>
      </trkpt>
      <trkpt lat="43.6144" lon="6.53511">
        <ele>550.3</ele>
        <time>2013-12-08T14:18:28Z</time>
      </trkpt>
      <trkpt lat="43.61438" lon="6.53525">
        <ele>549</ele>
        <time>2013-12-08T14:18:42Z</time>
      </trkpt>
      <trkpt lat="43.61438" lon="6.53528">
        <ele>549</ele>
        <time>2013-12-08T14:18:44Z</time>
      </trkpt>
      <trkpt lat="43.61438" lon="6.53549">
        <ele>547</ele>
        <time>2013-12-08T14:19:04Z</time>
      </trkpt>
      <trkpt lat="43.61433" lon="6.53559">
        <ele>546.1</ele>
        <time>2013-12-08T14:19:11Z</time>
      </trkpt>
      <trkpt lat="43.61431" lon="6.5357">
        <ele>545.2</ele>
        <time>2013-12-08T14:19:22Z</time>
      </trkpt>
      <trkpt lat="43.61438" lon="6.53596">
        <ele>542.7</ele>
        <time>2013-12-08T14:19:52Z</time>
      </trkpt>
      <trkpt lat="43.61437" lon="6.53601">
        <ele>542.7</ele>
        <time>2013-12-08T14:19:57Z</time>
      </trkpt>
      <trkpt lat="43.61437" lon="6.53616">
        <ele>541.7</ele>
        <time>2013-12-08T14:20:09Z</time>
      </trkpt>
      <trkpt lat="43.61435" lon="6.53636">
        <ele>541.3</ele>
        <time>2013-12-08T14:20:24Z</time>
      </trkpt>
      <trkpt lat="43.61432" lon="6.53645">
        <ele>541.1</ele>
        <time>2013-12-08T14:20:31Z</time>
      </trkpt>
      <trkpt lat="43.61428" lon="6.5367">
        <ele>539.3</ele>
        <time>2013-12-08T14:20:54Z</time>
      </trkpt>
      <trkpt lat="43.61427" lon="6.53684">
        <ele>537.8</ele>
        <time>2013-12-08T14:21:05Z</time>
      </trkpt>
      <trkpt lat="43.61429" lon="6.53693">
        <ele>537</ele>
        <time>2013-12-08T14:21:14Z</time>
      </trkpt>
      <trkpt lat="43.61424" lon="6.53715">
        <ele>535.5</ele>
        <time>2013-12-08T14:21:30Z</time>
      </trkpt>
      <trkpt lat="43.61419" lon="6.53726">
        <ele>535.2</ele>
        <time>2013-12-08T14:21:40Z</time>
      </trkpt>
      <trkpt lat="43.61418" lon="6.53737">
        <ele>534.9</ele>
        <time>2013-12-08T14:21:50Z</time>
      </trkpt>
      <trkpt lat="43.61414" lon="6.53746">
        <ele>534.3</ele>
        <time>2013-12-08T14:22:00Z</time>
      </trkpt>
      <trkpt lat="43.6141" lon="6.53765">
        <ele>534.5</ele>
        <time>2013-12-08T14:22:20Z</time>
      </trkpt>
      <trkpt lat="43.61407" lon="6.5377">
        <ele>534.2</ele>
        <time>2013-12-08T14:22:30Z</time>
      </trkpt>
      <trkpt lat="43.61404" lon="6.53772">
        <ele>534.1</ele>
        <time>2013-12-08T14:22:35Z</time>
      </trkpt>
      <trkpt lat="43.61403" lon="6.53772">
        <ele>534</ele>
        <time>2013-12-08T14:22:44Z</time>
      </trkpt>
      <trkpt lat="43.61408" lon="6.53781">
        <ele>534</ele>
        <time>2013-12-08T14:22:56Z</time>
      </trkpt>
      <trkpt lat="43.61407" lon="6.53787">
        <ele>533.8</ele>
        <time>2013-12-08T14:23:02Z</time>
      </trkpt>
      <trkpt lat="43.61401" lon="6.53792">
        <ele>533.8</ele>
        <time>2013-12-08T14:23:10Z</time>
      </trkpt>
      <trkpt lat="43.61396" lon="6.53801">
        <ele>532.8</ele>
        <time>2013-12-08T14:23:23Z</time>
      </trkpt>
      <trkpt lat="43.61396" lon="6.53809">
        <ele>532.8</ele>
        <time>2013-12-08T14:23:30Z</time>
      </trkpt>
      <trkpt lat="43.61395" lon="6.53822">
        <ele>531.5</ele>
        <time>2013-12-08T14:23:41Z</time>
      </trkpt>
      <trkpt lat="43.61391" lon="6.5383">
        <ele>530.4</ele>
        <time>2013-12-08T14:23:51Z</time>
      </trkpt>
      <trkpt lat="43.6138" lon="6.5384">
        <ele>528.8</ele>
        <time>2013-12-08T14:24:02Z</time>
      </trkpt>
      <trkpt lat="43.61371" lon="6.53852">
        <ele>527.3</ele>
        <time>2013-12-08T14:24:17Z</time>
      </trkpt>
      <trkpt lat="43.61366" lon="6.53858">
        <ele>526.8</ele>
        <time>2013-12-08T14:24:23Z</time>
      </trkpt>
      <trkpt lat="43.61362" lon="6.53861">
        <ele>526.1</ele>
        <time>2013-12-08T14:24:30Z</time>
      </trkpt>
      <trkpt lat="43.6136" lon="6.5387">
        <ele>526</ele>
        <time>2013-12-08T14:24:41Z</time>
      </trkpt>
      <trkpt lat="43.61362" lon="6.53883">
        <ele>525.5</ele>
        <time>2013-12-08T14:24:51Z</time>
      </trkpt>
      <trkpt lat="43.61358" lon="6.5389">
        <ele>525.2</ele>
        <time>2013-12-08T14:25:01Z</time>
      </trkpt>
      <trkpt lat="43.61356" lon="6.53904">
        <ele>525.2</ele>
        <time>2013-12-08T14:25:13Z</time>
      </trkpt>
      <trkpt lat="43.61356" lon="6.53916">
        <ele>525.1</ele>
        <time>2013-12-08T14:25:22Z</time>
      </trkpt>
      <trkpt lat="43.61358" lon="6.5393">
        <ele>523.5</ele>
        <time>2013-12-08T14:25:32Z</time>
      </trkpt>
      <trkpt lat="43.61358" lon="6.53944">
        <ele>523.3</ele>
        <time>2013-12-08T14:25:41Z</time>
      </trkpt>
      <trkpt lat="43.61355" lon="6.53956">
        <ele>522.9</ele>
        <time>2013-12-08T14:25:48Z</time>
      </trkpt>
      <trkpt lat="43.61355" lon="6.53959">
        <ele>522.8</ele>
        <time>2013-12-08T14:25:50Z</time>
      </trkpt>
      <trkpt lat="43.61354" lon="6.53982">
        <ele>522</ele>
        <time>2013-12-08T14:26:08Z</time>
      </trkpt>
      <trkpt lat="43.61354" lon="6.54006">
        <ele>520.5</ele>
        <time>2013-12-08T14:26:27Z</time>
      </trkpt>
      <trkpt lat="43.61353" lon="6.54014">
        <ele>519.4</ele>
        <time>2013-12-08T14:26:33Z</time>
      </trkpt>
      <trkpt lat="43.61349" lon="6.54026">
        <ele>517.4</ele>
        <time>2013-12-08T14:26:46Z</time>
      </trkpt>
      <trkpt lat="43.61351" lon="6.54034">
        <ele>516.7</ele>
        <time>2013-12-08T14:26:52Z</time>
      </trkpt>
      <trkpt lat="43.61352" lon="6.54045">
        <ele>515.5</ele>
        <time>2013-12-08T14:27:03Z</time>
      </trkpt>
      <trkpt lat="43.61347" lon="6.54054">
        <ele>513.8</ele>
        <time>2013-12-08T14:27:15Z</time>
      </trkpt>
      <trkpt lat="43.61346" lon="6.54068">
        <ele>512.2</ele>
        <time>2013-12-08T14:27:28Z</time>
      </trkpt>
      <trkpt lat="43.61348" lon="6.54079">
        <ele>509.8</ele>
        <time>2013-12-08T14:27:49Z</time>
      </trkpt>
      <trkpt lat="43.61354" lon="6.54082">
        <ele>509</ele>
        <time>2013-12-08T14:27:56Z</time>
      </trkpt>
      <trkpt lat="43.61359" lon="6.54081">
        <ele>507.3</ele>
        <time>2013-12-08T14:28:14Z</time>
      </trkpt>
      <trkpt lat="43.6136" lon="6.54068">
        <ele>504.1</ele>
        <time>2013-12-08T14:28:35Z</time>
      </trkpt>
      <trkpt lat="43.61368" lon="6.54053">
        <ele>502.1</ele>
        <time>2013-12-08T14:28:52Z</time>
      </trkpt>
      <trkpt lat="43.61374" lon="6.54053">
        <ele>501.4</ele>
        <time>2013-12-08T14:28:58Z</time>
      </trkpt>
      <trkpt lat="43.61382" lon="6.54061">
        <ele>499.6</ele>
        <time>2013-12-08T14:29:07Z</time>
      </trkpt>
      <trkpt lat="43.61389" lon="6.5407">
        <ele>497.9</ele>
        <time>2013-12-08T14:29:17Z</time>
      </trkpt>
      <trkpt lat="43.61396" lon="6.54061">
        <ele>495.8</ele>
        <time>2013-12-08T14:29:33Z</time>
      </trkpt>
      <trkpt lat="43.61403" lon="6.5406">
        <ele>494.8</ele>
        <time>2013-12-08T14:29:39Z</time>
      </trkpt>
      <trkpt lat="43.61407" lon="6.54064">
        <ele>493.6</ele>
        <time>2013-12-08T14:29:46Z</time>
      </trkpt>
      <trkpt lat="43.61415" lon="6.54077">
        <ele>489.6</ele>
        <time>2013-12-08T14:30:03Z</time>
      </trkpt>
      <trkpt lat="43.61422" lon="6.54085">
        <ele>487</ele>
        <time>2013-12-08T14:30:14Z</time>
      </trkpt>
      <trkpt lat="43.61418" lon="6.54079">
        <ele>486.9</ele>
        <time>2013-12-08T14:30:20Z</time>
      </trkpt>
      <trkpt lat="43.61418" lon="6.54069">
        <ele>486.7</ele>
        <time>2013-12-08T14:30:27Z</time>
      </trkpt>
      <trkpt lat="43.61411" lon="6.54055">
        <ele>486.9</ele>
        <time>2013-12-08T14:30:40Z</time>
      </trkpt>
      <trkpt lat="43.61398" lon="6.54037">
        <ele>487</ele>
        <time>2013-12-08T14:30:55Z</time>
      </trkpt>
      <trkpt lat="43.61396" lon="6.54023">
        <ele>487</ele>
        <time>2013-12-08T14:31:04Z</time>
      </trkpt>
      <trkpt lat="43.61394" lon="6.54004">
        <ele>487.2</ele>
        <time>2013-12-08T14:31:15Z</time>
      </trkpt>
      <trkpt lat="43.61389" lon="6.53983">
        <ele>487.2</ele>
        <time>2013-12-08T14:31:29Z</time>
      </trkpt>
      <trkpt lat="43.61389" lon="6.53968">
        <ele>487.5</ele>
        <time>2013-12-08T14:31:38Z</time>
      </trkpt>
      <trkpt lat="43.61383" lon="6.53954">
        <ele>486.6</ele>
        <time>2013-12-08T14:32:02Z</time>
      </trkpt>
      <trkpt lat="43.61383" lon="6.53954">
        <ele>487</ele>
        <time>2013-12-08T14:32:17Z</time>
      </trkpt>
      <trkpt lat="43.61387" lon="6.53934">
        <ele>486.7</ele>
        <time>2013-12-08T14:32:43Z</time>
      </trkpt>
      <trkpt lat="43.61388" lon="6.53928">
        <ele>486.7</ele>
        <time>2013-12-08T14:33:02Z</time>
      </trkpt>
      <trkpt lat="43.61386" lon="6.53931">
        <ele>486.7</ele>
        <time>2013-12-08T14:33:20Z</time>
      </trkpt>
      <trkpt lat="43.61387" lon="6.53937">
        <ele>486.9</ele>
        <time>2013-12-08T14:33:27Z</time>
      </trkpt>
      <trkpt lat="43.61387" lon="6.53941">
        <ele>486.7</ele>
        <time>2013-12-08T14:33:45Z</time>
      </trkpt>
      <trkpt lat="43.61392" lon="6.53928">
        <ele>486.9</ele>
        <time>2013-12-08T14:33:59Z</time>
      </trkpt>
      <trkpt lat="43.6139" lon="6.53927">
        <ele>487</ele>
        <time>2013-12-08T14:34:06Z</time>
      </trkpt>
      <trkpt lat="43.61395" lon="6.53935">
        <ele>486.6</ele>
        <time>2013-12-08T14:34:30Z</time>
      </trkpt>
      <trkpt lat="43.61393" lon="6.53933">
        <ele>486.5</ele>
        <time>2013-12-08T14:34:45Z</time>
      </trkpt>
      <trkpt lat="43.61383" lon="6.53942">
        <ele>486.3</ele>
        <time>2013-12-08T14:35:10Z</time>
      </trkpt>
    </trkseg>
  </trk>
</gpx>